Darstellungsparameter: Aktuell verwendete Einstellungen:
Skalierung der Graphiken ... ?
xyx+y,   Skalierungsfaktor:      Skalierung: Modus: x, Faktor: 1
Darstellungszeitraum ... ?
Vom - - bis: - -   Zeitraum: 03.07.2010 - 17.12.2010
Min/Max/Avg-Anzeige ... ?
Zeige MMA aktuell
Zeige MMA Monat
Zeige MMA alles
Zeige --A aktuell
Zeige --A Monat
Zeige --A alles
Keine MMA-Anzeige
MMA:
Average (ber die Originaldaten)
MMA-Basis: 23.02.2003 - 03.08.2020
Quicknavigation für Darstellung... ?
Tage:      1T, 2T, 3T, 5T -1T -2T -3T -5T +1T +2T +3T +5T
Wochen: 1W, 2W, 3W -1W -2W -3W +1W +2W +3W
Monate: 1M, 3M, 6M -1M -3M -6M +1M +3M +6M
Jahre:    1J, 3J, 5J, 10J -1J -3J -5J -10J +1J +3J +5J +10J
Nutze für die Darstellung ... ?
Originaldaten oder ...
Mittelwerte Minima Maxima auf...
Stundenbasis Tagesbasis Wochenbasis
Monatsbasis Jahresbasis      Datenbasis: Mittelwerte auf Stundenbasis
Darstellen als:
Statistik (Auto) Statistik J:M      Darstellung:
Zur Graphik,    zurück zur Übersicht aller Sensoren.
 
Tabellarische Datenbersicht: ?
 
Sensor: Nr:Datum:Temp:Abs-Feuchte:Windchill:Wind:
Aussen-T/F 1 03-07-2010 00:00:00 24.46 C 8.98 g/m*3 24.46 C 0 km/h
2 03-07-2010 01:00:00 23.38 C 9.83 g/m*3 23.38 C 0 km/h
3 03-07-2010 02:00:00 22.52 C 10.44 g/m*3 22.52 C 0 km/h
4 03-07-2010 03:00:00 21.58 C 10.76 g/m*3 21.58 C 0 km/h
5 03-07-2010 04:00:00 20.68 C 11.04 g/m*3 20.68 C 0 km/h
6 03-07-2010 05:00:00 20.02 C 11.32 g/m*3 20.02 C 0 km/h
7 03-07-2010 06:00:00 20.18 C 11.49 g/m*3 20.18 C 0 km/h
8 03-07-2010 07:00:00 21.32 C 11.76 g/m*3 21.32 C 0 km/h
9 03-07-2010 08:00:00 22.58 C 11.8 g/m*3 22.58 C 0 km/h
10 03-07-2010 09:00:00 25.16 C 12.12 g/m*3 25.16 C 0 km/h
11 03-07-2010 10:00:00 28.84 C 12.13 g/m*3 28.84 C 0 km/h
12 03-07-2010 11:00:00 31.3 C 10.86 g/m*3 31.3 C 0 km/h
13 03-07-2010 12:00:00 33.3 C 7.59 g/m*3 33.3 C 0 km/h
14 03-07-2010 13:00:00 33.78 C 7.71 g/m*3 33.78 C 0 km/h
15 03-07-2010 14:00:00 33.72 C 7.39 g/m*3 33.72 C 0 km/h
16 03-07-2010 15:00:00 31.94 C 7.81 g/m*3 31.94 C 0 km/h
17 03-07-2010 16:00:00 30.8 C 8.74 g/m*3 30.8 C 0 km/h
18 03-07-2010 17:00:00 29.4 C 9.86 g/m*3 29.4 C 0 km/h
19 03-07-2010 18:00:00 26.48 C 10.7 g/m*3 26.48 C 0 km/h
20 03-07-2010 19:00:00 27.1 C 11.44 g/m*3 27.1 C 0 km/h
21 03-07-2010 20:00:00 28.08 C 12.07 g/m*3 28.08 C 0 km/h
22 03-07-2010 21:00:00 26.24 C 13.42 g/m*3 26.24 C 0 km/h
23 03-07-2010 22:00:00 25.02 C 14.06 g/m*3 25.02 C 0 km/h
24 03-07-2010 23:00:00 24.04 C 13.78 g/m*3 24.04 C 0 km/h
25 04-07-2010 00:00:00 23.46 C 14.01 g/m*3 23.46 C 0 km/h
Sensor: Nr:Datum:Temp:Abs-Feuchte:Windchill:Wind:
Aussen-T/F 26 04-07-2010 01:00:00 22.92 C 13.79 g/m*3 22.92 C 0 km/h
27 04-07-2010 02:00:00 22.38 C 13.61 g/m*3 22.38 C 0 km/h
28 04-07-2010 03:00:00 22.16 C 13.79 g/m*3 22.16 C 0 km/h
29 04-07-2010 04:00:00 21.62 C 13.9 g/m*3 21.62 C 0 km/h
30 04-07-2010 05:00:00 21.12 C 13.95 g/m*3 21.12 C 0 km/h
31 04-07-2010 06:00:00 21.64 C 13.99 g/m*3 21.64 C 0 km/h
32 04-07-2010 07:00:00 22.34 C 13.89 g/m*3 22.34 C 0 km/h
33 04-07-2010 08:00:00 23.16 C 13.44 g/m*3 23.16 C 0 km/h
34 04-07-2010 09:00:00 23.54 C 12.93 g/m*3 23.54 C 0 km/h
35 04-07-2010 10:00:00 24.42 C 12.61 g/m*3 24.42 C 0 km/h
36 04-07-2010 11:00:00 26.02 C 12.09 g/m*3 26.02 C 0 km/h
37 04-07-2010 12:00:00 27.94 C 11 g/m*3 27.94 C 0 km/h
38 04-07-2010 13:00:00 30.34 C 9.64 g/m*3 30.34 C 0 km/h
39 04-07-2010 14:00:00 30.56 C 9.5 g/m*3 30.56 C 0 km/h
40 04-07-2010 15:00:00 31.98 C 8.5 g/m*3 31.98 C 0 km/h
41 04-07-2010 16:00:00 32.22 C 7.86 g/m*3 32.22 C 0 km/h
42 04-07-2010 17:00:00 32.48 C 7.55 g/m*3 32.48 C 0 km/h
43 04-07-2010 18:00:00 32.5 C 7.56 g/m*3 32.5 C 0 km/h
44 04-07-2010 19:00:00 30.92 C 8.73 g/m*3 30.92 C 0 km/h
45 04-07-2010 20:00:00 31.06 C 8.8 g/m*3 31.06 C 0 km/h
46 04-07-2010 21:00:00 27.74 C 9.65 g/m*3 27.74 C 0 km/h
47 04-07-2010 22:00:00 26.44 C 9.58 g/m*3 26.44 C 0 km/h
48 04-07-2010 23:00:00 25.8 C 9.24 g/m*3 25.8 C 0 km/h
49 05-07-2010 00:00:00 24.34 C 8.16 g/m*3 24.34 C 0 km/h
50 05-07-2010 01:00:00 23.26 C 7.13 g/m*3 23.26 C 0 km/h
Sensor: Nr:Datum:Temp:Abs-Feuchte:Windchill:Wind:
Aussen-T/F 51 05-07-2010 02:00:00 21.94 C 7.08 g/m*3 21.94 C 0 km/h
52 05-07-2010 03:00:00 21.02 C 6.82 g/m*3 21.02 C 0 km/h
53 05-07-2010 04:00:00 19.96 C 6.28 g/m*3 19.96 C 0 km/h
54 05-07-2010 05:00:00 18.86 C 6.3 g/m*3 18.86 C 0 km/h
55 05-07-2010 06:00:00 18.34 C 6.77 g/m*3 18.34 C 0 km/h
56 05-07-2010 07:00:00 18.44 C 7.47 g/m*3 18.44 C 0 km/h
57 05-07-2010 08:00:00 19.4 C 7.01 g/m*3 19.4 C 0 km/h
58 05-07-2010 09:00:00 21.28 C 6.67 g/m*3 21.28 C 0 km/h
59 05-07-2010 10:00:00 23.7 C 6.42 g/m*3 23.7 C 0 km/h
60 05-07-2010 11:00:00 26.54 C 6.62 g/m*3 26.54 C 0 km/h
61 05-07-2010 12:00:00 27.94 C 6.61 g/m*3 27.94 C 0 km/h
62 05-07-2010 13:00:00 27.88 C 7.56 g/m*3 27.88 C 0 km/h
63 05-07-2010 14:00:00 26.2 C 8.03 g/m*3 26.2 C 0 km/h
64 05-07-2010 15:00:00 25.86 C 8.26 g/m*3 25.86 C 0 km/h
65 05-07-2010 16:00:00 24.76 C 8.9 g/m*3 24.76 C 0 km/h
66 05-07-2010 17:00:00 23.46 C 10.04 g/m*3 23.46 C 0 km/h
67 05-07-2010 18:00:00 21.1 C 11.76 g/m*3 21.1 C 0 km/h
68 05-07-2010 19:00:00 19.32 C 13.62 g/m*3 19.32 C 0 km/h
69 05-07-2010 20:00:00 19.44 C 13.14 g/m*3 19.44 C 0 km/h
70 05-07-2010 21:00:00 18.96 C 12.94 g/m*3 18.96 C 0 km/h
71 05-07-2010 22:00:00 18.62 C 12.78 g/m*3 18.62 C 0 km/h
72 05-07-2010 23:00:00 17.88 C 12.47 g/m*3 17.88 C 0 km/h
73 06-07-2010 00:00:00 17.24 C 11.98 g/m*3 17.24 C 0 km/h
74 06-07-2010 01:00:00 17.24 C 11.77 g/m*3 17.24 C 0 km/h
75 06-07-2010 02:00:00 16.84 C 11.26 g/m*3 16.84 C 0 km/h
Sensor: Nr:Datum:Temp:Abs-Feuchte:Windchill:Wind:
Aussen-T/F 76 06-07-2010 03:00:00 16.34 C 10.88 g/m*3 16.34 C 0 km/h
77 06-07-2010 04:00:00 15.2 C 10.1 g/m*3 15.2 C 0 km/h
78 06-07-2010 05:00:00 14.86 C 10.25 g/m*3 14.86 C 0 km/h
79 06-07-2010 06:00:00 14.66 C 9.92 g/m*3 14.66 C 0 km/h
80 06-07-2010 07:00:00 15.08 C 9.72 g/m*3 15.08 C 0 km/h
81 06-07-2010 08:00:00 15.9 C 9.24 g/m*3 15.9 C 0 km/h
82 06-07-2010 09:00:00 17.54 C 8.28 g/m*3 17.54 C 0 km/h
83 06-07-2010 10:00:00 20.02 C 7.27 g/m*3 20.02 C 0 km/h
84 06-07-2010 11:00:00 21.48 C 6.59 g/m*3 21.48 C 0 km/h
85 06-07-2010 12:00:00 23.02 C 5.51 g/m*3 23.02 C 0 km/h
86 06-07-2010 13:00:00 24.6 C 5.04 g/m*3 24.6 C 0 km/h
87 06-07-2010 14:00:00 24.28 C 4.73 g/m*3 24.28 C 0 km/h
88 06-07-2010 15:00:00 24.52 C 4.48 g/m*3 24.52 C 0 km/h
89 06-07-2010 16:00:00 25.84 C 4.83 g/m*3 25.84 C 0 km/h
90 06-07-2010 17:00:00 26.92 C 5.12 g/m*3 26.92 C 0 km/h
91 06-07-2010 18:00:00 25.46 C 4.72 g/m*3 25.46 C 0 km/h
92 06-07-2010 19:00:00 25.06 C 4.8 g/m*3 25.06 C 0 km/h
93 06-07-2010 20:00:00 24.3 C 5.31 g/m*3 24.3 C 0 km/h
94 06-07-2010 21:00:00 21.36 C 6.25 g/m*3 21.36 C 0 km/h
95 06-07-2010 22:00:00 18.84 C 6.52 g/m*3 18.84 C 0 km/h
96 06-07-2010 23:00:00 17.68 C 6.81 g/m*3 17.68 C 0 km/h
97 07-07-2010 00:00:00 16.5 C 6.88 g/m*3 16.5 C 0 km/h
98 07-07-2010 01:00:00 15.52 C 7.41 g/m*3 15.52 C 0 km/h
99 07-07-2010 02:00:00 14.8 C 7.68 g/m*3 14.8 C 0 km/h
100 07-07-2010 03:00:00 13.92 C 7.78 g/m*3 13.92 C 0 km/h
Sensor: Nr:Datum:Temp:Abs-Feuchte:Windchill:Wind:
Aussen-T/F 101 07-07-2010 04:00:00 13.3 C 7.74 g/m*3 13.3 C 0 km/h
102 07-07-2010 05:00:00 12.76 C 8 g/m*3 12.76 C 0 km/h
103 07-07-2010 06:00:00 12.7 C 8.24 g/m*3 12.7 C 0 km/h
104 07-07-2010 07:00:00 13.34 C 8.39 g/m*3 13.34 C 0 km/h
105 07-07-2010 08:00:00 14.76 C 8.31 g/m*3 14.76 C 0 km/h
106 07-07-2010 09:00:00 17.66 C 8.13 g/m*3 17.66 C 0 km/h
107 07-07-2010 10:00:00 21.04 C 7.97 g/m*3 21.04 C 0 km/h
108 07-07-2010 11:00:00 23.62 C 6 g/m*3 23.62 C 0 km/h
109 07-07-2010 12:00:00 26.78 C 5.34 g/m*3 26.78 C 0 km/h
110 07-07-2010 13:00:00 29.38 C 5.86 g/m*3 29.38 C 0 km/h
111 07-07-2010 14:00:00 28.34 C 5.54 g/m*3 28.34 C 0 km/h
112 07-07-2010 15:00:00 30.4 C 6.2 g/m*3 30.4 C 0 km/h
113 07-07-2010 16:00:00 31.96 C 6.74 g/m*3 31.96 C 0 km/h
114 07-07-2010 17:00:00 32.54 C 6.95 g/m*3 32.54 C 0 km/h
115 07-07-2010 18:00:00 32.88 C 7.07 g/m*3 32.88 C 0 km/h
116 07-07-2010 19:00:00 32.4 C 6.9 g/m*3 32.4 C 0 km/h
117 07-07-2010 20:00:00 31.26 C 6.49 g/m*3 31.26 C 0 km/h
118 07-07-2010 21:00:00 26.86 C 6.69 g/m*3 26.86 C 0 km/h
119 07-07-2010 22:00:00 24.4 C 6.85 g/m*3 24.4 C 0 km/h
120 07-07-2010 23:00:00 23.7 C 7.1 g/m*3 23.7 C 0 km/h
121 08-07-2010 00:00:00 22.38 C 7.74 g/m*3 22.38 C 0 km/h
122 08-07-2010 01:00:00 20.54 C 7.99 g/m*3 20.54 C 0 km/h
123 08-07-2010 02:00:00 19.78 C 8.19 g/m*3 19.78 C 0 km/h
124 08-07-2010 03:00:00 19.4 C 8.14 g/m*3 19.4 C 0 km/h
125 08-07-2010 04:00:00 18.52 C 8.43 g/m*3 18.52 C 0 km/h
Sensor: Nr:Datum:Temp:Abs-Feuchte:Windchill:Wind:
Aussen-T/F 126 08-07-2010 05:00:00 17.78 C 8.4 g/m*3 17.78 C 0 km/h
127 08-07-2010 06:00:00 17.38 C 8.5 g/m*3 17.38 C 0 km/h
128 08-07-2010 07:00:00 17.92 C 8.93 g/m*3 17.92 C 0 km/h
129 08-07-2010 08:00:00 19.12 C 8.9 g/m*3 19.12 C 0 km/h
130 08-07-2010 09:00:00 22.24 C 9.17 g/m*3 22.24 C 0 km/h
131 08-07-2010 10:00:00 25.96 C 8.94 g/m*3 25.96 C 0 km/h
132 08-07-2010 11:00:00 29.18 C 7.08 g/m*3 29.18 C 0 km/h
133 08-07-2010 12:00:00 31.5 C 6.57 g/m*3 31.5 C 0 km/h
134 08-07-2010 13:00:00 32.88 C 7.07 g/m*3 32.88 C 0 km/h
135 08-07-2010 14:00:00 32.36 C 6.88 g/m*3 32.36 C 0 km/h
136 08-07-2010 15:00:00 33.26 C 7.22 g/m*3 33.26 C 0 km/h
137 08-07-2010 16:00:00 33.62 C 7.36 g/m*3 33.62 C 0 km/h
138 08-07-2010 17:00:00 33.96 C 7.49 g/m*3 33.96 C 0 km/h
139 08-07-2010 18:00:00 34.38 C 7.65 g/m*3 34.38 C 0 km/h
140 08-07-2010 19:00:00 34.14 C 7.56 g/m*3 34.14 C 0 km/h
141 08-07-2010 20:00:00 33 C 7.19 g/m*3 33 C 0 km/h
142 08-07-2010 21:00:00 29.98 C 8.3 g/m*3 29.98 C 0 km/h
143 08-07-2010 22:00:00 28.02 C 8.22 g/m*3 28.02 C 0 km/h
144 08-07-2010 23:00:00 27.12 C 8.08 g/m*3 27.12 C 0 km/h
145 09-07-2010 00:00:00 25.66 C 8.41 g/m*3 25.66 C 0 km/h
146 09-07-2010 01:00:00 23.78 C 8.81 g/m*3 23.78 C 0 km/h
147 09-07-2010 02:00:00 22.4 C 8.94 g/m*3 22.4 C 0 km/h
148 09-07-2010 03:00:00 21.24 C 9.21 g/m*3 21.24 C 0 km/h
149 09-07-2010 04:00:00 20.16 C 9.45 g/m*3 20.16 C 0 km/h
150 09-07-2010 05:00:00 19.22 C 9.48 g/m*3 19.22 C 0 km/h
Sensor: Nr:Datum:Temp:Abs-Feuchte:Windchill:Wind:
Aussen-T/F 151 09-07-2010 06:00:00 19.06 C 9.98 g/m*3 19.06 C 0 km/h
152 09-07-2010 07:00:00 19.9 C 10.1 g/m*3 19.9 C 0 km/h
153 09-07-2010 08:00:00 21.5 C 9.96 g/m*3 21.5 C 0 km/h
154 09-07-2010 09:00:00 24.16 C 10.14 g/m*3 24.16 C 0 km/h
155 09-07-2010 10:00:00 27.94 C 10.3 g/m*3 27.94 C 0 km/h
156 09-07-2010 11:00:00 30.82 C 9.19 g/m*3 30.82 C 0 km/h
157 09-07-2010 12:00:00 33.14 C 7.17 g/m*3 33.14 C 0 km/h
158 09-07-2010 13:00:00 34.56 C 7.73 g/m*3 34.56 C 0 km/h
159 09-07-2010 14:00:00 33.26 C 7.22 g/m*3 33.26 C 0 km/h
160 09-07-2010 15:00:00 33.48 C 7.3 g/m*3 33.48 C 0 km/h
161 09-07-2010 16:00:00 32.28 C 7.74 g/m*3 32.28 C 0 km/h
162 09-07-2010 17:00:00 32.32 C 7.76 g/m*3 32.32 C 0 km/h
163 09-07-2010 18:00:00 33.42 C 7.28 g/m*3 33.42 C 0 km/h
164 09-07-2010 19:00:00 33.48 C 7.3 g/m*3 33.48 C 0 km/h
165 09-07-2010 20:00:00 32.04 C 7.58 g/m*3 32.04 C 0 km/h
166 09-07-2010 21:00:00 29.94 C 8.71 g/m*3 29.94 C 0 km/h
167 09-07-2010 22:00:00 28.78 C 9.48 g/m*3 28.78 C 0 km/h
168 09-07-2010 23:00:00 27.78 C 9.62 g/m*3 27.78 C 0 km/h
169 10-07-2010 00:00:00 26.3 C 10.1 g/m*3 26.3 C 0 km/h
170 10-07-2010 01:00:00 24.96 C 10.57 g/m*3 24.96 C 0 km/h
171 10-07-2010 02:00:00 24.2 C 10.78 g/m*3 24.2 C 0 km/h
172 10-07-2010 03:00:00 23.1 C 11.41 g/m*3 23.1 C 0 km/h
173 10-07-2010 04:00:00 22.34 C 11.48 g/m*3 22.34 C 0 km/h
174 10-07-2010 05:00:00 21.64 C 11.67 g/m*3 21.64 C 0 km/h
175 10-07-2010 06:00:00 21.3 C 11.97 g/m*3 21.3 C 0 km/h
Sensor: Nr:Datum:Temp:Abs-Feuchte:Windchill:Wind:
Aussen-T/F 176 10-07-2010 07:00:00 21.9 C 12.23 g/m*3 21.9 C 0 km/h
177 10-07-2010 08:00:00 23.38 C 12.01 g/m*3 23.38 C 0 km/h
178 10-07-2010 09:00:00 26.04 C 11.76 g/m*3 26.04 C 0 km/h
179 10-07-2010 10:00:00 29.44 C 11.53 g/m*3 29.44 C 0 km/h
180 10-07-2010 11:00:00 31.46 C 9.25 g/m*3 31.46 C 0 km/h
181 10-07-2010 12:00:00 33.42 C 7.5 g/m*3 33.42 C 0 km/h
182 10-07-2010 13:00:00 34.8 C 7.82 g/m*3 34.8 C 0 km/h
183 10-07-2010 14:00:00 34.44 C 7.68 g/m*3 34.44 C 0 km/h
184 10-07-2010 15:00:00 35.2 C 7.99 g/m*3 35.2 C 0 km/h
185 10-07-2010 16:00:00 35.62 C 8.17 g/m*3 35.62 C 0 km/h
186 10-07-2010 17:00:00 35.8 C 8.24 g/m*3 35.8 C 0 km/h
187 10-07-2010 18:00:00 35.92 C 8.29 g/m*3 35.92 C 0 km/h
188 10-07-2010 19:00:00 35.38 C 8.06 g/m*3 35.38 C 0 km/h
189 10-07-2010 20:00:00 33.58 C 8.22 g/m*3 33.58 C 0 km/h
190 10-07-2010 21:00:00 31.3 C 9.43 g/m*3 31.3 C 0 km/h
191 10-07-2010 22:00:00 30.44 C 9.94 g/m*3 30.44 C 0 km/h
192 10-07-2010 23:00:00 30.2 C 9.81 g/m*3 30.2 C 0 km/h
193 11-07-2010 00:00:00 29.85 C 9.85 g/m*3 29.85 C 0 km/h
194 11-07-2010 01:00:00 28.52 C 11.19 g/m*3 28.52 C 0 km/h
195 11-07-2010 02:00:00 24.02 C 15.9 g/m*3 24.02 C 0 km/h
196 11-07-2010 03:00:00 23.38 C 16.26 g/m*3 23.38 C 0 km/h
197 11-07-2010 04:00:00 21.98 C 16.44 g/m*3 21.98 C 0 km/h
198 11-07-2010 05:00:00 22 C 16.23 g/m*3 22 C 0 km/h
199 11-07-2010 06:00:00 21.84 C 16.08 g/m*3 21.84 C 0 km/h
200 11-07-2010 07:00:00 22.76 C 15.73 g/m*3 22.76 C 0 km/h
Sensor: Nr:Datum:Temp:Abs-Feuchte:Windchill:Wind:
Aussen-T/F 201 11-07-2010 08:00:00 24.22 C 15.46 g/m*3 24.22 C 0 km/h
202 11-07-2010 09:00:00 24.42 C 14.79 g/m*3 24.42 C 0 km/h
203 11-07-2010 10:00:00 26.8 C 12.93 g/m*3 26.8 C 0 km/h
204 11-07-2010 11:00:00 28.54 C 12.27 g/m*3 28.54 C 0 km/h
205 11-07-2010 12:00:00 30.44 C 10.81 g/m*3 30.44 C 0 km/h
206 11-07-2010 13:00:00 31.66 C 9.15 g/m*3 31.66 C 0 km/h
207 11-07-2010 14:00:00 32.06 C 8.33 g/m*3 32.06 C 0 km/h
208 11-07-2010 15:00:00 32.84 C 7.55 g/m*3 32.84 C 0 km/h
209 11-07-2010 16:00:00 33.7 C 7.39 g/m*3 33.7 C 0 km/h
210 11-07-2010 17:00:00 34.26 C 7.61 g/m*3 34.26 C 0 km/h
211 11-07-2010 18:00:00 34.12 C 7.55 g/m*3 34.12 C 0 km/h
212 11-07-2010 19:00:00 33.92 C 7.47 g/m*3 33.92 C 0 km/h
213 11-07-2010 20:00:00 33.3 C 7.88 g/m*3 33.3 C 0 km/h
214 11-07-2010 21:00:00 30.88 C 10.11 g/m*3 30.88 C 0 km/h
215 11-07-2010 22:00:00 29.82 C 10.87 g/m*3 29.82 C 0 km/h
216 11-07-2010 23:00:00 28.54 C 11.15 g/m*3 28.54 C 0 km/h
217 12-07-2010 00:00:00 27.24 C 11.84 g/m*3 27.24 C 0 km/h
218 12-07-2010 01:00:00 26.02 C 12.33 g/m*3 26.02 C 0 km/h
219 12-07-2010 02:00:00 25.12 C 12.7 g/m*3 25.12 C 0 km/h
220 12-07-2010 03:00:00 24.18 C 13.1 g/m*3 24.18 C 0 km/h
221 12-07-2010 04:00:00 23.32 C 13.06 g/m*3 23.32 C 0 km/h
222 12-07-2010 05:00:00 22.66 C 13.18 g/m*3 22.66 C 0 km/h
223 12-07-2010 06:00:00 22.54 C 13.37 g/m*3 22.54 C 0 km/h
224 12-07-2010 07:00:00 22.86 C 13.62 g/m*3 22.86 C 0 km/h
225 12-07-2010 08:00:00 23.86 C 13.64 g/m*3 23.86 C 0 km/h
Sensor: Nr:Datum:Temp:Abs-Feuchte:Windchill:Wind:
Aussen-T/F 226 12-07-2010 09:00:00 26.72 C 13.58 g/m*3 26.72 C 0 km/h
227 12-07-2010 10:00:00 29.96 C 12.53 g/m*3 29.96 C 0 km/h
228 12-07-2010 11:00:00 31.78 C 9.94 g/m*3 31.78 C 0 km/h
229 12-07-2010 12:00:00 31.04 C 8.15 g/m*3 31.04 C 0 km/h
230 12-07-2010 13:00:00 28.12 C 11.77 g/m*3 28.12 C 0 km/h
231 12-07-2010 14:00:00 30.7 C 9.45 g/m*3 30.7 C 0 km/h
232 12-07-2010 15:00:00 31.62 C 7.94 g/m*3 31.62 C 0 km/h
233 12-07-2010 16:00:00 31.9 C 6.72 g/m*3 31.9 C 0 km/h
234 12-07-2010 17:00:00 31.54 C 6.59 g/m*3 31.54 C 0 km/h
235 12-07-2010 18:00:00 30.18 C 7.41 g/m*3 30.18 C 0 km/h
236 12-07-2010 19:00:00 28.68 C 7.62 g/m*3 28.68 C 0 km/h
237 12-07-2010 20:00:00 26.96 C 7.86 g/m*3 26.96 C 0 km/h
238 12-07-2010 21:00:00 25.72 C 8.96 g/m*3 25.72 C 0 km/h
239 12-07-2010 22:00:00 24.62 C 9.24 g/m*3 24.62 C 0 km/h
240 12-07-2010 23:00:00 23.48 C 9.72 g/m*3 23.48 C 0 km/h
241 13-07-2010 00:00:00 22.3 C 10.35 g/m*3 22.3 C 0 km/h
242 13-07-2010 01:00:00 21.42 C 10.7 g/m*3 21.42 C 0 km/h
243 13-07-2010 02:00:00 20.66 C 10.92 g/m*3 20.66 C 0 km/h
244 13-07-2010 03:00:00 19.88 C 11.22 g/m*3 19.88 C 0 km/h
245 13-07-2010 04:00:00 19.62 C 11.66 g/m*3 19.62 C 0 km/h
246 13-07-2010 05:00:00 18.72 C 12.25 g/m*3 18.72 C 0 km/h
247 13-07-2010 06:00:00 18.8 C 12.11 g/m*3 18.8 C 0 km/h
248 13-07-2010 07:00:00 19.62 C 12.03 g/m*3 19.62 C 0 km/h
249 13-07-2010 08:00:00 20.92 C 11.96 g/m*3 20.92 C 0 km/h
250 13-07-2010 09:00:00 22.64 C 11.8 g/m*3 22.64 C 0 km/h
Sensor: Nr:Datum:Temp:Abs-Feuchte:Windchill:Wind:
Aussen-T/F 251 13-07-2010 10:00:00 24.6 C 11.07 g/m*3 24.6 C 0 km/h
252 13-07-2010 11:00:00 26.1 C 10.28 g/m*3 26.1 C 0 km/h
253 13-07-2010 12:00:00 29.44 C 8.59 g/m*3 29.44 C 0 km/h
254 13-07-2010 13:00:00 29.32 C 8.01 g/m*3 29.32 C 0 km/h
255 13-07-2010 14:00:00 29.04 C 8.35 g/m*3 29.04 C 0 km/h
256 13-07-2010 15:00:00 30.72 C 7.31 g/m*3 30.72 C 0 km/h
257 13-07-2010 16:00:00 31.06 C 6.87 g/m*3 31.06 C 0 km/h
258 13-07-2010 17:00:00 31.74 C 6.66 g/m*3 31.74 C 0 km/h
259 13-07-2010 18:00:00 31.86 C 6.7 g/m*3 31.86 C 0 km/h
260 13-07-2010 19:00:00 31.36 C 6.53 g/m*3 31.36 C 0 km/h
261 13-07-2010 20:00:00 31.12 C 6.76 g/m*3 31.12 C 0 km/h
262 13-07-2010 21:00:00 27.84 C 8.03 g/m*3 27.84 C 0 km/h
263 13-07-2010 22:00:00 25.46 C 8.6 g/m*3 25.46 C 0 km/h
264 13-07-2010 23:00:00 24.42 C 9.13 g/m*3 24.42 C 0 km/h
265 14-07-2010 00:00:00 23.68 C 9.61 g/m*3 23.68 C 0 km/h
266 14-07-2010 01:00:00 23.16 C 10 g/m*3 23.16 C 0 km/h
267 14-07-2010 02:00:00 22.54 C 10.33 g/m*3 22.54 C 0 km/h
268 14-07-2010 03:00:00 21.58 C 10.61 g/m*3 21.58 C 0 km/h
269 14-07-2010 04:00:00 20.72 C 11.03 g/m*3 20.72 C 0 km/h
270 14-07-2010 05:00:00 20.1 C 11.13 g/m*3 20.1 C 0 km/h
271 14-07-2010 06:00:00 20.3 C 11.29 g/m*3 20.3 C 0 km/h
272 14-07-2010 07:00:00 20.58 C 11.58 g/m*3 20.58 C 0 km/h
273 14-07-2010 08:00:00 21.82 C 11.76 g/m*3 21.82 C 0 km/h
274 14-07-2010 09:00:00 24.66 C 11.92 g/m*3 24.66 C 0 km/h
275 14-07-2010 10:00:00 27.88 C 10.48 g/m*3 27.88 C 0 km/h
Sensor: Nr:Datum:Temp:Abs-Feuchte:Windchill:Wind:
Aussen-T/F 276 14-07-2010 11:00:00 30.4 C 9.23 g/m*3 30.4 C 0 km/h
277 14-07-2010 12:00:00 31.44 C 8.19 g/m*3 31.44 C 0 km/h
278 14-07-2010 13:00:00 32.42 C 7.39 g/m*3 32.42 C 0 km/h
279 14-07-2010 14:00:00 32.94 C 7.1 g/m*3 32.94 C 0 km/h
280 14-07-2010 15:00:00 33.26 C 7.22 g/m*3 33.26 C 0 km/h
281 14-07-2010 16:00:00 34.4 C 7.66 g/m*3 34.4 C 0 km/h
282 14-07-2010 17:00:00 34.5 C 7.7 g/m*3 34.5 C 0 km/h
283 14-07-2010 18:00:00 34.66 C 7.77 g/m*3 34.66 C 0 km/h
284 14-07-2010 19:00:00 25.84 C 13.61 g/m*3 25.84 C 0 km/h
285 14-07-2010 20:00:00 22.34 C 16.51 g/m*3 22.34 C 0 km/h
286 14-07-2010 21:00:00 21.74 C 15.41 g/m*3 21.74 C 0 km/h
287 14-07-2010 22:00:00 21.5 C 14.67 g/m*3 21.5 C 0 km/h
288 14-07-2010 23:00:00 21.28 C 14 g/m*3 21.28 C 0 km/h
289 15-07-2010 00:00:00 21.04 C 13.44 g/m*3 21.04 C 0 km/h
290 15-07-2010 01:00:00 20.16 C 11.76 g/m*3 20.16 C 0 km/h
291 15-07-2010 02:00:00 19.58 C 11.63 g/m*3 19.58 C 0 km/h
292 15-07-2010 03:00:00 19.32 C 11.06 g/m*3 19.32 C 0 km/h
293 15-07-2010 04:00:00 18.94 C 11.04 g/m*3 18.94 C 0 km/h
294 15-07-2010 05:00:00 18.76 C 11.18 g/m*3 18.76 C 0 km/h
295 15-07-2010 06:00:00 18.9 C 10.98 g/m*3 18.9 C 0 km/h
296 15-07-2010 07:00:00 18.5 C 11.9 g/m*3 18.5 C 0 km/h
297 15-07-2010 08:00:00 18.42 C 11.68 g/m*3 18.42 C 0 km/h
298 15-07-2010 09:00:00 19.58 C 9.07 g/m*3 19.58 C 0 km/h
299 15-07-2010 10:00:00 21.22 C 7.57 g/m*3 21.22 C 0 km/h
300 15-07-2010 11:00:00 22.32 C 6.76 g/m*3 22.32 C 0 km/h
Sensor: Nr:Datum:Temp:Abs-Feuchte:Windchill:Wind:
Aussen-T/F 301 15-07-2010 12:00:00 24.42 C 5.84 g/m*3 24.42 C 0 km/h
302 15-07-2010 13:00:00 26.14 C 5.1 g/m*3 26.14 C 0 km/h
303 15-07-2010 14:00:00 26.22 C 4.93 g/m*3 26.22 C 0 km/h
304 15-07-2010 15:00:00 26.9 C 5.12 g/m*3 26.9 C 0 km/h
305 15-07-2010 16:00:00 27.82 C 5.39 g/m*3 27.82 C 0 km/h
306 15-07-2010 17:00:00 28.46 C 5.58 g/m*3 28.46 C 0 km/h
307 15-07-2010 18:00:00 27.98 C 5.43 g/m*3 27.98 C 0 km/h
308 15-07-2010 19:00:00 27.26 C 5.22 g/m*3 27.26 C 0 km/h
309 15-07-2010 20:00:00 26.6 C 5.24 g/m*3 26.6 C 0 km/h
310 15-07-2010 21:00:00 23.74 C 6.09 g/m*3 23.74 C 0 km/h
311 15-07-2010 22:00:00 21.46 C 6.4 g/m*3 21.46 C 0 km/h
312 15-07-2010 23:00:00 19.92 C 6.78 g/m*3 19.92 C 0 km/h
313 16-07-2010 00:00:00 18.6 C 6.91 g/m*3 18.6 C 0 km/h
314 16-07-2010 01:00:00 17.76 C 7.3 g/m*3 17.76 C 0 km/h
315 16-07-2010 02:00:00 16.74 C 7.89 g/m*3 16.74 C 0 km/h
316 16-07-2010 03:00:00 15.96 C 8.1 g/m*3 15.96 C 0 km/h
317 16-07-2010 04:00:00 15.22 C 8.16 g/m*3 15.22 C 0 km/h
318 16-07-2010 05:00:00 14.64 C 8.3 g/m*3 14.64 C 0 km/h
319 16-07-2010 06:00:00 14.46 C 8.61 g/m*3 14.46 C 0 km/h
320 16-07-2010 07:00:00 15.16 C 8.88 g/m*3 15.16 C 0 km/h
321 16-07-2010 08:00:00 16.62 C 9 g/m*3 16.62 C 0 km/h
322 16-07-2010 09:00:00 19.68 C 9.36 g/m*3 19.68 C 0 km/h
323 16-07-2010 10:00:00 23.6 C 8.72 g/m*3 23.6 C 0 km/h
324 16-07-2010 11:00:00 26.26 C 5.83 g/m*3 26.26 C 0 km/h
325 16-07-2010 12:00:00 28.54 C 5.66 g/m*3 28.54 C 0 km/h
Sensor: Nr:Datum:Temp:Abs-Feuchte:Windchill:Wind:
Aussen-T/F 326 16-07-2010 13:00:00 30.68 C 6.29 g/m*3 30.68 C 0 km/h
327 16-07-2010 14:00:00 31.06 C 6.42 g/m*3 31.06 C 0 km/h
328 16-07-2010 15:00:00 31.86 C 6.7 g/m*3 31.86 C 0 km/h
329 16-07-2010 16:00:00 32.44 C 6.91 g/m*3 32.44 C 0 km/h
330 16-07-2010 17:00:00 32.56 C 6.96 g/m*3 32.56 C 0 km/h
331 16-07-2010 18:00:00 32.72 C 7.01 g/m*3 32.72 C 0 km/h
332 16-07-2010 19:00:00 31.24 C 6.55 g/m*3 31.24 C 0 km/h
333 16-07-2010 20:00:00 29.4 C 7.22 g/m*3 29.4 C 0 km/h
334 16-07-2010 21:00:00 28.3 C 7.46 g/m*3 28.3 C 0 km/h
335 16-07-2010 22:00:00 26.38 C 7.71 g/m*3 26.38 C 0 km/h
336 16-07-2010 23:00:00 25.56 C 8.46 g/m*3 25.56 C 0 km/h
337 17-07-2010 00:00:00 23.3 C 9.12 g/m*3 23.3 C 0 km/h
338 17-07-2010 01:00:00 20.7 C 11.2 g/m*3 20.7 C 0 km/h
339 17-07-2010 02:00:00 20.18 C 11.11 g/m*3 20.18 C 0 km/h
340 17-07-2010 03:00:00 19.88 C 11.88 g/m*3 19.88 C 0 km/h
341 17-07-2010 04:00:00 19.16 C 12.5 g/m*3 19.16 C 0 km/h
342 17-07-2010 05:00:00 18.08 C 13.36 g/m*3 18.08 C 0 km/h
343 17-07-2010 06:00:00 17.68 C 13.38 g/m*3 17.68 C 0 km/h
344 17-07-2010 07:00:00 17.88 C 13.54 g/m*3 17.88 C 0 km/h
345 17-07-2010 08:00:00 17.64 C 13.38 g/m*3 17.64 C 0 km/h
346 17-07-2010 09:00:00 18.54 C 13.51 g/m*3 18.54 C 0 km/h
347 17-07-2010 10:00:00 19.6 C 12.56 g/m*3 19.6 C 0 km/h
348 17-07-2010 11:00:00 22.2 C 11.5 g/m*3 22.2 C 0 km/h
349 17-07-2010 12:00:00 24.66 C 9.08 g/m*3 24.66 C 0 km/h
350 17-07-2010 13:00:00 26.02 C 7.56 g/m*3 26.02 C 0 km/h
Sensor: Nr:Datum:Temp:Abs-Feuchte:Windchill:Wind:
Aussen-T/F 351 17-07-2010 14:00:00 26.14 C 7.26 g/m*3 26.14 C 0 km/h
352 17-07-2010 15:00:00 27.18 C 6.5 g/m*3 27.18 C 0 km/h
353 17-07-2010 16:00:00 26.72 C 6.08 g/m*3 26.72 C 0 km/h
354 17-07-2010 17:00:00 25.8 C 7.42 g/m*3 25.8 C 0 km/h
355 17-07-2010 18:00:00 24 C 7.57 g/m*3 24 C 0 km/h
356 17-07-2010 19:00:00 24.16 C 7.11 g/m*3 24.16 C 0 km/h
357 17-07-2010 20:00:00 24.46 C 5.81 g/m*3 24.46 C 0 km/h
358 17-07-2010 21:00:00 22.26 C 6.15 g/m*3 22.26 C 0 km/h
359 17-07-2010 22:00:00 21.44 C 6.28 g/m*3 21.44 C 0 km/h
360 17-07-2010 23:00:00 20.12 C 6.13 g/m*3 20.12 C 0 km/h
361 18-07-2010 00:00:00 18.64 C 6.06 g/m*3 18.64 C 0 km/h
362 18-07-2010 01:00:00 17.16 C 6.34 g/m*3 17.16 C 0 km/h
363 18-07-2010 02:00:00 15.96 C 6.88 g/m*3 15.96 C 0 km/h
364 18-07-2010 03:00:00 14.8 C 7.14 g/m*3 14.8 C 0 km/h
365 18-07-2010 04:00:00 13.9 C 7.48 g/m*3 13.9 C 0 km/h
366 18-07-2010 05:00:00 13 C 7.83 g/m*3 13 C 0 km/h
367 18-07-2010 06:00:00 12.56 C 8.1 g/m*3 12.56 C 0 km/h
368 18-07-2010 07:00:00 12.96 C 8.05 g/m*3 12.96 C 0 km/h
369 18-07-2010 08:00:00 14.54 C 7.9 g/m*3 14.54 C 0 km/h
370 18-07-2010 09:00:00 17.16 C 7.68 g/m*3 17.16 C 0 km/h
371 18-07-2010 10:00:00 20.18 C 7.09 g/m*3 20.18 C 0 km/h
372 18-07-2010 11:00:00 22.12 C 5.75 g/m*3 22.12 C 0 km/h
373 18-07-2010 12:00:00 25.16 C 4.88 g/m*3 25.16 C 0 km/h
374 18-07-2010 13:00:00 27.62 C 5.33 g/m*3 27.62 C 0 km/h
375 18-07-2010 14:00:00 27.34 C 5.24 g/m*3 27.34 C 0 km/h
Sensor: Nr:Datum:Temp:Abs-Feuchte:Windchill:Wind:
Aussen-T/F 376 18-07-2010 15:00:00 29.58 C 5.93 g/m*3 29.58 C 0 km/h
377 18-07-2010 16:00:00 30.76 C 6.32 g/m*3 30.76 C 0 km/h
378 18-07-2010 17:00:00 31.26 C 6.49 g/m*3 31.26 C 0 km/h
379 18-07-2010 18:00:00 31.26 C 6.49 g/m*3 31.26 C 0 km/h
380 18-07-2010 19:00:00 30.48 C 6.22 g/m*3 30.48 C 0 km/h
381 18-07-2010 20:00:00 29.1 C 5.78 g/m*3 29.1 C 0 km/h
382 18-07-2010 21:00:00 24.12 C 5.39 g/m*3 24.12 C 0 km/h
383 18-07-2010 22:00:00 21.72 C 5.92 g/m*3 21.72 C 0 km/h
384 18-07-2010 23:00:00 20.34 C 6.28 g/m*3 20.34 C 0 km/h
385 19-07-2010 00:00:00 18.92 C 6.36 g/m*3 18.92 C 0 km/h
386 19-07-2010 01:00:00 17.68 C 6.66 g/m*3 17.68 C 0 km/h
387 19-07-2010 02:00:00 16.46 C 6.86 g/m*3 16.46 C 0 km/h
388 19-07-2010 03:00:00 15.48 C 7.1 g/m*3 15.48 C 0 km/h
389 19-07-2010 04:00:00 14.62 C 7.32 g/m*3 14.62 C 0 km/h
390 19-07-2010 05:00:00 13.8 C 7.51 g/m*3 13.8 C 0 km/h
391 19-07-2010 06:00:00 13.58 C 7.88 g/m*3 13.58 C 0 km/h
392 19-07-2010 07:00:00 14.02 C 8.21 g/m*3 14.02 C 0 km/h
393 19-07-2010 08:00:00 15.3 C 8.28 g/m*3 15.3 C 0 km/h
394 19-07-2010 09:00:00 18.52 C 8.55 g/m*3 18.52 C 0 km/h
395 19-07-2010 10:00:00 22.46 C 8.01 g/m*3 22.46 C 0 km/h
396 19-07-2010 11:00:00 25.78 C 6.54 g/m*3 25.78 C 0 km/h
397 19-07-2010 12:00:00 28.82 C 5.8 g/m*3 28.82 C 0 km/h
398 19-07-2010 13:00:00 31.2 C 6.47 g/m*3 31.2 C 0 km/h
399 19-07-2010 14:00:00 30.84 C 6.35 g/m*3 30.84 C 0 km/h
400 19-07-2010 15:00:00 31.7 C 6.64 g/m*3 31.7 C 0 km/h
Sensor: Nr:Datum:Temp:Abs-Feuchte:Windchill:Wind:
Aussen-T/F 401 19-07-2010 16:00:00 32.82 C 7.05 g/m*3 32.82 C 0 km/h
402 19-07-2010 17:00:00 33.58 C 7.34 g/m*3 33.58 C 0 km/h
403 19-07-2010 18:00:00 33.5 C 7.31 g/m*3 33.5 C 0 km/h
404 19-07-2010 19:00:00 32.84 C 7.06 g/m*3 32.84 C 0 km/h
405 19-07-2010 20:00:00 31.38 C 6.53 g/m*3 31.38 C 0 km/h
406 19-07-2010 21:00:00 26.84 C 6.79 g/m*3 26.84 C 0 km/h
407 19-07-2010 22:00:00 24.12 C 7.05 g/m*3 24.12 C 0 km/h
408 19-07-2010 23:00:00 22.9 C 7.32 g/m*3 22.9 C 0 km/h
409 20-07-2010 00:00:00 21.74 C 7.84 g/m*3 21.74 C 0 km/h
410 20-07-2010 01:00:00 20.42 C 8.08 g/m*3 20.42 C 0 km/h
411 20-07-2010 02:00:00 19.32 C 8.24 g/m*3 19.32 C 0 km/h
412 20-07-2010 03:00:00 18.2 C 8.36 g/m*3 18.2 C 0 km/h
413 20-07-2010 04:00:00 17.24 C 8.48 g/m*3 17.24 C 0 km/h
414 20-07-2010 05:00:00 16.48 C 8.58 g/m*3 16.48 C 0 km/h
415 20-07-2010 06:00:00 16.1 C 8.96 g/m*3 16.1 C 0 km/h
416 20-07-2010 07:00:00 16.78 C 9.25 g/m*3 16.78 C 0 km/h
417 20-07-2010 08:00:00 18.04 C 9.24 g/m*3 18.04 C 0 km/h
418 20-07-2010 09:00:00 20.96 C 9.21 g/m*3 20.96 C 0 km/h
419 20-07-2010 10:00:00 24.8 C 8.29 g/m*3 24.8 C 0 km/h
420 20-07-2010 11:00:00 27.74 C 6.76 g/m*3 27.74 C 0 km/h
421 20-07-2010 12:00:00 30.42 C 6.33 g/m*3 30.42 C 0 km/h
422 20-07-2010 13:00:00 32.22 C 6.83 g/m*3 32.22 C 0 km/h
423 20-07-2010 14:00:00 31.78 C 6.67 g/m*3 31.78 C 0 km/h
424 20-07-2010 15:00:00 32.34 C 6.87 g/m*3 32.34 C 0 km/h
425 20-07-2010 16:00:00 33.06 C 7.14 g/m*3 33.06 C 0 km/h
Sensor: Nr:Datum:Temp:Abs-Feuchte:Windchill:Wind:
Aussen-T/F 426 20-07-2010 17:00:00 33.26 C 7.22 g/m*3 33.26 C 0 km/h
427 20-07-2010 18:00:00 32.92 C 7.09 g/m*3 32.92 C 0 km/h
428 20-07-2010 19:00:00 32.02 C 6.76 g/m*3 32.02 C 0 km/h
429 20-07-2010 20:00:00 30.72 C 6.37 g/m*3 30.72 C 0 km/h
430 20-07-2010 21:00:00 26.48 C 6.4 g/m*3 26.48 C 0 km/h
431 20-07-2010 22:00:00 24.4 C 6.59 g/m*3 24.4 C 0 km/h
432 20-07-2010 23:00:00 23.48 C 6.93 g/m*3 23.48 C 0 km/h
433 21-07-2010 00:00:00 21.98 C 7.6 g/m*3 21.98 C 0 km/h
434 21-07-2010 01:00:00 20.86 C 8.03 g/m*3 20.86 C 0 km/h
435 21-07-2010 02:00:00 19.68 C 8.31 g/m*3 19.68 C 0 km/h
436 21-07-2010 03:00:00 18.78 C 8.4 g/m*3 18.78 C 0 km/h
437 21-07-2010 04:00:00 18.08 C 8.58 g/m*3 18.08 C 0 km/h
438 21-07-2010 05:00:00 17.38 C 8.76 g/m*3 17.38 C 0 km/h
439 21-07-2010 06:00:00 17.16 C 8.91 g/m*3 17.16 C 0 km/h
440 21-07-2010 07:00:00 17.8 C 9.32 g/m*3 17.8 C 0 km/h
441 21-07-2010 08:00:00 19.2 C 9.07 g/m*3 19.2 C 0 km/h
442 21-07-2010 09:00:00 22.32 C 9.41 g/m*3 22.32 C 0 km/h
443 21-07-2010 10:00:00 26.54 C 8.63 g/m*3 26.54 C 0 km/h
444 21-07-2010 11:00:00 29.66 C 7.38 g/m*3 29.66 C 0 km/h
445 21-07-2010 12:00:00 31.36 C 6.59 g/m*3 31.36 C 0 km/h
446 21-07-2010 13:00:00 32.52 C 6.94 g/m*3 32.52 C 0 km/h
447 21-07-2010 14:00:00 32.58 C 6.96 g/m*3 32.58 C 0 km/h
448 21-07-2010 15:00:00 32.56 C 6.96 g/m*3 32.56 C 0 km/h
449 21-07-2010 16:00:00 32.44 C 6.91 g/m*3 32.44 C 0 km/h
450 21-07-2010 17:00:00 31.5 C 6.77 g/m*3 31.5 C 0 km/h
Sensor: Nr:Datum:Temp:Abs-Feuchte:Windchill:Wind:
Aussen-T/F 451 21-07-2010 18:00:00 30.12 C 7.33 g/m*3 30.12 C 0 km/h
452 21-07-2010 19:00:00 28.72 C 8.03 g/m*3 28.72 C 0 km/h
453 21-07-2010 20:00:00 23.58 C 12.15 g/m*3 23.58 C 0 km/h
454 21-07-2010 21:00:00 23.02 C 11.85 g/m*3 23.02 C 0 km/h
455 21-07-2010 22:00:00 23 C 11.76 g/m*3 23 C 0 km/h
456 21-07-2010 23:00:00 22.88 C 11.47 g/m*3 22.88 C 0 km/h
457 22-07-2010 00:00:00 22.56 C 11.58 g/m*3 22.56 C 0 km/h
458 22-07-2010 01:00:00 22.16 C 11.64 g/m*3 22.16 C 0 km/h
459 22-07-2010 02:00:00 21.28 C 11.51 g/m*3 21.28 C 0 km/h
460 22-07-2010 03:00:00 20.92 C 11.16 g/m*3 20.92 C 0 km/h
461 22-07-2010 04:00:00 20.5 C 10.36 g/m*3 20.5 C 0 km/h
462 22-07-2010 05:00:00 19.9 C 9.83 g/m*3 19.9 C 0 km/h
463 22-07-2010 06:00:00 18.92 C 10.93 g/m*3 18.92 C 0 km/h
464 22-07-2010 07:00:00 19.24 C 11.54 g/m*3 19.24 C 0 km/h
465 22-07-2010 08:00:00 21.04 C 10.94 g/m*3 21.04 C 0 km/h
466 22-07-2010 09:00:00 22.06 C 10.32 g/m*3 22.06 C 0 km/h
467 22-07-2010 10:00:00 21.58 C 10.68 g/m*3 21.58 C 0 km/h
468 22-07-2010 11:00:00 21.78 C 11.84 g/m*3 21.78 C 0 km/h
469 22-07-2010 12:00:00 22.38 C 11.47 g/m*3 22.38 C 0 km/h
470 22-07-2010 13:00:00 20.9 C 12.79 g/m*3 20.9 C 0 km/h
471 22-07-2010 14:00:00 21.26 C 12.53 g/m*3 21.26 C 0 km/h
472 22-07-2010 15:00:00 21.38 C 12.92 g/m*3 21.38 C 0 km/h
473 22-07-2010 16:00:00 23.2 C 11.56 g/m*3 23.2 C 0 km/h
474 22-07-2010 17:00:00 22.04 C 13.31 g/m*3 22.04 C 0 km/h
475 22-07-2010 18:00:00 23 C 12.09 g/m*3 23 C 0 km/h
Sensor: Nr:Datum:Temp:Abs-Feuchte:Windchill:Wind:
Aussen-T/F 476 22-07-2010 19:00:00 22.68 C 11.91 g/m*3 22.68 C 0 km/h
477 22-07-2010 20:00:00 21.86 C 12.01 g/m*3 21.86 C 0 km/h
478 22-07-2010 21:00:00 21.06 C 11.91 g/m*3 21.06 C 0 km/h
479 22-07-2010 22:00:00 20.48 C 11.8 g/m*3 20.48 C 0 km/h
480 22-07-2010 23:00:00 20.2 C 11.82 g/m*3 20.2 C 0 km/h
481 23-07-2010 00:00:00 20.1 C 12.06 g/m*3 20.1 C 0 km/h
482 23-07-2010 01:00:00 20 C 12.3 g/m*3 20 C 0 km/h
483 23-07-2010 02:00:00 19.22 C 12.22 g/m*3 19.22 C 0 km/h
484 23-07-2010 03:00:00 16.34 C 11.63 g/m*3 16.34 C 0 km/h
485 23-07-2010 04:00:00 16.04 C 11.69 g/m*3 16.04 C 0 km/h
486 23-07-2010 05:00:00 15.9 C 11.51 g/m*3 15.9 C 0 km/h
487 23-07-2010 06:00:00 15.86 C 11.54 g/m*3 15.86 C 0 km/h
488 23-07-2010 07:00:00 17.26 C 12.26 g/m*3 17.26 C 0 km/h
489 23-07-2010 08:00:00 18.02 C 12.09 g/m*3 18.02 C 0 km/h
490 23-07-2010 09:00:00 19.08 C 11.82 g/m*3 19.08 C 0 km/h
491 23-07-2010 10:00:00 21.4 C 10.46 g/m*3 21.4 C 0 km/h
492 23-07-2010 11:00:00 24.14 C 9.69 g/m*3 24.14 C 0 km/h
493 23-07-2010 12:00:00 26.46 C 8.09 g/m*3 26.46 C 0 km/h
494 23-07-2010 13:00:00 27.82 C 6.62 g/m*3 27.82 C 0 km/h
495 23-07-2010 14:00:00 29.34 C 6.55 g/m*3 29.34 C 0 km/h
496 23-07-2010 15:00:00 28.4 C 6.39 g/m*3 28.4 C 0 km/h
497 23-07-2010 16:00:00 28.54 C 6.33 g/m*3 28.54 C 0 km/h
498 23-07-2010 17:00:00 22.32 C 9.33 g/m*3 22.32 C 0 km/h
499 23-07-2010 18:00:00 18.1 C 11.53 g/m*3 18.1 C 0 km/h
500 23-07-2010 19:00:00 16.96 C 12.18 g/m*3 16.96 C 0 km/h
Sensor: Nr:Datum:Temp:Abs-Feuchte:Windchill:Wind:
Aussen-T/F 501 23-07-2010 20:00:00 15.98 C 12.3 g/m*3 15.98 C 0 km/h
502 23-07-2010 21:00:00 15.58 C 12.25 g/m*3 15.58 C 0 km/h
503 23-07-2010 22:00:00 15.125 C 12.02 g/m*3 15.13 C 0 km/h
504 23-07-2010 23:00:00 15.1 C 12.08 g/m*3 15.1 C 0 km/h
505 24-07-2010 00:00:00 15.02 C 12.07 g/m*3 15.02 C 0 km/h
506 24-07-2010 01:00:00 15.12 C 12.14 g/m*3 15.12 C 0 km/h
507 24-07-2010 02:00:00 15.26 C 12.38 g/m*3 15.26 C 0 km/h
508 24-07-2010 03:00:00 15.56 C 12.6 g/m*3 15.56 C 0 km/h
509 24-07-2010 04:00:00 15.64 C 12.4 g/m*3 15.64 C 0 km/h
510 24-07-2010 05:00:00 15.54 C 11.95 g/m*3 15.54 C 0 km/h
511 24-07-2010 06:00:00 15.42 C 11.65 g/m*3 15.42 C 0 km/h
512 24-07-2010 07:00:00 15.5 C 11.58 g/m*3 15.5 C 0 km/h
513 24-07-2010 08:00:00 16.16 C 11.31 g/m*3 16.16 C 0 km/h
514 24-07-2010 09:00:00 17.24 C 10.8 g/m*3 17.24 C 0 km/h
515 24-07-2010 10:00:00 18.62 C 9.66 g/m*3 18.62 C 0 km/h
516 24-07-2010 11:00:00 19.44 C 8.83 g/m*3 19.44 C 0 km/h
517 24-07-2010 12:00:00 20.52 C 8.19 g/m*3 20.52 C 0 km/h
518 24-07-2010 13:00:00 22.72 C 6.63 g/m*3 22.72 C 0 km/h
519 24-07-2010 14:00:00 23.48 C 6.17 g/m*3 23.48 C 0 km/h
520 24-07-2010 15:00:00 24.1 C 5.47 g/m*3 24.1 C 0 km/h
521 24-07-2010 16:00:00 23.86 C 4.66 g/m*3 23.86 C 0 km/h
522 24-07-2010 17:00:00 24.36 C 4.44 g/m*3 24.36 C 0 km/h
523 24-07-2010 18:00:00 23.48 C 4.22 g/m*3 23.48 C 0 km/h
524 24-07-2010 19:00:00 23.22 C 4.16 g/m*3 23.22 C 0 km/h
525 24-07-2010 20:00:00 22.72 C 4.05 g/m*3 22.72 C 0 km/h
Sensor: Nr:Datum:Temp:Abs-Feuchte:Windchill:Wind:
Aussen-T/F 526 24-07-2010 21:00:00 19.76 C 4.5 g/m*3 19.76 C 0 km/h
527 24-07-2010 22:00:00 17.5 C 5.19 g/m*3 17.5 C 0 km/h
528 24-07-2010 23:00:00 15.92 C 6.1 g/m*3 15.92 C 0 km/h
529 25-07-2010 00:00:00 14.54 C 6.58 g/m*3 14.54 C 0 km/h
530 25-07-2010 01:00:00 13.5 C 6.81 g/m*3 13.5 C 0 km/h
531 25-07-2010 02:00:00 12.7 C 6.97 g/m*3 12.7 C 0 km/h
532 25-07-2010 03:00:00 11.86 C 7.06 g/m*3 11.86 C 0 km/h
533 25-07-2010 04:00:00 10.96 C 7.31 g/m*3 10.96 C 0 km/h
534 25-07-2010 05:00:00 10.16 C 7.38 g/m*3 10.16 C 0 km/h
535 25-07-2010 06:00:00 10.04 C 7.4 g/m*3 10.04 C 0 km/h
536 25-07-2010 07:00:00 10.92 C 7.55 g/m*3 10.92 C 0 km/h
537 25-07-2010 08:00:00 12.12 C 7.9 g/m*3 12.12 C 0 km/h
538 25-07-2010 09:00:00 14.94 C 7.61 g/m*3 14.94 C 0 km/h
539 25-07-2010 10:00:00 17.8 C 6.77 g/m*3 17.8 C 0 km/h
540 25-07-2010 11:00:00 20.86 C 6.14 g/m*3 20.86 C 0 km/h
541 25-07-2010 12:00:00 22.94 C 5.9 g/m*3 22.94 C 0 km/h
542 25-07-2010 13:00:00 23.38 C 6.22 g/m*3 23.38 C 0 km/h
543 25-07-2010 14:00:00 22.2 C 6.95 g/m*3 22.2 C 0 km/h
544 25-07-2010 15:00:00 21.58 C 7.01 g/m*3 21.58 C 0 km/h
545 25-07-2010 16:00:00 21.98 C 7.13 g/m*3 21.98 C 0 km/h
546 25-07-2010 17:00:00 23.4 C 6.6 g/m*3 23.4 C 0 km/h
547 25-07-2010 18:00:00 22.26 C 7.53 g/m*3 22.26 C 0 km/h
548 25-07-2010 19:00:00 20.8 C 7.89 g/m*3 20.8 C 0 km/h
549 25-07-2010 20:00:00 20.16 C 7.82 g/m*3 20.16 C 0 km/h
550 25-07-2010 21:00:00 19.08 C 9.43 g/m*3 19.08 C 0 km/h
Sensor: Nr:Datum:Temp:Abs-Feuchte:Windchill:Wind:
Aussen-T/F 551 25-07-2010 22:00:00 18.38 C 10.18 g/m*3 18.38 C 0 km/h
552 25-07-2010 23:00:00 17.88 C 10.28 g/m*3 17.88 C 0 km/h
553 26-07-2010 00:00:00 17.56 C 9.93 g/m*3 17.56 C 0 km/h
554 26-07-2010 01:00:00 17.26 C 9.99 g/m*3 17.26 C 0 km/h
555 26-07-2010 02:00:00 16.8 C 10.04 g/m*3 16.8 C 0 km/h
556 26-07-2010 03:00:00 16.42 C 10.2 g/m*3 16.42 C 0 km/h
557 26-07-2010 04:00:00 16.24 C 10.59 g/m*3 16.24 C 0 km/h
558 26-07-2010 05:00:00 15.52 C 11.28 g/m*3 15.52 C 0 km/h
559 26-07-2010 06:00:00 15.4 C 11.46 g/m*3 15.4 C 0 km/h
560 26-07-2010 07:00:00 16.02 C 11.95 g/m*3 16.02 C 0 km/h
561 26-07-2010 08:00:00 16.98 C 11.91 g/m*3 16.98 C 0 km/h
562 26-07-2010 09:00:00 18.38 C 11.72 g/m*3 18.38 C 0 km/h
563 26-07-2010 10:00:00 20.24 C 10.76 g/m*3 20.24 C 0 km/h
564 26-07-2010 11:00:00 20.94 C 10.59 g/m*3 20.94 C 0 km/h
565 26-07-2010 12:00:00 19.04 C 12.55 g/m*3 19.04 C 0 km/h
566 26-07-2010 13:00:00 18.16 C 12.72 g/m*3 18.16 C 0 km/h
567 26-07-2010 14:00:00 17.36 C 13.16 g/m*3 17.36 C 0 km/h
568 26-07-2010 15:00:00 17.92 C 13.7 g/m*3 17.92 C 0 km/h
569 26-07-2010 16:00:00 19.68 C 13.4 g/m*3 19.68 C 0 km/h
570 26-07-2010 17:00:00 19.08 C 11.33 g/m*3 19.08 C 0 km/h
571 26-07-2010 18:00:00 17.16 C 11.34 g/m*3 17.16 C 0 km/h
572 26-07-2010 19:00:00 16.92 C 11.61 g/m*3 16.92 C 0 km/h
573 26-07-2010 20:00:00 16.16 C 11.12 g/m*3 16.16 C 0 km/h
574 26-07-2010 21:00:00 15.3 C 11.28 g/m*3 15.3 C 0 km/h
575 26-07-2010 22:00:00 15.22 C 10.86 g/m*3 15.22 C 0 km/h
Sensor: Nr:Datum:Temp:Abs-Feuchte:Windchill:Wind:
Aussen-T/F 576 26-07-2010 23:00:00 15.26 C 10.84 g/m*3 15.26 C 0 km/h
577 27-07-2010 00:00:00 15.34 C 11.13 g/m*3 15.34 C 0 km/h
578 27-07-2010 01:00:00 15.48 C 11.2 g/m*3 15.48 C 0 km/h
579 27-07-2010 02:00:00 15.6 C 11.04 g/m*3 15.6 C 0 km/h
580 27-07-2010 03:00:00 15.42 C 10.97 g/m*3 15.42 C 0 km/h
581 27-07-2010 04:00:00 15.26 C 10.84 g/m*3 15.26 C 0 km/h
582 27-07-2010 05:00:00 15.14 C 10.84 g/m*3 15.14 C 0 km/h
583 27-07-2010 06:00:00 15.28 C 10.77 g/m*3 15.28 C 0 km/h
584 27-07-2010 07:00:00 15.68 C 10.64 g/m*3 15.68 C 0 km/h
585 27-07-2010 08:00:00 16.22 C 10.6 g/m*3 16.22 C 0 km/h
586 27-07-2010 09:00:00 16.88 C 10.54 g/m*3 16.88 C 0 km/h
587 27-07-2010 10:00:00 18.52 C 10.07 g/m*3 18.52 C 0 km/h
588 27-07-2010 11:00:00 20.18 C 9.57 g/m*3 20.18 C 0 km/h
589 27-07-2010 12:00:00 22.08 C 9.09 g/m*3 22.08 C 0 km/h
590 27-07-2010 13:00:00 23.96 C 7.9 g/m*3 23.96 C 0 km/h
591 27-07-2010 14:00:00 24.42 C 7.66 g/m*3 24.42 C 0 km/h
592 27-07-2010 15:00:00 25.38 C 7.57 g/m*3 25.38 C 0 km/h
593 27-07-2010 16:00:00 27.9 C 6.82 g/m*3 27.9 C 0 km/h
594 27-07-2010 17:00:00 28.32 C 6.2 g/m*3 28.32 C 0 km/h
595 27-07-2010 18:00:00 25.06 C 7.67 g/m*3 25.06 C 0 km/h
596 27-07-2010 19:00:00 23.42 C 8.63 g/m*3 23.42 C 0 km/h
597 27-07-2010 20:00:00 22 C 8.38 g/m*3 22 C 0 km/h
598 27-07-2010 21:00:00 20.46 C 8.7 g/m*3 20.46 C 0 km/h
599 27-07-2010 22:00:00 19.12 C 9.16 g/m*3 19.12 C 0 km/h
600 27-07-2010 23:00:00 18.44 C 9.33 g/m*3 18.44 C 0 km/h
Sensor: Nr:Datum:Temp:Abs-Feuchte:Windchill:Wind:
Aussen-T/F 601 28-07-2010 00:00:00 18.2 C 9.79 g/m*3 18.2 C 0 km/h
602 28-07-2010 01:00:00 17.16 C 9.85 g/m*3 17.16 C 0 km/h
603 28-07-2010 02:00:00 16.96 C 10.22 g/m*3 16.96 C 0 km/h
604 28-07-2010 03:00:00 17.04 C 10.33 g/m*3 17.04 C 0 km/h
605 28-07-2010 04:00:00 16.96 C 10.48 g/m*3 16.96 C 0 km/h
606 28-07-2010 05:00:00 16.84 C 10.58 g/m*3 16.84 C 0 km/h
607 28-07-2010 06:00:00 17.02 C 10.81 g/m*3 17.02 C 0 km/h
608 28-07-2010 07:00:00 16.32 C 12.11 g/m*3 16.32 C 0 km/h
609 28-07-2010 08:00:00 17.1 C 13.01 g/m*3 17.1 C 0 km/h
610 28-07-2010 09:00:00 17.56 C 12.78 g/m*3 17.56 C 0 km/h
611 28-07-2010 10:00:00 17.7 C 13.25 g/m*3 17.7 C 0 km/h
612 28-07-2010 11:00:00 20.26 C 13.58 g/m*3 20.26 C 0 km/h
613 28-07-2010 12:00:00 21.22 C 13.02 g/m*3 21.22 C 0 km/h
614 28-07-2010 13:00:00 23.74 C 12.26 g/m*3 23.74 C 0 km/h
615 28-07-2010 14:00:00 25.74 C 9.31 g/m*3 25.74 C 0 km/h
616 28-07-2010 15:00:00 26 C 7.69 g/m*3 26 C 0 km/h
617 28-07-2010 16:00:00 27.78 C 7.04 g/m*3 27.78 C 0 km/h
618 28-07-2010 17:00:00 28.8 C 6.65 g/m*3 28.8 C 0 km/h
619 28-07-2010 18:00:00 26.74 C 6.7 g/m*3 26.74 C 0 km/h
620 28-07-2010 19:00:00 22.5 C 10.07 g/m*3 22.5 C 0 km/h
621 28-07-2010 20:00:00 21.78 C 10.2 g/m*3 21.78 C 0 km/h
622 28-07-2010 21:00:00 20.6 C 10.63 g/m*3 20.6 C 0 km/h
623 28-07-2010 22:00:00 19.78 C 11.26 g/m*3 19.78 C 0 km/h
624 28-07-2010 23:00:00 18.38 C 13.01 g/m*3 18.38 C 0 km/h
625 29-07-2010 00:00:00 17.16 C 13.12 g/m*3 17.16 C 0 km/h
Sensor: Nr:Datum:Temp:Abs-Feuchte:Windchill:Wind:
Aussen-T/F 626 29-07-2010 01:00:00 16.06 C 12.63 g/m*3 16.06 C 0 km/h
627 29-07-2010 02:00:00 15.16 C 12.04 g/m*3 15.16 C 0 km/h
628 29-07-2010 03:00:00 14.76 C 11.85 g/m*3 14.76 C 0 km/h
629 29-07-2010 04:00:00 14.44 C 11.65 g/m*3 14.44 C 0 km/h
630 29-07-2010 05:00:00 14.34 C 11.6 g/m*3 14.34 C 0 km/h
631 29-07-2010 06:00:00 14.62 C 11.9 g/m*3 14.62 C 0 km/h
632 29-07-2010 07:00:00 14.88 C 12.07 g/m*3 14.88 C 0 km/h
633 29-07-2010 08:00:00 15.38 C 12.47 g/m*3 15.38 C 0 km/h
634 29-07-2010 09:00:00 15.48 C 12.23 g/m*3 15.48 C 0 km/h
635 29-07-2010 10:00:00 15.22 C 11.67 g/m*3 15.22 C 0 km/h
636 29-07-2010 11:00:00 14.64 C 11.42 g/m*3 14.64 C 0 km/h
637 29-07-2010 12:00:00 17.28 C 12.6 g/m*3 17.28 C 0 km/h
638 29-07-2010 13:00:00 18.44 C 11.1 g/m*3 18.44 C 0 km/h
639 29-07-2010 14:00:00 17.76 C 10.93 g/m*3 17.76 C 0 km/h
640 29-07-2010 15:00:00 18.24 C 10.75 g/m*3 18.24 C 0 km/h
641 29-07-2010 16:00:00 19.64 C 10.93 g/m*3 19.64 C 0 km/h
642 29-07-2010 17:00:00 17.12 C 11.16 g/m*3 17.12 C 0 km/h
643 29-07-2010 18:00:00 17.82 C 11.31 g/m*3 17.82 C 0 km/h
644 29-07-2010 19:00:00 18.34 C 9.69 g/m*3 18.34 C 0 km/h
645 29-07-2010 20:00:00 17.6 C 9.51 g/m*3 17.6 C 0 km/h
646 29-07-2010 21:00:00 16.04 C 9.92 g/m*3 16.04 C 0 km/h
647 29-07-2010 22:00:00 15.66 C 9.9 g/m*3 15.66 C 0 km/h
648 29-07-2010 23:00:00 15.7 C 9.61 g/m*3 15.7 C 0 km/h
649 30-07-2010 00:00:00 15.2 C 9.84 g/m*3 15.2 C 0 km/h
650 30-07-2010 01:00:00 15.2 C 9.86 g/m*3 15.2 C 0 km/h
Sensor: Nr:Datum:Temp:Abs-Feuchte:Windchill:Wind:
Aussen-T/F 651 30-07-2010 02:00:00 14.74 C 9.89 g/m*3 14.74 C 0 km/h
652 30-07-2010 03:00:00 14.6 C 10.24 g/m*3 14.6 C 0 km/h
653 30-07-2010 04:00:00 14.42 C 10.4 g/m*3 14.42 C 0 km/h
654 30-07-2010 05:00:00 14.7 C 10.6 g/m*3 14.7 C 0 km/h
655 30-07-2010 06:00:00 14.76 C 10.51 g/m*3 14.76 C 0 km/h
656 30-07-2010 07:00:00 15.18 C 10.53 g/m*3 15.18 C 0 km/h
657 30-07-2010 08:00:00 16.28 C 10.56 g/m*3 16.28 C 0 km/h
658 30-07-2010 09:00:00 17.26 C 9.79 g/m*3 17.26 C 0 km/h
659 30-07-2010 10:00:00 19 C 9 g/m*3 19 C 0 km/h
660 30-07-2010 11:00:00 22 C 8.35 g/m*3 22 C 0 km/h
661 30-07-2010 12:00:00 21.54 C 8.32 g/m*3 21.54 C 0 km/h
662 30-07-2010 13:00:00 24 C 7.48 g/m*3 24 C 0 km/h
663 30-07-2010 14:00:00 24.48 C 7.6 g/m*3 24.48 C 0 km/h
664 30-07-2010 15:00:00 25.14 C 7.15 g/m*3 25.14 C 0 km/h
665 30-07-2010 16:00:00 25.94 C 6.6 g/m*3 25.94 C 0 km/h
666 30-07-2010 17:00:00 26.82 C 6.42 g/m*3 26.82 C 0 km/h
667 30-07-2010 18:00:00 26.8 C 6.06 g/m*3 26.8 C 0 km/h
668 30-07-2010 19:00:00 26.02 C 6.97 g/m*3 26.02 C 0 km/h
669 30-07-2010 20:00:00 22.54 C 7.53 g/m*3 22.54 C 0 km/h
670 30-07-2010 21:00:00 19.84 C 7.7 g/m*3 19.84 C 0 km/h
671 30-07-2010 22:00:00 18.5 C 7.47 g/m*3 18.5 C 0 km/h
672 30-07-2010 23:00:00 17 C 8.54 g/m*3 17 C 0 km/h
673 31-07-2010 00:00:00 15.92 C 8.73 g/m*3 15.92 C 0 km/h
674 31-07-2010 01:00:00 14.84 C 8.79 g/m*3 14.84 C 0 km/h
675 31-07-2010 02:00:00 14.04 C 8.66 g/m*3 14.04 C 0 km/h
Sensor: Nr:Datum:Temp:Abs-Feuchte:Windchill:Wind:
Aussen-T/F 676 31-07-2010 03:00:00 13.34 C 8.64 g/m*3 13.34 C 0 km/h
677 31-07-2010 04:00:00 12.7 C 8.66 g/m*3 12.7 C 0 km/h
678 31-07-2010 05:00:00 12.26 C 8.67 g/m*3 12.26 C 0 km/h
679 31-07-2010 06:00:00 12.02 C 8.77 g/m*3 12.02 C 0 km/h
680 31-07-2010 07:00:00 12.6 C 9.12 g/m*3 12.6 C 0 km/h
681 31-07-2010 08:00:00 13.84 C 9.27 g/m*3 13.84 C 0 km/h
682 31-07-2010 09:00:00 16.36 C 9.55 g/m*3 16.36 C 0 km/h
683 31-07-2010 10:00:00 22 C 9.04 g/m*3 22 C 0 km/h
684 31-07-2010 11:00:00 23.48 C 7.44 g/m*3 23.48 C 0 km/h
685 31-07-2010 12:00:00 24.12 C 6.83 g/m*3 24.12 C 0 km/h
686 31-07-2010 13:00:00 25.56 C 6.56 g/m*3 25.56 C 0 km/h
687 31-07-2010 14:00:00 26.84 C 6.63 g/m*3 26.84 C 0 km/h
688 31-07-2010 15:00:00 27.88 C 6.32 g/m*3 27.88 C 0 km/h
689 31-07-2010 16:00:00 29.44 C 6 g/m*3 29.44 C 0 km/h
690 31-07-2010 17:00:00 29.84 C 6.01 g/m*3 29.84 C 0 km/h
691 31-07-2010 18:00:00 29.86 C 6.08 g/m*3 29.86 C 0 km/h
692 31-07-2010 19:00:00 27.88 C 7.24 g/m*3 27.88 C 0 km/h
693 31-07-2010 20:00:00 24.6 C 8.19 g/m*3 24.6 C 0 km/h
694 31-07-2010 21:00:00 23.04 C 8.41 g/m*3 23.04 C 0 km/h
695 31-07-2010 22:00:00 22.02 C 9.17 g/m*3 22.02 C 0 km/h
696 31-07-2010 23:00:00 20.5 C 11.74 g/m*3 20.5 C 0 km/h
697 01-08-2010 00:00:00 19.4 C 12.38 g/m*3 19.4 C 0 km/h
698 01-08-2010 01:00:00 18.26 C 13.1 g/m*3 18.26 C 0 km/h
699 01-08-2010 02:00:00 18.1 C 13.38 g/m*3 18.1 C 0 km/h
700 01-08-2010 03:00:00 17.98 C 13.16 g/m*3 17.98 C 0 km/h
Sensor: Nr:Datum:Temp:Abs-Feuchte:Windchill:Wind:
Aussen-T/F 701 01-08-2010 04:00:00 17.84 C 12.93 g/m*3 17.84 C 0 km/h
702 01-08-2010 05:00:00 17.72 C 12.78 g/m*3 17.72 C 0 km/h
703 01-08-2010 06:00:00 17.42 C 13.15 g/m*3 17.42 C 0 km/h
704 01-08-2010 07:00:00 18.34 C 13.73 g/m*3 18.34 C 0 km/h
705 01-08-2010 08:00:00 19.68 C 13.77 g/m*3 19.68 C 0 km/h
706 01-08-2010 09:00:00 20.86 C 13.56 g/m*3 20.86 C 0 km/h
707 01-08-2010 10:00:00 21.94 C 13.58 g/m*3 21.94 C 0 km/h
708 01-08-2010 11:00:00 24.06 C 12.92 g/m*3 24.06 C 0 km/h
709 01-08-2010 12:00:00 25.46 C 10.72 g/m*3 25.46 C 0 km/h
710 01-08-2010 13:00:00 27.84 C 9.43 g/m*3 27.84 C 0 km/h
711 01-08-2010 14:00:00 29.02 C 7.94 g/m*3 29.02 C 0 km/h
712 01-08-2010 15:00:00 30.04 C 7.23 g/m*3 30.04 C 0 km/h
713 01-08-2010 16:00:00 30.66 C 7.1 g/m*3 30.66 C 0 km/h
714 01-08-2010 17:00:00 30.1 C 7.44 g/m*3 30.1 C 0 km/h
715 01-08-2010 18:00:00 28.36 C 8.38 g/m*3 28.36 C 0 km/h
716 01-08-2010 19:00:00 25.88 C 9.48 g/m*3 25.88 C 0 km/h
717 01-08-2010 20:00:00 24.64 C 10.24 g/m*3 24.64 C 0 km/h
718 01-08-2010 21:00:00 23.16 C 9.83 g/m*3 23.16 C 0 km/h
719 01-08-2010 22:00:00 21.96 C 9.53 g/m*3 21.96 C 0 km/h
720 01-08-2010 23:00:00 21.08 C 9.97 g/m*3 21.08 C 0 km/h
721 02-08-2010 00:00:00 19.74 C 10.01 g/m*3 19.74 C 0 km/h
722 02-08-2010 01:00:00 19.24 C 10.28 g/m*3 19.24 C 0 km/h
723 02-08-2010 02:00:00 18.64 C 10.53 g/m*3 18.64 C 0 km/h
724 02-08-2010 03:00:00 17.94 C 10.62 g/m*3 17.94 C 0 km/h
725 02-08-2010 04:00:00 17.1 C 10.86 g/m*3 17.1 C 0 km/h
Sensor: Nr:Datum:Temp:Abs-Feuchte:Windchill:Wind:
Aussen-T/F 726 02-08-2010 05:00:00 16.32 C 10.64 g/m*3 16.32 C 0 km/h
727 02-08-2010 06:00:00 16.48 C 10.91 g/m*3 16.48 C 0 km/h
728 02-08-2010 07:00:00 16.38 C 10.96 g/m*3 16.38 C 0 km/h
729 02-08-2010 08:00:00 16.86 C 11.16 g/m*3 16.86 C 0 km/h
730 02-08-2010 09:00:00 18.68 C 11.16 g/m*3 18.68 C 0 km/h
731 02-08-2010 10:00:00 20.88 C 10.59 g/m*3 20.88 C 0 km/h
732 02-08-2010 11:00:00 23.84 C 9.31 g/m*3 23.84 C 0 km/h
733 02-08-2010 12:00:00 25.54 C 8.16 g/m*3 25.54 C 0 km/h
734 02-08-2010 13:00:00 23.28 C 8.65 g/m*3 23.28 C 0 km/h
735 02-08-2010 14:00:00 20.48 C 11.23 g/m*3 20.48 C 0 km/h
736 02-08-2010 15:00:00 21.32 C 11.23 g/m*3 21.32 C 0 km/h
737 02-08-2010 16:00:00 23.06 C 10.93 g/m*3 23.06 C 0 km/h
738 02-08-2010 17:00:00 24.2 C 9.77 g/m*3 24.2 C 0 km/h
739 02-08-2010 18:00:00 21.28 C 11.17 g/m*3 21.28 C 0 km/h
740 02-08-2010 19:00:00 20.02 C 12.35 g/m*3 20.02 C 0 km/h
741 02-08-2010 20:00:00 18.6 C 13.5 g/m*3 18.6 C 0 km/h
742 02-08-2010 21:00:00 17.58 C 13.45 g/m*3 17.58 C 0 km/h
743 02-08-2010 22:00:00 17.12 C 13.32 g/m*3 17.12 C 0 km/h
744 02-08-2010 23:00:00 16.04 C 12.43 g/m*3 16.04 C 0 km/h
745 03-08-2010 00:00:00 15.94 C 12.08 g/m*3 15.94 C 0 km/h
746 03-08-2010 01:00:00 15.96 C 12.02 g/m*3 15.96 C 0 km/h
747 03-08-2010 02:00:00 15.46 C 11.76 g/m*3 15.46 C 0 km/h
748 03-08-2010 03:00:00 15.26 C 12.06 g/m*3 15.26 C 0 km/h
749 03-08-2010 04:00:00 15.02 C 12.04 g/m*3 15.02 C 0 km/h
750 03-08-2010 05:00:00 14.96 C 12.08 g/m*3 14.96 C 0 km/h
Sensor: Nr:Datum:Temp:Abs-Feuchte:Windchill:Wind:
Aussen-T/F 751 03-08-2010 06:00:00 14.62 C 11.9 g/m*3 14.62 C 0 km/h
752 03-08-2010 07:00:00 15.06 C 12.23 g/m*3 15.06 C 0 km/h
753 03-08-2010 08:00:00 15.96 C 12.37 g/m*3 15.96 C 0 km/h
754 03-08-2010 09:00:00 16.78 C 11.71 g/m*3 16.78 C 0 km/h
755 03-08-2010 10:00:00 17.64 C 11.03 g/m*3 17.64 C 0 km/h
756 03-08-2010 11:00:00 18.94 C 9.58 g/m*3 18.94 C 0 km/h
757 03-08-2010 12:00:00 21.22 C 7.94 g/m*3 21.22 C 0 km/h
758 03-08-2010 13:00:00 21.34 C 7.66 g/m*3 21.34 C 0 km/h
759 03-08-2010 14:00:00 21.88 C 8.29 g/m*3 21.88 C 0 km/h
760 03-08-2010 15:00:00 24.2 C 6.29 g/m*3 24.2 C 0 km/h
761 03-08-2010 16:00:00 25.38 C 5.31 g/m*3 25.38 C 0 km/h
762 03-08-2010 17:00:00 25.84 C 4.97 g/m*3 25.84 C 0 km/h
763 03-08-2010 18:00:00 26.12 C 5.15 g/m*3 26.12 C 0 km/h
764 03-08-2010 19:00:00 23.6 C 5.91 g/m*3 23.6 C 0 km/h
765 03-08-2010 20:00:00 21.72 C 7.22 g/m*3 21.72 C 0 km/h
766 03-08-2010 21:00:00 18.32 C 7.61 g/m*3 18.32 C 0 km/h
767 03-08-2010 22:00:00 17.26 C 8.29 g/m*3 17.26 C 0 km/h
768 03-08-2010 23:00:00 16.12 C 8.51 g/m*3 16.12 C 0 km/h
769 04-08-2010 00:00:00 15.44 C 8.98 g/m*3 15.44 C 0 km/h
770 04-08-2010 01:00:00 15.68 C 9.22 g/m*3 15.68 C 0 km/h
771 04-08-2010 02:00:00 15.42 C 9.71 g/m*3 15.42 C 0 km/h
772 04-08-2010 03:00:00 15.36 C 9.7 g/m*3 15.36 C 0 km/h
773 04-08-2010 04:00:00 15.2 C 9.53 g/m*3 15.2 C 0 km/h
774 04-08-2010 05:00:00 15.14 C 9.57 g/m*3 15.14 C 0 km/h
775 04-08-2010 06:00:00 15.28 C 9.78 g/m*3 15.28 C 0 km/h
Sensor: Nr:Datum:Temp:Abs-Feuchte:Windchill:Wind:
Aussen-T/F 776 04-08-2010 07:00:00 15.88 C 10.01 g/m*3 15.88 C 0 km/h
777 04-08-2010 08:00:00 16.86 C 9.96 g/m*3 16.86 C 0 km/h
778 04-08-2010 09:00:00 18.8 C 9.86 g/m*3 18.8 C 0 km/h
779 04-08-2010 10:00:00 21.08 C 9.13 g/m*3 21.08 C 0 km/h
780 04-08-2010 11:00:00 22.5 C 8.11 g/m*3 22.5 C 0 km/h
781 04-08-2010 12:00:00 23.72 C 7.02 g/m*3 23.72 C 0 km/h
782 04-08-2010 13:00:00 24.98 C 6.39 g/m*3 24.98 C 0 km/h
783 04-08-2010 14:00:00 24.56 C 6.65 g/m*3 24.56 C 0 km/h
784 04-08-2010 15:00:00 23.88 C 6.83 g/m*3 23.88 C 0 km/h
785 04-08-2010 16:00:00 23.36 C 7.01 g/m*3 23.36 C 0 km/h
786 04-08-2010 17:00:00 23.1 C 7.23 g/m*3 23.1 C 0 km/h
787 04-08-2010 18:00:00 23.32 C 7.37 g/m*3 23.32 C 0 km/h
788 04-08-2010 19:00:00 22.44 C 7.84 g/m*3 22.44 C 0 km/h
789 04-08-2010 20:00:00 21.14 C 8.98 g/m*3 21.14 C 0 km/h
790 04-08-2010 21:00:00 20.1 C 9.11 g/m*3 20.1 C 0 km/h
791 04-08-2010 22:00:00 19.325 C 10.09 g/m*3 19.33 C 0 km/h
792 04-08-2010 23:00:00 18.32 C 11.46 g/m*3 18.32 C 0 km/h
793 05-08-2010 00:00:00 16.78 C 12.37 g/m*3 16.78 C 0 km/h
794 05-08-2010 01:00:00 16.28 C 12.44 g/m*3 16.28 C 0 km/h
795 05-08-2010 02:00:00 15.82 C 12.37 g/m*3 15.82 C 0 km/h
796 05-08-2010 03:00:00 15.54 C 12.3 g/m*3 15.54 C 0 km/h
797 05-08-2010 04:00:00 15.3 C 12.14 g/m*3 15.3 C 0 km/h
798 05-08-2010 05:00:00 15.32 C 12.21 g/m*3 15.32 C 0 km/h
799 05-08-2010 06:00:00 15.68 C 12.56 g/m*3 15.68 C 0 km/h
800 05-08-2010 07:00:00 15.72 C 12.57 g/m*3 15.72 C 0 km/h
Sensor: Nr:Datum:Temp:Abs-Feuchte:Windchill:Wind:
Aussen-T/F 801 05-08-2010 08:00:00 16.2 C 12.55 g/m*3 16.2 C 0 km/h
802 05-08-2010 09:00:00 16.84 C 11.44 g/m*3 16.84 C 0 km/h
803 05-08-2010 10:00:00 17.46 C 10.38 g/m*3 17.46 C 0 km/h
804 05-08-2010 11:00:00 18.36 C 9.67 g/m*3 18.36 C 0 km/h
805 05-08-2010 12:00:00 18.42 C 9.35 g/m*3 18.42 C 0 km/h
806 05-08-2010 13:00:00 18.98 C 8.2 g/m*3 18.98 C 0 km/h
807 05-08-2010 14:00:00 21.28 C 7.56 g/m*3 21.28 C 0 km/h
808 05-08-2010 15:00:00 23 C 6.41 g/m*3 23 C 0 km/h
809 05-08-2010 16:00:00 25.08 C 5.69 g/m*3 25.08 C 0 km/h
810 05-08-2010 17:00:00 23.98 C 5.3 g/m*3 23.98 C 0 km/h
811 05-08-2010 18:00:00 22.7 C 5.62 g/m*3 22.7 C 0 km/h
812 05-08-2010 19:00:00 21.26 C 6.17 g/m*3 21.26 C 0 km/h
813 05-08-2010 20:00:00 20.22 C 6.9 g/m*3 20.22 C 0 km/h
814 05-08-2010 21:00:00 18.94 C 7.15 g/m*3 18.94 C 0 km/h
815 05-08-2010 22:00:00 17.7 C 7.48 g/m*3 17.7 C 0 km/h
816 05-08-2010 23:00:00 17 C 8.1 g/m*3 17 C 0 km/h
817 06-08-2010 00:00:00 16.02 C 8.48 g/m*3 16.02 C 0 km/h
818 06-08-2010 01:00:00 15.26 C 8.62 g/m*3 15.26 C 0 km/h
819 06-08-2010 02:00:00 14.52 C 8.87 g/m*3 14.52 C 0 km/h
820 06-08-2010 03:00:00 13.96 C 8.86 g/m*3 13.96 C 0 km/h
821 06-08-2010 04:00:00 13.44 C 9.3 g/m*3 13.44 C 0 km/h
822 06-08-2010 05:00:00 12.96 C 9.34 g/m*3 12.96 C 0 km/h
823 06-08-2010 06:00:00 13.34 C 9.29 g/m*3 13.34 C 0 km/h
824 06-08-2010 07:00:00 13.18 C 9.27 g/m*3 13.18 C 0 km/h
825 06-08-2010 08:00:00 13.48 C 9.49 g/m*3 13.48 C 0 km/h
Sensor: Nr:Datum:Temp:Abs-Feuchte:Windchill:Wind:
Aussen-T/F 826 06-08-2010 09:00:00 15.46 C 9.44 g/m*3 15.46 C 0 km/h
827 06-08-2010 10:00:00 17.84 C 8.31 g/m*3 17.84 C 0 km/h
828 06-08-2010 11:00:00 19.84 C 7.22 g/m*3 19.84 C 0 km/h
829 06-08-2010 12:00:00 21.34 C 6.17 g/m*3 21.34 C 0 km/h
830 06-08-2010 13:00:00 23.7 C 4.79 g/m*3 23.7 C 0 km/h
831 06-08-2010 14:00:00 24.84 C 4.56 g/m*3 24.84 C 0 km/h
832 06-08-2010 15:00:00 25.28 C 4.68 g/m*3 25.28 C 0 km/h
833 06-08-2010 16:00:00 28.1 C 5.47 g/m*3 28.1 C 0 km/h
834 06-08-2010 17:00:00 24.86 C 7.63 g/m*3 24.86 C 0 km/h
835 06-08-2010 18:00:00 26.42 C 4.98 g/m*3 26.42 C 0 km/h
836 06-08-2010 19:00:00 26.2 C 4.92 g/m*3 26.2 C 0 km/h
837 06-08-2010 20:00:00 23.66 C 5.29 g/m*3 23.66 C 0 km/h
838 06-08-2010 21:00:00 19.3 C 6.14 g/m*3 19.3 C 0 km/h
839 06-08-2010 22:00:00 17.72 C 6.34 g/m*3 17.72 C 0 km/h
840 06-08-2010 23:00:00 16.4 C 6.67 g/m*3 16.4 C 0 km/h
841 07-08-2010 00:00:00 15.04 C 7.15 g/m*3 15.04 C 0 km/h
842 07-08-2010 01:00:00 13.94 C 7.55 g/m*3 13.94 C 0 km/h
843 07-08-2010 02:00:00 13 C 7.89 g/m*3 13 C 0 km/h
844 07-08-2010 03:00:00 12.32 C 7.74 g/m*3 12.32 C 0 km/h
845 07-08-2010 04:00:00 11.64 C 7.71 g/m*3 11.64 C 0 km/h
846 07-08-2010 05:00:00 11.06 C 7.7 g/m*3 11.06 C 0 km/h
847 07-08-2010 06:00:00 10.48 C 7.77 g/m*3 10.48 C 0 km/h
848 07-08-2010 07:00:00 10.7 C 7.96 g/m*3 10.7 C 0 km/h
849 07-08-2010 08:00:00 11.74 C 8.07 g/m*3 11.74 C 0 km/h
850 07-08-2010 09:00:00 14.06 C 8.4 g/m*3 14.06 C 0 km/h
Sensor: Nr:Datum:Temp:Abs-Feuchte:Windchill:Wind:
Aussen-T/F 851 07-08-2010 10:00:00 18.22 C 8.5 g/m*3 18.22 C 0 km/h
852 07-08-2010 11:00:00 21.26 C 6.36 g/m*3 21.26 C 0 km/h
853 07-08-2010 12:00:00 22.86 C 5.46 g/m*3 22.86 C 0 km/h
854 07-08-2010 13:00:00 25.48 C 4.87 g/m*3 25.48 C 0 km/h
855 07-08-2010 14:00:00 26.66 C 5.05 g/m*3 26.66 C 0 km/h
856 07-08-2010 15:00:00 27.78 C 5.37 g/m*3 27.78 C 0 km/h
857 07-08-2010 16:00:00 29.2 C 5.81 g/m*3 29.2 C 0 km/h
858 07-08-2010 17:00:00 29.3 C 5.84 g/m*3 29.3 C 0 km/h
859 07-08-2010 18:00:00 27.4 C 6.26 g/m*3 27.4 C 0 km/h
860 07-08-2010 19:00:00 25.16 C 6.83 g/m*3 25.16 C 0 km/h
861 07-08-2010 20:00:00 23.86 C 6.99 g/m*3 23.86 C 0 km/h
862 07-08-2010 21:00:00 22.46 C 7.05 g/m*3 22.46 C 0 km/h
863 07-08-2010 22:00:00 21.96 C 7.4 g/m*3 21.96 C 0 km/h
864 07-08-2010 23:00:00 21.6 C 7.74 g/m*3 21.6 C 0 km/h
865 08-08-2010 00:00:00 21.04 C 8.12 g/m*3 21.04 C 0 km/h
866 08-08-2010 01:00:00 20.16 C 8.44 g/m*3 20.16 C 0 km/h
867 08-08-2010 02:00:00 19.82 C 9.44 g/m*3 19.82 C 0 km/h
868 08-08-2010 03:00:00 18.68 C 10.01 g/m*3 18.68 C 0 km/h
869 08-08-2010 04:00:00 18.36 C 10.39 g/m*3 18.36 C 0 km/h
870 08-08-2010 05:00:00 17.56 C 11.46 g/m*3 17.56 C 0 km/h
871 08-08-2010 06:00:00 16.68 C 12.49 g/m*3 16.68 C 0 km/h
872 08-08-2010 07:00:00 16.66 C 12.96 g/m*3 16.66 C 0 km/h
873 08-08-2010 08:00:00 17.2 C 13.47 g/m*3 17.2 C 0 km/h
874 08-08-2010 09:00:00 17.64 C 13.35 g/m*3 17.64 C 0 km/h
875 08-08-2010 10:00:00 18.46 C 12.66 g/m*3 18.46 C 0 km/h
Sensor: Nr:Datum:Temp:Abs-Feuchte:Windchill:Wind:
Aussen-T/F 876 08-08-2010 11:00:00 16.48 C 12.15 g/m*3 16.48 C 0 km/h
877 08-08-2010 12:00:00 16.58 C 12.56 g/m*3 16.58 C 0 km/h
878 08-08-2010 13:00:00 17.16 C 12.86 g/m*3 17.16 C 0 km/h
879 08-08-2010 14:00:00 18.98 C 12.57 g/m*3 18.98 C 0 km/h
880 08-08-2010 15:00:00 20.18 C 12.5 g/m*3 20.18 C 0 km/h
881 08-08-2010 16:00:00 19.94 C 12.36 g/m*3 19.94 C 0 km/h
882 08-08-2010 17:00:00 21.68 C 12 g/m*3 21.68 C 0 km/h
883 08-08-2010 18:00:00 21.42 C 10.21 g/m*3 21.42 C 0 km/h
884 08-08-2010 19:00:00 19.98 C 10.77 g/m*3 19.98 C 0 km/h
885 08-08-2010 20:00:00 17.72 C 11.81 g/m*3 17.72 C 0 km/h
886 08-08-2010 21:00:00 17.46 C 11.42 g/m*3 17.46 C 0 km/h
887 08-08-2010 22:00:00 17.1 C 11.5 g/m*3 17.1 C 0 km/h
888 08-08-2010 23:00:00 16.7 C 11.68 g/m*3 16.7 C 0 km/h
889 09-08-2010 00:00:00 16.42 C 12.05 g/m*3 16.42 C 0 km/h
890 09-08-2010 01:00:00 16.44 C 12.17 g/m*3 16.44 C 0 km/h
891 09-08-2010 02:00:00 15.6 C 11.68 g/m*3 15.6 C 0 km/h
892 09-08-2010 03:00:00 15.6 C 11.7 g/m*3 15.6 C 0 km/h
893 09-08-2010 04:00:00 15.74 C 11.4 g/m*3 15.74 C 0 km/h
894 09-08-2010 05:00:00 14.84 C 10.97 g/m*3 14.84 C 0 km/h
895 09-08-2010 06:00:00 14.6 C 11.31 g/m*3 14.6 C 0 km/h
896 09-08-2010 07:00:00 14.6 C 11.34 g/m*3 14.6 C 0 km/h
897 09-08-2010 08:00:00 15.22 C 11.05 g/m*3 15.22 C 0 km/h
898 09-08-2010 09:00:00 15.8 C 10.82 g/m*3 15.8 C 0 km/h
899 09-08-2010 10:00:00 17.4 C 10.55 g/m*3 17.4 C 0 km/h
900 09-08-2010 11:00:00 19.6 C 9.25 g/m*3 19.6 C 0 km/h
Sensor: Nr:Datum:Temp:Abs-Feuchte:Windchill:Wind:
Aussen-T/F 901 09-08-2010 12:00:00 21.3 C 8.61 g/m*3 21.3 C 0 km/h
902 09-08-2010 13:00:00 24.36 C 8.17 g/m*3 24.36 C 0 km/h
903 09-08-2010 14:00:00 24.1 C 7.83 g/m*3 24.1 C 0 km/h
904 09-08-2010 15:00:00 25.54 C 7.59 g/m*3 25.54 C 0 km/h
905 09-08-2010 16:00:00 26.18 C 6.84 g/m*3 26.18 C 0 km/h
906 09-08-2010 17:00:00 26.22 C 8.08 g/m*3 26.22 C 0 km/h
907 09-08-2010 18:00:00 27.5 C 7.88 g/m*3 27.5 C 0 km/h
908 09-08-2010 19:00:00 23.52 C 8.81 g/m*3 23.52 C 0 km/h
909 09-08-2010 20:00:00 21.26 C 8.55 g/m*3 21.26 C 0 km/h
910 09-08-2010 21:00:00 19.76 C 8.79 g/m*3 19.76 C 0 km/h
911 09-08-2010 22:00:00 18.64 C 8.97 g/m*3 18.64 C 0 km/h
912 09-08-2010 23:00:00 18.12 C 9.25 g/m*3 18.12 C 0 km/h
913 10-08-2010 00:00:00 17.62 C 9.79 g/m*3 17.62 C 0 km/h
914 10-08-2010 01:00:00 17.52 C 10.15 g/m*3 17.52 C 0 km/h
915 10-08-2010 02:00:00 17.38 C 10.04 g/m*3 17.38 C 0 km/h
916 10-08-2010 03:00:00 17.14 C 10.1 g/m*3 17.14 C 0 km/h
917 10-08-2010 04:00:00 16.86 C 10.24 g/m*3 16.86 C 0 km/h
918 10-08-2010 05:00:00 15.62 C 10.09 g/m*3 15.62 C 0 km/h
919 10-08-2010 06:00:00 14.66 C 9.92 g/m*3 14.66 C 0 km/h
920 10-08-2010 07:00:00 14.88 C 10.31 g/m*3 14.88 C 0 km/h
921 10-08-2010 08:00:00 15.84 C 10.71 g/m*3 15.84 C 0 km/h
922 10-08-2010 09:00:00 18.2 C 10.6 g/m*3 18.2 C 0 km/h
923 10-08-2010 10:00:00 20.92 C 11.01 g/m*3 20.92 C 0 km/h
924 10-08-2010 11:00:00 23.74 C 9.52 g/m*3 23.74 C 0 km/h
925 10-08-2010 12:00:00 25.9 C 6.83 g/m*3 25.9 C 0 km/h
Sensor: Nr:Datum:Temp:Abs-Feuchte:Windchill:Wind:
Aussen-T/F 926 10-08-2010 13:00:00 28.16 C 5.98 g/m*3 28.16 C 0 km/h
927 10-08-2010 14:00:00 29.04 C 6.22 g/m*3 29.04 C 0 km/h
928 10-08-2010 15:00:00 28.46 C 7.36 g/m*3 28.46 C 0 km/h
929 10-08-2010 16:00:00 29.88 C 6.51 g/m*3 29.88 C 0 km/h
930 10-08-2010 17:00:00 29.94 C 6.47 g/m*3 29.94 C 0 km/h
931 10-08-2010 18:00:00 29.68 C 6.74 g/m*3 29.68 C 0 km/h
932 10-08-2010 19:00:00 26.94 C 8.16 g/m*3 26.94 C 0 km/h
933 10-08-2010 20:00:00 24.76 C 8.27 g/m*3 24.76 C 0 km/h
934 10-08-2010 21:00:00 23.36 C 8.77 g/m*3 23.36 C 0 km/h
935 10-08-2010 22:00:00 22.86 C 8.93 g/m*3 22.86 C 0 km/h
936 10-08-2010 23:00:00 21.9 C 9.26 g/m*3 21.9 C 0 km/h
937 11-08-2010 00:00:00 21.46 C 9.67 g/m*3 21.46 C 0 km/h
938 11-08-2010 01:00:00 20.54 C 10.56 g/m*3 20.54 C 0 km/h
939 11-08-2010 02:00:00 18.38 C 12.32 g/m*3 18.38 C 0 km/h
940 11-08-2010 03:00:00 17.64 C 13.14 g/m*3 17.64 C 0 km/h
941 11-08-2010 04:00:00 17.52 C 13.4 g/m*3 17.52 C 0 km/h
942 11-08-2010 05:00:00 17.42 C 13.24 g/m*3 17.42 C 0 km/h
943 11-08-2010 06:00:00 17.4 C 13.04 g/m*3 17.4 C 0 km/h
944 11-08-2010 07:00:00 17.62 C 13.03 g/m*3 17.62 C 0 km/h
945 11-08-2010 08:00:00 18.68 C 13.02 g/m*3 18.68 C 0 km/h
946 11-08-2010 09:00:00 19.64 C 11.51 g/m*3 19.64 C 0 km/h
947 11-08-2010 10:00:00 20.8 C 11.08 g/m*3 20.8 C 0 km/h
948 11-08-2010 11:00:00 20.62 C 11.18 g/m*3 20.62 C 0 km/h
949 11-08-2010 12:00:00 22.46 C 11 g/m*3 22.46 C 0 km/h
950 11-08-2010 13:00:00 23.8 C 10.37 g/m*3 23.8 C 0 km/h
Sensor: Nr:Datum:Temp:Abs-Feuchte:Windchill:Wind:
Aussen-T/F 951 11-08-2010 14:00:00 24.4 C 10.1 g/m*3 24.4 C 0 km/h
952 11-08-2010 15:00:00 25.56 C 9.88 g/m*3 25.56 C 0 km/h
953 11-08-2010 16:00:00 22.88 C 12 g/m*3 22.88 C 0 km/h
954 11-08-2010 17:00:00 21.74 C 14 g/m*3 21.74 C 0 km/h
955 11-08-2010 18:00:00 22.86 C 14.31 g/m*3 22.86 C 0 km/h
956 11-08-2010 19:00:00 21.28 C 13.7 g/m*3 21.28 C 0 km/h
957 11-08-2010 20:00:00 19.56 C 13.57 g/m*3 19.56 C 0 km/h
958 11-08-2010 21:00:00 18.84 C 14.4 g/m*3 18.84 C 0 km/h
959 11-08-2010 22:00:00 18.48 C 14.38 g/m*3 18.48 C 0 km/h
960 11-08-2010 23:00:00 18.3 C 14.38 g/m*3 18.3 C 0 km/h
961 12-08-2010 00:00:00 17.88 C 14.27 g/m*3 17.88 C 0 km/h
962 12-08-2010 01:00:00 17.52 C 14.03 g/m*3 17.52 C 0 km/h
963 12-08-2010 02:00:00 17.16 C 13.73 g/m*3 17.16 C 0 km/h
964 12-08-2010 03:00:00 16.86 C 13.49 g/m*3 16.86 C 0 km/h
965 12-08-2010 04:00:00 16.46 C 13.22 g/m*3 16.46 C 0 km/h
966 12-08-2010 05:00:00 16.48 C 13.3 g/m*3 16.48 C 0 km/h
967 12-08-2010 06:00:00 16.72 C 13.52 g/m*3 16.72 C 0 km/h
968 12-08-2010 07:00:00 16.86 C 13.6 g/m*3 16.86 C 0 km/h
969 12-08-2010 08:00:00 16.64 C 12.89 g/m*3 16.64 C 0 km/h
970 12-08-2010 09:00:00 17.72 C 13.44 g/m*3 17.72 C 0 km/h
971 12-08-2010 10:00:00 18.58 C 12.24 g/m*3 18.58 C 0 km/h
972 12-08-2010 11:00:00 18.62 C 12.17 g/m*3 18.62 C 0 km/h
973 12-08-2010 12:00:00 19.56 C 11.25 g/m*3 19.56 C 0 km/h
974 12-08-2010 13:00:00 20.26 C 9.58 g/m*3 20.26 C 0 km/h
975 12-08-2010 14:00:00 20.3 C 9.04 g/m*3 20.3 C 0 km/h
Sensor: Nr:Datum:Temp:Abs-Feuchte:Windchill:Wind:
Aussen-T/F 976 12-08-2010 15:00:00 23.02 C 8.4 g/m*3 23.02 C 0 km/h
977 12-08-2010 16:00:00 22.56 C 7.14 g/m*3 22.56 C 0 km/h
978 12-08-2010 17:00:00 25.42 C 5.89 g/m*3 25.42 C 0 km/h
979 12-08-2010 18:00:00 23.3 C 6.65 g/m*3 23.3 C 0 km/h
980 12-08-2010 19:00:00 21.68 C 8.23 g/m*3 21.68 C 0 km/h
981 12-08-2010 20:00:00 20.1 C 8.45 g/m*3 20.1 C 0 km/h
982 12-08-2010 21:00:00 19.14 C 7.99 g/m*3 19.14 C 0 km/h
983 12-08-2010 22:00:00 18.44 C 8.58 g/m*3 18.44 C 0 km/h
984 12-08-2010 23:00:00 17.34 C 9.19 g/m*3 17.34 C 0 km/h
985 13-08-2010 00:00:00 16.82 C 9.42 g/m*3 16.82 C 0 km/h
986 13-08-2010 01:00:00 16.18 C 9.26 g/m*3 16.18 C 0 km/h
987 13-08-2010 02:00:00 15.82 C 9.68 g/m*3 15.82 C 0 km/h
988 13-08-2010 03:00:00 15.34 C 9.84 g/m*3 15.34 C 0 km/h
989 13-08-2010 04:00:00 15.04 C 10 g/m*3 15.04 C 0 km/h
990 13-08-2010 05:00:00 14.76 C 9.98 g/m*3 14.76 C 0 km/h
991 13-08-2010 06:00:00 14.7 C 10.05 g/m*3 14.7 C 0 km/h
992 13-08-2010 07:00:00 15.02 C 10.12 g/m*3 15.02 C 0 km/h
993 13-08-2010 08:00:00 15.16 C 10.33 g/m*3 15.16 C 0 km/h
994 13-08-2010 09:00:00 16.26 C 10.3 g/m*3 16.26 C 0 km/h
995 13-08-2010 10:00:00 18.84 C 9.65 g/m*3 18.84 C 0 km/h
996 13-08-2010 11:00:00 21.24 C 8.4 g/m*3 21.24 C 0 km/h
997 13-08-2010 12:00:00 22.2 C 7.74 g/m*3 22.2 C 0 km/h
998 13-08-2010 13:00:00 23 C 6.99 g/m*3 23 C 0 km/h
999 13-08-2010 14:00:00 23.92 C 6.5 g/m*3 23.92 C 0 km/h
1000 13-08-2010 15:00:00 24.42 C 6.02 g/m*3 24.42 C 0 km/h
Sensor: Nr:Datum:Temp:Abs-Feuchte:Windchill:Wind:
Aussen-T/F 1001 13-08-2010 16:00:00 24.24 C 6.75 g/m*3 24.24 C 0 km/h
1002 13-08-2010 17:00:00 23.66 C 7.43 g/m*3 23.66 C 0 km/h
1003 13-08-2010 18:00:00 22.5 C 8.15 g/m*3 22.5 C 0 km/h
1004 13-08-2010 19:00:00 21.84 C 7.88 g/m*3 21.84 C 0 km/h
1005 13-08-2010 20:00:00 19.9 C 7.94 g/m*3 19.9 C 0 km/h
1006 13-08-2010 21:00:00 17.66 C 7.83 g/m*3 17.66 C 0 km/h
1007 13-08-2010 22:00:00 16.72 C 8.2 g/m*3 16.72 C 0 km/h
1008 13-08-2010 23:00:00 15.44 C 8.64 g/m*3 15.44 C 0 km/h
1009 14-08-2010 00:00:00 14.7 C 8.91 g/m*3 14.7 C 0 km/h
1010 14-08-2010 01:00:00 13.98 C 9.11 g/m*3 13.98 C 0 km/h
1011 14-08-2010 02:00:00 13.32 C 9 g/m*3 13.32 C 0 km/h
1012 14-08-2010 03:00:00 12.6 C 8.87 g/m*3 12.6 C 0 km/h
1013 14-08-2010 04:00:00 12.06 C 8.75 g/m*3 12.06 C 0 km/h
1014 14-08-2010 05:00:00 11.62 C 8.76 g/m*3 11.62 C 0 km/h
1015 14-08-2010 06:00:00 11.12 C 8.73 g/m*3 11.12 C 0 km/h
1016 14-08-2010 07:00:00 11.28 C 8.9 g/m*3 11.28 C 0 km/h
1017 14-08-2010 08:00:00 12.32 C 9.42 g/m*3 12.32 C 0 km/h
1018 14-08-2010 09:00:00 14.4 C 9.94 g/m*3 14.4 C 0 km/h
1019 14-08-2010 10:00:00 17.62 C 10.39 g/m*3 17.62 C 0 km/h
1020 14-08-2010 11:00:00 20.68 C 10.36 g/m*3 20.68 C 0 km/h
1021 14-08-2010 12:00:00 22.96 C 9.19 g/m*3 22.96 C 0 km/h
1022 14-08-2010 13:00:00 26.24 C 7.4 g/m*3 26.24 C 0 km/h
1023 14-08-2010 14:00:00 27.62 C 6.98 g/m*3 27.62 C 0 km/h
1024 14-08-2010 15:00:00 28.04 C 6.7 g/m*3 28.04 C 0 km/h
1025 14-08-2010 16:00:00 30.1 C 6.46 g/m*3 30.1 C 0 km/h
Sensor: Nr:Datum:Temp:Abs-Feuchte:Windchill:Wind:
Aussen-T/F 1026 14-08-2010 17:00:00 30.88 C 6.36 g/m*3 30.88 C 0 km/h
1027 14-08-2010 18:00:00 31.22 C 6.48 g/m*3 31.22 C 0 km/h
1028 14-08-2010 19:00:00 27.86 C 7.56 g/m*3 27.86 C 0 km/h
1029 14-08-2010 20:00:00 24.86 C 8.18 g/m*3 24.86 C 0 km/h
1030 14-08-2010 21:00:00 22.14 C 8.73 g/m*3 22.14 C 0 km/h
1031 14-08-2010 22:00:00 21.24 C 9.14 g/m*3 21.24 C 0 km/h
1032 14-08-2010 23:00:00 20.36 C 9.14 g/m*3 20.36 C 0 km/h
1033 15-08-2010 00:00:00 19.74 C 8.82 g/m*3 19.74 C 0 km/h
1034 15-08-2010 01:00:00 19.38 C 8.73 g/m*3 19.38 C 0 km/h
1035 15-08-2010 02:00:00 18.98 C 8.98 g/m*3 18.98 C 0 km/h
1036 15-08-2010 03:00:00 18.6 C 9.29 g/m*3 18.6 C 0 km/h
1037 15-08-2010 04:00:00 18.14 C 9.14 g/m*3 18.14 C 0 km/h
1038 15-08-2010 05:00:00 18.06 C 8.88 g/m*3 18.06 C 0 km/h
1039 15-08-2010 06:00:00 17.9 C 9.04 g/m*3 17.9 C 0 km/h
1040 15-08-2010 07:00:00 17.1 C 9.69 g/m*3 17.1 C 0 km/h
1041 15-08-2010 08:00:00 15.24 C 11.48 g/m*3 15.24 C 0 km/h
1042 15-08-2010 09:00:00 15.2 C 11.99 g/m*3 15.2 C 0 km/h
1043 15-08-2010 10:00:00 15.48 C 12.44 g/m*3 15.48 C 0 km/h
1044 15-08-2010 11:00:00 15.82 C 12.8 g/m*3 15.82 C 0 km/h
1045 15-08-2010 12:00:00 16.04 C 12.97 g/m*3 16.04 C 0 km/h
1046 15-08-2010 13:00:00 16.14 C 13.05 g/m*3 16.14 C 0 km/h
1047 15-08-2010 14:00:00 16.44 C 13.29 g/m*3 16.44 C 0 km/h
1048 15-08-2010 15:00:00 16.4 C 13.26 g/m*3 16.4 C 0 km/h
1049 15-08-2010 16:00:00 16.48 C 13.32 g/m*3 16.48 C 0 km/h
1050 15-08-2010 17:00:00 16.68 C 13.48 g/m*3 16.68 C 0 km/h
Sensor: Nr:Datum:Temp:Abs-Feuchte:Windchill:Wind:
Aussen-T/F 1051 15-08-2010 18:00:00 16.6 C 13.42 g/m*3 16.6 C 0 km/h
1052 15-08-2010 19:00:00 16.6 C 13.42 g/m*3 16.6 C 0 km/h
1053 15-08-2010 20:00:00 16.38 C 13.24 g/m*3 16.38 C 0 km/h
1054 15-08-2010 21:00:00 16.24 C 13.13 g/m*3 16.24 C 0 km/h
1055 15-08-2010 22:00:00 16.14 C 13.05 g/m*3 16.14 C 0 km/h
1056 15-08-2010 23:00:00 15.5 C 12.56 g/m*3 15.5 C 0 km/h
1057 16-08-2010 00:00:00 14.9 C 12.11 g/m*3 14.9 C 0 km/h
1058 16-08-2010 01:00:00 14.72 C 11.87 g/m*3 14.72 C 0 km/h
1059 16-08-2010 02:00:00 14.6 C 11.61 g/m*3 14.6 C 0 km/h
1060 16-08-2010 03:00:00 14.6 C 11.64 g/m*3 14.6 C 0 km/h
1061 16-08-2010 04:00:00 14.5 C 11.34 g/m*3 14.5 C 0 km/h
1062 16-08-2010 05:00:00 14.5 C 11.39 g/m*3 14.5 C 0 km/h
1063 16-08-2010 06:00:00 14.54 C 11.37 g/m*3 14.54 C 0 km/h
1064 16-08-2010 07:00:00 14.84 C 11.45 g/m*3 14.84 C 0 km/h
1065 16-08-2010 08:00:00 15.92 C 11.44 g/m*3 15.92 C 0 km/h
1066 16-08-2010 09:00:00 17.4 C 11.09 g/m*3 17.4 C 0 km/h
1067 16-08-2010 10:00:00 17.2 C 10.84 g/m*3 17.2 C 0 km/h
1068 16-08-2010 11:00:00 17.7 C 11.09 g/m*3 17.7 C 0 km/h
1069 16-08-2010 12:00:00 17.76 C 11.45 g/m*3 17.76 C 0 km/h
1070 16-08-2010 13:00:00 18.38 C 10.59 g/m*3 18.38 C 0 km/h
1071 16-08-2010 14:00:00 19.88 C 9.88 g/m*3 19.88 C 0 km/h
1072 16-08-2010 15:00:00 19.72 C 9.42 g/m*3 19.72 C 0 km/h
1073 16-08-2010 16:00:00 19.76 C 9.75 g/m*3 19.76 C 0 km/h
1074 16-08-2010 17:00:00 19.96 C 9.79 g/m*3 19.96 C 0 km/h
1075 16-08-2010 18:00:00 19.76 C 9.65 g/m*3 19.76 C 0 km/h
Sensor: Nr:Datum:Temp:Abs-Feuchte:Windchill:Wind:
Aussen-T/F 1076 16-08-2010 19:00:00 18.6 C 10.06 g/m*3 18.6 C 0 km/h
1077 16-08-2010 20:00:00 17.9 C 10.63 g/m*3 17.9 C 0 km/h
1078 16-08-2010 21:00:00 17.44 C 11.32 g/m*3 17.44 C 0 km/h
1079 16-08-2010 22:00:00 17.58 C 11.83 g/m*3 17.58 C 0 km/h
1080 16-08-2010 23:00:00 17.76 C 12.05 g/m*3 17.76 C 0 km/h
1081 17-08-2010 00:00:00 17.62 C 11.95 g/m*3 17.62 C 0 km/h
1082 17-08-2010 01:00:00 16.68 C 12.29 g/m*3 16.68 C 0 km/h
1083 17-08-2010 02:00:00 16.48 C 12.37 g/m*3 16.48 C 0 km/h
1084 17-08-2010 03:00:00 16.42 C 11.79 g/m*3 16.42 C 0 km/h
1085 17-08-2010 04:00:00 16.42 C 11.18 g/m*3 16.42 C 0 km/h
1086 17-08-2010 05:00:00 15.62 C 11.34 g/m*3 15.62 C 0 km/h
1087 17-08-2010 06:00:00 15.84 C 11.23 g/m*3 15.84 C 0 km/h
1088 17-08-2010 07:00:00 16.36 C 10.83 g/m*3 16.36 C 0 km/h
1089 17-08-2010 08:00:00 16.72 C 10.33 g/m*3 16.72 C 0 km/h
1090 17-08-2010 09:00:00 16.98 C 9.65 g/m*3 16.98 C 0 km/h
1091 17-08-2010 10:00:00 17.06 C 9.35 g/m*3 17.06 C 0 km/h
1092 17-08-2010 11:00:00 17.58 C 9.2 g/m*3 17.58 C 0 km/h
1093 17-08-2010 12:00:00 16.62 C 10.13 g/m*3 16.62 C 0 km/h
1094 17-08-2010 13:00:00 17.3 C 11.73 g/m*3 17.3 C 0 km/h
1095 17-08-2010 14:00:00 17.74 C 9.16 g/m*3 17.74 C 0 km/h
1096 17-08-2010 15:00:00 17.08 C 8.75 g/m*3 17.08 C 0 km/h
1097 17-08-2010 16:00:00 14.7 C 9.74 g/m*3 14.7 C 0 km/h
1098 17-08-2010 17:00:00 14.42 C 9.98 g/m*3 14.42 C 0 km/h
1099 17-08-2010 18:00:00 14.8 C 11 g/m*3 14.8 C 0 km/h
1100 17-08-2010 19:00:00 14.84 C 11.05 g/m*3 14.84 C 0 km/h
Sensor: Nr:Datum:Temp:Abs-Feuchte:Windchill:Wind:
Aussen-T/F 1101 17-08-2010 20:00:00 14.32 C 11.02 g/m*3 14.32 C 0 km/h
1102 17-08-2010 21:00:00 14.38 C 11.31 g/m*3 14.38 C 0 km/h
1103 17-08-2010 22:00:00 14.62 C 10.75 g/m*3 14.62 C 0 km/h
1104 17-08-2010 23:00:00 15 C 10.05 g/m*3 15 C 0 km/h
1105 18-08-2010 00:00:00 15.52 C 9.66 g/m*3 15.52 C 0 km/h
1106 18-08-2010 01:00:00 15.76 C 9.43 g/m*3 15.76 C 0 km/h
1107 18-08-2010 02:00:00 15.54 C 9.43 g/m*3 15.54 C 0 km/h
1108 18-08-2010 03:00:00 15.46 C 9.49 g/m*3 15.46 C 0 km/h
1109 18-08-2010 04:00:00 15.2 C 9.55 g/m*3 15.2 C 0 km/h
1110 18-08-2010 05:00:00 14.96 C 9.8 g/m*3 14.96 C 0 km/h
1111 18-08-2010 06:00:00 15.08 C 9.56 g/m*3 15.08 C 0 km/h
1112 18-08-2010 07:00:00 15.44 C 9.69 g/m*3 15.44 C 0 km/h
1113 18-08-2010 08:00:00 16.16 C 9.88 g/m*3 16.16 C 0 km/h
1114 18-08-2010 09:00:00 17.1 C 10.16 g/m*3 17.1 C 0 km/h
1115 18-08-2010 10:00:00 18.16 C 10.2 g/m*3 18.16 C 0 km/h
1116 18-08-2010 11:00:00 18.7 C 10.18 g/m*3 18.7 C 0 km/h
1117 18-08-2010 12:00:00 18.82 C 10.67 g/m*3 18.82 C 0 km/h
1118 18-08-2010 13:00:00 20.8 C 10.25 g/m*3 20.8 C 0 km/h
1119 18-08-2010 14:00:00 22.84 C 9.04 g/m*3 22.84 C 0 km/h
1120 18-08-2010 15:00:00 22.24 C 9.01 g/m*3 22.24 C 0 km/h
1121 18-08-2010 16:00:00 23.68 C 9.02 g/m*3 23.68 C 0 km/h
1122 18-08-2010 17:00:00 23.88 C 8.86 g/m*3 23.88 C 0 km/h
1123 18-08-2010 18:00:00 22.36 C 9.15 g/m*3 22.36 C 0 km/h
1124 18-08-2010 19:00:00 20.68 C 9.35 g/m*3 20.68 C 0 km/h
1125 18-08-2010 20:00:00 19.44 C 10 g/m*3 19.44 C 0 km/h
Sensor: Nr:Datum:Temp:Abs-Feuchte:Windchill:Wind:
Aussen-T/F 1126 18-08-2010 21:00:00 18.82 C 10.19 g/m*3 18.82 C 0 km/h
1127 18-08-2010 22:00:00 17.6 C 10.59 g/m*3 17.6 C 0 km/h
1128 18-08-2010 23:00:00 17.58 C 10.19 g/m*3 17.58 C 0 km/h
1129 19-08-2010 00:00:00 17.36 C 9.14 g/m*3 17.36 C 0 km/h
1130 19-08-2010 01:00:00 16.86 C 9.18 g/m*3 16.86 C 0 km/h
1131 19-08-2010 02:00:00 16.32 C 8.81 g/m*3 16.32 C 0 km/h
1132 19-08-2010 03:00:00 15.9 C 9.21 g/m*3 15.9 C 0 km/h
1133 19-08-2010 04:00:00 15.54 C 9.38 g/m*3 15.54 C 0 km/h
1134 19-08-2010 05:00:00 15.1 C 9.31 g/m*3 15.1 C 0 km/h
1135 19-08-2010 06:00:00 14.18 C 8.9 g/m*3 14.18 C 0 km/h
1136 19-08-2010 07:00:00 13.92 C 8.21 g/m*3 13.92 C 0 km/h
1137 19-08-2010 08:00:00 14.78 C 8.05 g/m*3 14.78 C 0 km/h
1138 19-08-2010 09:00:00 15.72 C 8.06 g/m*3 15.72 C 0 km/h
1139 19-08-2010 10:00:00 17.9 C 7.7 g/m*3 17.9 C 0 km/h
1140 19-08-2010 11:00:00 20 C 7.26 g/m*3 20 C 0 km/h
1141 19-08-2010 12:00:00 21.44 C 6.65 g/m*3 21.44 C 0 km/h
1142 19-08-2010 13:00:00 22.64 C 6.16 g/m*3 22.64 C 0 km/h
1143 19-08-2010 14:00:00 23.04 C 6.02 g/m*3 23.04 C 0 km/h
1144 19-08-2010 15:00:00 23.74 C 6.22 g/m*3 23.74 C 0 km/h
1145 19-08-2010 16:00:00 23.28 C 7.64 g/m*3 23.28 C 0 km/h
1146 19-08-2010 17:00:00 23.9 C 7.53 g/m*3 23.9 C 0 km/h
1147 19-08-2010 18:00:00 25.42 C 5.75 g/m*3 25.42 C 0 km/h
1148 19-08-2010 19:00:00 25.24 C 6.63 g/m*3 25.24 C 0 km/h
1149 19-08-2010 20:00:00 20.5 C 7.15 g/m*3 20.5 C 0 km/h
1150 19-08-2010 21:00:00 18.08 C 7.78 g/m*3 18.08 C 0 km/h
Sensor: Nr:Datum:Temp:Abs-Feuchte:Windchill:Wind:
Aussen-T/F 1151 19-08-2010 22:00:00 16.86 C 8.01 g/m*3 16.86 C 0 km/h
1152 19-08-2010 23:00:00 15.62 C 8.36 g/m*3 15.62 C 0 km/h
1153 20-08-2010 00:00:00 14.72 C 8.55 g/m*3 14.72 C 0 km/h
1154 20-08-2010 01:00:00 14.04 C 8.61 g/m*3 14.04 C 0 km/h
1155 20-08-2010 02:00:00 13.34 C 8.59 g/m*3 13.34 C 0 km/h
1156 20-08-2010 03:00:00 12.8 C 8.62 g/m*3 12.8 C 0 km/h
1157 20-08-2010 04:00:00 12.26 C 8.58 g/m*3 12.26 C 0 km/h
1158 20-08-2010 05:00:00 11.9 C 8.56 g/m*3 11.9 C 0 km/h
1159 20-08-2010 06:00:00 11.48 C 8.54 g/m*3 11.48 C 0 km/h
1160 20-08-2010 07:00:00 11.76 C 8.78 g/m*3 11.76 C 0 km/h
1161 20-08-2010 08:00:00 12.54 C 9.19 g/m*3 12.54 C 0 km/h
1162 20-08-2010 09:00:00 14.5 C 9.85 g/m*3 14.5 C 0 km/h
1163 20-08-2010 10:00:00 18.02 C 10.3 g/m*3 18.02 C 0 km/h
1164 20-08-2010 11:00:00 20.98 C 10.87 g/m*3 20.98 C 0 km/h
1165 20-08-2010 12:00:00 23.76 C 10.86 g/m*3 23.76 C 0 km/h
1166 20-08-2010 13:00:00 26.76 C 9.04 g/m*3 26.76 C 0 km/h
1167 20-08-2010 14:00:00 28.36 C 7.82 g/m*3 28.36 C 0 km/h
1168 20-08-2010 15:00:00 29.54 C 7.45 g/m*3 29.54 C 0 km/h
1169 20-08-2010 16:00:00 30.72 C 7.57 g/m*3 30.72 C 0 km/h
1170 20-08-2010 17:00:00 31.16 C 7.29 g/m*3 31.16 C 0 km/h
1171 20-08-2010 18:00:00 31.22 C 7.64 g/m*3 31.22 C 0 km/h
1172 20-08-2010 19:00:00 29.58 C 8.42 g/m*3 29.58 C 0 km/h
1173 20-08-2010 20:00:00 25.1 C 9.07 g/m*3 25.1 C 0 km/h
1174 20-08-2010 21:00:00 23.08 C 9.58 g/m*3 23.08 C 0 km/h
1175 20-08-2010 22:00:00 22.025 C 10.2 g/m*3 22.03 C 0 km/h
Sensor: Nr:Datum:Temp:Abs-Feuchte:Windchill:Wind:
Aussen-T/F 1176 20-08-2010 23:00:00 20.9 C 10.64 g/m*3 20.9 C 0 km/h
1177 21-08-2010 00:00:00 19.76 C 10.77 g/m*3 19.76 C 0 km/h
1178 21-08-2010 01:00:00 18.84 C 11.01 g/m*3 18.84 C 0 km/h
1179 21-08-2010 02:00:00 18.16 C 11.04 g/m*3 18.16 C 0 km/h
1180 21-08-2010 03:00:00 17.66 C 11.11 g/m*3 17.66 C 0 km/h
1181 21-08-2010 04:00:00 17.06 C 11.12 g/m*3 17.06 C 0 km/h
1182 21-08-2010 05:00:00 16.46 C 10.95 g/m*3 16.46 C 0 km/h
1183 21-08-2010 06:00:00 16.04 C 10.9 g/m*3 16.04 C 0 km/h
1184 21-08-2010 07:00:00 16 C 11.06 g/m*3 16 C 0 km/h
1185 21-08-2010 08:00:00 16.78 C 11.54 g/m*3 16.78 C 0 km/h
1186 21-08-2010 09:00:00 18.42 C 12.22 g/m*3 18.42 C 0 km/h
1187 21-08-2010 10:00:00 21.4 C 12.86 g/m*3 21.4 C 0 km/h
1188 21-08-2010 11:00:00 24.76 C 12.17 g/m*3 24.76 C 0 km/h
1189 21-08-2010 12:00:00 27.54 C 9.81 g/m*3 27.54 C 0 km/h
1190 21-08-2010 13:00:00 29.12 C 9.19 g/m*3 29.12 C 0 km/h
1191 21-08-2010 14:00:00 30.42 C 8.69 g/m*3 30.42 C 0 km/h
1192 21-08-2010 15:00:00 31.28 C 8.51 g/m*3 31.28 C 0 km/h
1193 21-08-2010 16:00:00 32.14 C 7.89 g/m*3 32.14 C 0 km/h
1194 21-08-2010 17:00:00 32.38 C 7.58 g/m*3 32.38 C 0 km/h
1195 21-08-2010 18:00:00 32.42 C 7.39 g/m*3 32.42 C 0 km/h
1196 21-08-2010 19:00:00 31.66 C 7.96 g/m*3 31.66 C 0 km/h
1197 21-08-2010 20:00:00 28.82 C 9.33 g/m*3 28.82 C 0 km/h
1198 21-08-2010 21:00:00 25.72 C 10.26 g/m*3 25.72 C 0 km/h
1199 21-08-2010 22:00:00 24.34 C 10.87 g/m*3 24.34 C 0 km/h
1200 21-08-2010 23:00:00 23.16 C 11.24 g/m*3 23.16 C 0 km/h
Sensor: Nr:Datum:Temp:Abs-Feuchte:Windchill:Wind:
Aussen-T/F 1201 22-08-2010 00:00:00 22 C 11.45 g/m*3 22 C 0 km/h
1202 22-08-2010 01:00:00 21.04 C 11.68 g/m*3 21.04 C 0 km/h
1203 22-08-2010 02:00:00 20.14 C 11.88 g/m*3 20.14 C 0 km/h
1204 22-08-2010 03:00:00 19.52 C 12.1 g/m*3 19.52 C 0 km/h
1205 22-08-2010 04:00:00 19.16 C 12.11 g/m*3 19.16 C 0 km/h
1206 22-08-2010 05:00:00 18.54 C 12.08 g/m*3 18.54 C 0 km/h
1207 22-08-2010 06:00:00 18 C 12.01 g/m*3 18 C 0 km/h
1208 22-08-2010 07:00:00 18.3 C 12.2 g/m*3 18.3 C 0 km/h
1209 22-08-2010 08:00:00 18.96 C 12.62 g/m*3 18.96 C 0 km/h
1210 22-08-2010 09:00:00 20.32 C 12.64 g/m*3 20.32 C 0 km/h
1211 22-08-2010 10:00:00 23.1 C 12.69 g/m*3 23.1 C 0 km/h
1212 22-08-2010 11:00:00 24.88 C 12.71 g/m*3 24.88 C 0 km/h
1213 22-08-2010 12:00:00 27.46 C 11.67 g/m*3 27.46 C 0 km/h
1214 22-08-2010 13:00:00 28.44 C 10.53 g/m*3 28.44 C 0 km/h
1215 22-08-2010 14:00:00 28.74 C 10.48 g/m*3 28.74 C 0 km/h
1216 22-08-2010 15:00:00 25.76 C 12.2 g/m*3 25.76 C 0 km/h
1217 22-08-2010 16:00:00 27.8 C 11.89 g/m*3 27.8 C 0 km/h
1218 22-08-2010 17:00:00 26.68 C 11.88 g/m*3 26.68 C 0 km/h
1219 22-08-2010 18:00:00 26.28 C 11.72 g/m*3 26.28 C 0 km/h
1220 22-08-2010 19:00:00 25.52 C 11.57 g/m*3 25.52 C 0 km/h
1221 22-08-2010 20:00:00 24.42 C 10.65 g/m*3 24.42 C 0 km/h
1222 22-08-2010 21:00:00 23.16 C 11.49 g/m*3 23.16 C 0 km/h
1223 22-08-2010 22:00:00 22.66 C 11.69 g/m*3 22.66 C 0 km/h
1224 22-08-2010 23:00:00 21.52 C 11.89 g/m*3 21.52 C 0 km/h
1225 23-08-2010 00:00:00 20.88 C 12.01 g/m*3 20.88 C 0 km/h
Sensor: Nr:Datum:Temp:Abs-Feuchte:Windchill:Wind:
Aussen-T/F 1226 23-08-2010 01:00:00 20.38 C 12.16 g/m*3 20.38 C 0 km/h
1227 23-08-2010 02:00:00 20.02 C 12.32 g/m*3 20.02 C 0 km/h
1228 23-08-2010 03:00:00 19.82 C 12.31 g/m*3 19.82 C 0 km/h
1229 23-08-2010 04:00:00 19.52 C 12.33 g/m*3 19.52 C 0 km/h
1230 23-08-2010 05:00:00 19.44 C 12.21 g/m*3 19.44 C 0 km/h
1231 23-08-2010 06:00:00 19.48 C 12.34 g/m*3 19.48 C 0 km/h
1232 23-08-2010 07:00:00 19.92 C 12.49 g/m*3 19.92 C 0 km/h
1233 23-08-2010 08:00:00 19.74 C 13.31 g/m*3 19.74 C 0 km/h
1234 23-08-2010 09:00:00 19.44 C 14.52 g/m*3 19.44 C 0 km/h
1235 23-08-2010 10:00:00 20.64 C 15.07 g/m*3 20.64 C 0 km/h
1236 23-08-2010 11:00:00 22.26 C 14.78 g/m*3 22.26 C 0 km/h
1237 23-08-2010 12:00:00 23.08 C 15.61 g/m*3 23.08 C 0 km/h
1238 23-08-2010 13:00:00 23.68 C 14.36 g/m*3 23.68 C 0 km/h
1239 23-08-2010 14:00:00 24.34 C 14.28 g/m*3 24.34 C 0 km/h
1240 23-08-2010 15:00:00 25.86 C 12.32 g/m*3 25.86 C 0 km/h
1241 23-08-2010 16:00:00 25.94 C 11.4 g/m*3 25.94 C 0 km/h
1242 23-08-2010 17:00:00 23.58 C 11.98 g/m*3 23.58 C 0 km/h
1243 23-08-2010 18:00:00 21.12 C 13.76 g/m*3 21.12 C 0 km/h
1244 23-08-2010 19:00:00 20.76 C 13.77 g/m*3 20.76 C 0 km/h
1245 23-08-2010 20:00:00 20.34 C 12.94 g/m*3 20.34 C 0 km/h
1246 23-08-2010 21:00:00 19.8 C 12.61 g/m*3 19.8 C 0 km/h
1247 23-08-2010 22:00:00 19.58 C 12.24 g/m*3 19.58 C 0 km/h
1248 23-08-2010 23:00:00 19.3 C 11.94 g/m*3 19.3 C 0 km/h
1249 24-08-2010 00:00:00 19.18 C 12.09 g/m*3 19.18 C 0 km/h
1250 24-08-2010 01:00:00 19.2 C 12.43 g/m*3 19.2 C 0 km/h
Sensor: Nr:Datum:Temp:Abs-Feuchte:Windchill:Wind:
Aussen-T/F 1251 24-08-2010 02:00:00 19.68 C 12.28 g/m*3 19.68 C 0 km/h
1252 24-08-2010 03:00:00 18.34 C 11.85 g/m*3 18.34 C 0 km/h
1253 24-08-2010 04:00:00 18.06 C 9.53 g/m*3 18.06 C 0 km/h
1254 24-08-2010 05:00:00 17.24 C 9.51 g/m*3 17.24 C 0 km/h
1255 24-08-2010 06:00:00 17.08 C 9.48 g/m*3 17.08 C 0 km/h
1256 24-08-2010 07:00:00 16.44 C 9.23 g/m*3 16.44 C 0 km/h
1257 24-08-2010 08:00:00 16.16 C 8.45 g/m*3 16.16 C 0 km/h
1258 24-08-2010 09:00:00 16.76 C 7.3 g/m*3 16.76 C 0 km/h
1259 24-08-2010 10:00:00 17.88 C 7.23 g/m*3 17.88 C 0 km/h
1260 24-08-2010 11:00:00 19.08 C 6.88 g/m*3 19.08 C 0 km/h
1261 24-08-2010 12:00:00 20.04 C 6.34 g/m*3 20.04 C 0 km/h
1262 24-08-2010 13:00:00 21 C 5.94 g/m*3 21 C 0 km/h
1263 24-08-2010 14:00:00 21.46 C 5.49 g/m*3 21.46 C 0 km/h
1264 24-08-2010 15:00:00 21.82 C 5.11 g/m*3 21.82 C 0 km/h
1265 24-08-2010 16:00:00 23.04 C 4.61 g/m*3 23.04 C 0 km/h
1266 24-08-2010 17:00:00 23.22 C 4.7 g/m*3 23.22 C 0 km/h
1267 24-08-2010 18:00:00 22.92 C 5.11 g/m*3 22.92 C 0 km/h
1268 24-08-2010 19:00:00 21.68 C 5.18 g/m*3 21.68 C 0 km/h
1269 24-08-2010 20:00:00 19.76 C 5.79 g/m*3 19.76 C 0 km/h
1270 24-08-2010 21:00:00 18.28 C 6.12 g/m*3 18.28 C 0 km/h
1271 24-08-2010 22:00:00 17.4 C 6.28 g/m*3 17.4 C 0 km/h
1272 24-08-2010 23:00:00 16.78 C 6.43 g/m*3 16.78 C 0 km/h
1273 25-08-2010 00:00:00 16.16 C 6.55 g/m*3 16.16 C 0 km/h
1274 25-08-2010 01:00:00 15.52 C 6.8 g/m*3 15.52 C 0 km/h
1275 25-08-2010 02:00:00 14.66 C 7.11 g/m*3 14.66 C 0 km/h
Sensor: Nr:Datum:Temp:Abs-Feuchte:Windchill:Wind:
Aussen-T/F 1276 25-08-2010 03:00:00 13.76 C 7.56 g/m*3 13.76 C 0 km/h
1277 25-08-2010 04:00:00 13.4 C 7.7 g/m*3 13.4 C 0 km/h
1278 25-08-2010 05:00:00 13.38 C 7.52 g/m*3 13.38 C 0 km/h
1279 25-08-2010 06:00:00 12.94 C 7.71 g/m*3 12.94 C 0 km/h
1280 25-08-2010 07:00:00 12.76 C 7.84 g/m*3 12.76 C 0 km/h
1281 25-08-2010 08:00:00 13.54 C 7.86 g/m*3 13.54 C 0 km/h
1282 25-08-2010 09:00:00 14.92 C 7.91 g/m*3 14.92 C 0 km/h
1283 25-08-2010 10:00:00 16.3 C 7.8 g/m*3 16.3 C 0 km/h
1284 25-08-2010 11:00:00 17.9 C 7.82 g/m*3 17.9 C 0 km/h
1285 25-08-2010 12:00:00 20 C 7.19 g/m*3 20 C 0 km/h
1286 25-08-2010 13:00:00 20.82 C 6.67 g/m*3 20.82 C 0 km/h
1287 25-08-2010 14:00:00 21.46 C 6.43 g/m*3 21.46 C 0 km/h
1288 25-08-2010 15:00:00 23.54 C 6.1 g/m*3 23.54 C 0 km/h
1289 25-08-2010 16:00:00 24.46 C 5.67 g/m*3 24.46 C 0 km/h
1290 25-08-2010 17:00:00 23.2 C 6.65 g/m*3 23.2 C 0 km/h
1291 25-08-2010 18:00:00 21.9 C 7.1 g/m*3 21.9 C 0 km/h
1292 25-08-2010 19:00:00 20.22 C 7.91 g/m*3 20.22 C 0 km/h
1293 25-08-2010 20:00:00 19.04 C 8.23 g/m*3 19.04 C 0 km/h
1294 25-08-2010 21:00:00 18.12 C 8.35 g/m*3 18.12 C 0 km/h
1295 25-08-2010 22:00:00 17.56 C 8.5 g/m*3 17.56 C 0 km/h
1296 25-08-2010 23:00:00 17.3 C 8.81 g/m*3 17.3 C 0 km/h
1297 26-08-2010 00:00:00 17.28 C 9.06 g/m*3 17.28 C 0 km/h
1298 26-08-2010 01:00:00 17.48 C 9.11 g/m*3 17.48 C 0 km/h
1299 26-08-2010 02:00:00 16.88 C 9.97 g/m*3 16.88 C 0 km/h
1300 26-08-2010 03:00:00 16.86 C 10.04 g/m*3 16.86 C 0 km/h
Sensor: Nr:Datum:Temp:Abs-Feuchte:Windchill:Wind:
Aussen-T/F 1301 26-08-2010 04:00:00 16.94 C 9.86 g/m*3 16.94 C 0 km/h
1302 26-08-2010 05:00:00 18.28 C 10.31 g/m*3 18.28 C 0 km/h
1303 26-08-2010 06:00:00 18.18 C 10.53 g/m*3 18.18 C 0 km/h
1304 26-08-2010 07:00:00 19.26 C 10.69 g/m*3 19.26 C 0 km/h
1305 26-08-2010 08:00:00 20.2 C 11.12 g/m*3 20.2 C 0 km/h
1306 26-08-2010 09:00:00 21.52 C 11.33 g/m*3 21.52 C 0 km/h
1307 26-08-2010 10:00:00 22.76 C 11.19 g/m*3 22.76 C 0 km/h
1308 26-08-2010 11:00:00 23.76 C 11.16 g/m*3 23.76 C 0 km/h
1309 26-08-2010 12:00:00 23.54 C 11.15 g/m*3 23.54 C 0 km/h
1310 26-08-2010 13:00:00 22.96 C 11.2 g/m*3 22.96 C 0 km/h
1311 26-08-2010 14:00:00 23.8 C 11.19 g/m*3 23.8 C 0 km/h
1312 26-08-2010 15:00:00 23.68 C 11.32 g/m*3 23.68 C 0 km/h
1313 26-08-2010 16:00:00 23.94 C 11.28 g/m*3 23.94 C 0 km/h
1314 26-08-2010 17:00:00 23.62 C 11.29 g/m*3 23.62 C 0 km/h
1315 26-08-2010 18:00:00 23.18 C 11.67 g/m*3 23.18 C 0 km/h
1316 26-08-2010 19:00:00 21.66 C 13.36 g/m*3 21.66 C 0 km/h
1317 26-08-2010 20:00:00 20.94 C 14.49 g/m*3 20.94 C 0 km/h
1318 26-08-2010 21:00:00 20.42 C 14.03 g/m*3 20.42 C 0 km/h
1319 26-08-2010 22:00:00 19.76 C 14.62 g/m*3 19.76 C 0 km/h
1320 26-08-2010 23:00:00 19.44 C 14.95 g/m*3 19.44 C 0 km/h
1321 27-08-2010 00:00:00 18.98 C 14.91 g/m*3 18.98 C 0 km/h
1322 27-08-2010 01:00:00 18.76 C 14.97 g/m*3 18.76 C 0 km/h
1323 27-08-2010 02:00:00 18.62 C 14.98 g/m*3 18.62 C 0 km/h
1324 27-08-2010 03:00:00 18.38 C 14.77 g/m*3 18.38 C 0 km/h
1325 27-08-2010 04:00:00 18.34 C 14.73 g/m*3 18.34 C 0 km/h
Sensor: Nr:Datum:Temp:Abs-Feuchte:Windchill:Wind:
Aussen-T/F 1326 27-08-2010 05:00:00 18.4 C 14.88 g/m*3 18.4 C 0 km/h
1327 27-08-2010 06:00:00 18.82 C 15.32 g/m*3 18.82 C 0 km/h
1328 27-08-2010 07:00:00 18.68 C 15.03 g/m*3 18.68 C 0 km/h
1329 27-08-2010 08:00:00 18.58 C 14.94 g/m*3 18.58 C 0 km/h
1330 27-08-2010 09:00:00 19.26 C 15.06 g/m*3 19.26 C 0 km/h
1331 27-08-2010 10:00:00 19.32 C 14.35 g/m*3 19.32 C 0 km/h
1332 27-08-2010 11:00:00 18.16 C 13.58 g/m*3 18.16 C 0 km/h
1333 27-08-2010 12:00:00 20.1 C 13.52 g/m*3 20.1 C 0 km/h
1334 27-08-2010 13:00:00 22.92 C 12.6 g/m*3 22.92 C 0 km/h
1335 27-08-2010 14:00:00 20.76 C 12.07 g/m*3 20.76 C 0 km/h
1336 27-08-2010 15:00:00 18.92 C 13.49 g/m*3 18.92 C 0 km/h
1337 27-08-2010 16:00:00 21.9 C 12.89 g/m*3 21.9 C 0 km/h
1338 27-08-2010 17:00:00 21.3 C 11.71 g/m*3 21.3 C 0 km/h
1339 27-08-2010 18:00:00 16.8 C 12.01 g/m*3 16.8 C 0 km/h
1340 27-08-2010 19:00:00 15.64 C 10.93 g/m*3 15.64 C 0 km/h
1341 27-08-2010 20:00:00 15.12 C 10.44 g/m*3 15.12 C 0 km/h
1342 27-08-2010 21:00:00 14.58 C 10.17 g/m*3 14.58 C 0 km/h
1343 27-08-2010 22:00:00 14.74 C 10.02 g/m*3 14.74 C 0 km/h
1344 27-08-2010 23:00:00 13.96 C 9.34 g/m*3 13.96 C 0 km/h
1345 28-08-2010 00:00:00 13.78 C 9.21 g/m*3 13.78 C 0 km/h
1346 28-08-2010 01:00:00 13.1 C 9.88 g/m*3 13.1 C 0 km/h
1347 28-08-2010 02:00:00 13.14 C 9.82 g/m*3 13.14 C 0 km/h
1348 28-08-2010 03:00:00 13.1 C 9.56 g/m*3 13.1 C 0 km/h
1349 28-08-2010 04:00:00 12.54 C 9.3 g/m*3 12.54 C 0 km/h
1350 28-08-2010 05:00:00 12.12 C 9.15 g/m*3 12.12 C 0 km/h
Sensor: Nr:Datum:Temp:Abs-Feuchte:Windchill:Wind:
Aussen-T/F 1351 28-08-2010 06:00:00 11.58 C 8.76 g/m*3 11.58 C 0 km/h
1352 28-08-2010 07:00:00 11.72 C 8.88 g/m*3 11.72 C 0 km/h
1353 28-08-2010 08:00:00 13.08 C 8.94 g/m*3 13.08 C 0 km/h
1354 28-08-2010 09:00:00 14.22 C 8.58 g/m*3 14.22 C 0 km/h
1355 28-08-2010 10:00:00 15.14 C 8.35 g/m*3 15.14 C 0 km/h
1356 28-08-2010 11:00:00 16.44 C 7.81 g/m*3 16.44 C 0 km/h
1357 28-08-2010 12:00:00 15.42 C 8.71 g/m*3 15.42 C 0 km/h
1358 28-08-2010 13:00:00 16.24 C 10.62 g/m*3 16.24 C 0 km/h
1359 28-08-2010 14:00:00 15.6 C 7.69 g/m*3 15.6 C 0 km/h
1360 28-08-2010 15:00:00 16.72 C 7.46 g/m*3 16.72 C 0 km/h
1361 28-08-2010 16:00:00 15.1 C 8.08 g/m*3 15.1 C 0 km/h
1362 28-08-2010 17:00:00 15.6 C 8.67 g/m*3 15.6 C 0 km/h
1363 28-08-2010 18:00:00 17.56 C 7.42 g/m*3 17.56 C 0 km/h
1364 28-08-2010 19:00:00 15.26 C 8.34 g/m*3 15.26 C 0 km/h
1365 28-08-2010 20:00:00 13.1 C 9.04 g/m*3 13.1 C 0 km/h
1366 28-08-2010 21:00:00 12.46 C 9.12 g/m*3 12.46 C 0 km/h
1367 28-08-2010 22:00:00 12.24 C 8.96 g/m*3 12.24 C 0 km/h
1368 28-08-2010 23:00:00 12.36 C 8.72 g/m*3 12.36 C 0 km/h
1369 29-08-2010 00:00:00 11.9 C 8.47 g/m*3 11.9 C 0 km/h
1370 29-08-2010 01:00:00 11.5 C 8.45 g/m*3 11.5 C 0 km/h
1371 29-08-2010 02:00:00 11.74 C 8.54 g/m*3 11.74 C 0 km/h
1372 29-08-2010 03:00:00 11.76 C 8.48 g/m*3 11.76 C 0 km/h
1373 29-08-2010 04:00:00 11.5 C 8.39 g/m*3 11.5 C 0 km/h
1374 29-08-2010 05:00:00 11.74 C 8.33 g/m*3 11.74 C 0 km/h
1375 29-08-2010 06:00:00 12.1 C 8.3 g/m*3 12.1 C 0 km/h
Sensor: Nr:Datum:Temp:Abs-Feuchte:Windchill:Wind:
Aussen-T/F 1376 29-08-2010 07:00:00 12.2 C 8.33 g/m*3 12.2 C 0 km/h
1377 29-08-2010 08:00:00 12.44 C 8.35 g/m*3 12.44 C 0 km/h
1378 29-08-2010 09:00:00 14 C 8.18 g/m*3 14 C 0 km/h
1379 29-08-2010 10:00:00 15.4 C 8.04 g/m*3 15.4 C 0 km/h
1380 29-08-2010 11:00:00 16.26 C 7.92 g/m*3 16.26 C 0 km/h
1381 29-08-2010 12:00:00 15.12 C 9.04 g/m*3 15.12 C 0 km/h
1382 29-08-2010 13:00:00 16.04 C 8.71 g/m*3 16.04 C 0 km/h
1383 29-08-2010 14:00:00 16.46 C 8.4 g/m*3 16.46 C 0 km/h
1384 29-08-2010 15:00:00 15.08 C 8.92 g/m*3 15.08 C 0 km/h
1385 29-08-2010 16:00:00 15.76 C 8.51 g/m*3 15.76 C 0 km/h
1386 29-08-2010 17:00:00 14.96 C 8.31 g/m*3 14.96 C 0 km/h
1387 29-08-2010 18:00:00 13.06 C 9.31 g/m*3 13.06 C 0 km/h
1388 29-08-2010 19:00:00 12 C 9.29 g/m*3 12 C 0 km/h
1389 29-08-2010 20:00:00 11.78 C 8.96 g/m*3 11.78 C 0 km/h
1390 29-08-2010 21:00:00 11.64 C 8.71 g/m*3 11.64 C 0 km/h
1391 29-08-2010 22:00:00 9.2 C 8.02 g/m*3 9.2 C 0 km/h
1392 29-08-2010 23:00:00 9.12 C 8.16 g/m*3 9.12 C 0 km/h
1393 30-08-2010 00:00:00 9.2 C 7.98 g/m*3 9.2 C 0 km/h
1394 30-08-2010 01:00:00 9.94 C 7.84 g/m*3 9.94 C 0 km/h
1395 30-08-2010 02:00:00 10.52 C 7.77 g/m*3 10.52 C 0 km/h
1396 30-08-2010 03:00:00 10.82 C 7.66 g/m*3 10.82 C 0 km/h
1397 30-08-2010 04:00:00 10.26 C 7.99 g/m*3 10.26 C 0 km/h
1398 30-08-2010 05:00:00 9.62 C 8.02 g/m*3 9.62 C 0 km/h
1399 30-08-2010 06:00:00 10.06 C 8.47 g/m*3 10.06 C 0 km/h
1400 30-08-2010 07:00:00 9.96 C 8.4 g/m*3 9.96 C 0 km/h
Sensor: Nr:Datum:Temp:Abs-Feuchte:Windchill:Wind:
Aussen-T/F 1401 30-08-2010 08:00:00 10.82 C 8.63 g/m*3 10.82 C 0 km/h
1402 30-08-2010 09:00:00 10.98 C 8.64 g/m*3 10.98 C 0 km/h
1403 30-08-2010 10:00:00 11.86 C 8.83 g/m*3 11.86 C 0 km/h
1404 30-08-2010 11:00:00 13 C 8.32 g/m*3 13 C 0 km/h
1405 30-08-2010 12:00:00 14.02 C 7.63 g/m*3 14.02 C 0 km/h
1406 30-08-2010 13:00:00 16.04 C 6.77 g/m*3 16.04 C 0 km/h
1407 30-08-2010 14:00:00 16.28 C 7.73 g/m*3 16.28 C 0 km/h
1408 30-08-2010 15:00:00 17.48 C 7.8 g/m*3 17.48 C 0 km/h
1409 30-08-2010 16:00:00 15.86 C 9.16 g/m*3 15.86 C 0 km/h
1410 30-08-2010 17:00:00 15.04 C 9.23 g/m*3 15.04 C 0 km/h
1411 30-08-2010 18:00:00 14.32 C 8.76 g/m*3 14.32 C 0 km/h
1412 30-08-2010 19:00:00 14.04 C 8.97 g/m*3 14.04 C 0 km/h
1413 30-08-2010 20:00:00 13.76 C 8.72 g/m*3 13.76 C 0 km/h
1414 30-08-2010 21:00:00 12.72 C 9.56 g/m*3 12.72 C 0 km/h
1415 30-08-2010 22:00:00 12.72 C 9.92 g/m*3 12.72 C 0 km/h
1416 30-08-2010 23:00:00 12.3 C 9.69 g/m*3 12.3 C 0 km/h
1417 31-08-2010 00:00:00 12.22 C 9.62 g/m*3 12.22 C 0 km/h
1418 31-08-2010 01:00:00 12.42 C 9.45 g/m*3 12.42 C 0 km/h
1419 31-08-2010 02:00:00 12.36 C 9.31 g/m*3 12.36 C 0 km/h
1420 31-08-2010 03:00:00 12.1 C 9.07 g/m*3 12.1 C 0 km/h
1421 31-08-2010 04:00:00 11.52 C 9.06 g/m*3 11.52 C 0 km/h
1422 31-08-2010 05:00:00 11.38 C 9.04 g/m*3 11.38 C 0 km/h
1423 31-08-2010 06:00:00 11.7 C 9.22 g/m*3 11.7 C 0 km/h
1424 31-08-2010 07:00:00 12.2 C 9.09 g/m*3 12.2 C 0 km/h
1425 31-08-2010 08:00:00 12.64 C 9.07 g/m*3 12.64 C 0 km/h
Sensor: Nr:Datum:Temp:Abs-Feuchte:Windchill:Wind:
Aussen-T/F 1426 31-08-2010 09:00:00 13.58 C 8.86 g/m*3 13.58 C 0 km/h
1427 31-08-2010 10:00:00 14.14 C 8.35 g/m*3 14.14 C 0 km/h
1428 31-08-2010 11:00:00 15.6 C 8.09 g/m*3 15.6 C 0 km/h
1429 31-08-2010 12:00:00 16.88 C 7.93 g/m*3 16.88 C 0 km/h
1430 31-08-2010 13:00:00 17.96 C 6.99 g/m*3 17.96 C 0 km/h
1431 31-08-2010 14:00:00 20.16 C 6.45 g/m*3 20.16 C 0 km/h
1432 31-08-2010 15:00:00 21.2 C 5.86 g/m*3 21.2 C 0 km/h
1433 31-08-2010 16:00:00 21.46 C 5.64 g/m*3 21.46 C 0 km/h
1434 31-08-2010 17:00:00 21.82 C 5.57 g/m*3 21.82 C 0 km/h
1435 31-08-2010 18:00:00 22.26 C 5.67 g/m*3 22.26 C 0 km/h
1436 31-08-2010 19:00:00 20.32 C 6.55 g/m*3 20.32 C 0 km/h
1437 31-08-2010 20:00:00 16.38 C 7.17 g/m*3 16.38 C 0 km/h
1438 31-08-2010 21:00:00 14.44 C 7.61 g/m*3 14.44 C 0 km/h
1439 31-08-2010 22:00:00 13.24 C 8.1 g/m*3 13.24 C 0 km/h
1440 31-08-2010 23:00:00 12.32 C 8.09 g/m*3 12.32 C 0 km/h
1441 01-09-2010 00:00:00 11.58 C 8.08 g/m*3 11.58 C 0 km/h
1442 01-09-2010 01:00:00 10.98 C 8.1 g/m*3 10.98 C 0 km/h
1443 01-09-2010 02:00:00 10.36 C 7.96 g/m*3 10.36 C 0 km/h
1444 01-09-2010 03:00:00 9.74 C 7.97 g/m*3 9.74 C 0 km/h
1445 01-09-2010 04:00:00 9.14 C 7.86 g/m*3 9.14 C 0 km/h
1446 01-09-2010 05:00:00 8.92 C 7.95 g/m*3 8.92 C 0 km/h
1447 01-09-2010 06:00:00 8.94 C 8.04 g/m*3 8.94 C 0 km/h
1448 01-09-2010 07:00:00 9.02 C 7.98 g/m*3 9.02 C 0 km/h
1449 01-09-2010 08:00:00 9.26 C 8.05 g/m*3 9.26 C 0 km/h
1450 01-09-2010 09:00:00 10.22 C 8.14 g/m*3 10.22 C 0 km/h
Sensor: Nr:Datum:Temp:Abs-Feuchte:Windchill:Wind:
Aussen-T/F 1451 01-09-2010 10:00:00 12.1 C 8.56 g/m*3 12.1 C 0 km/h
1452 01-09-2010 11:00:00 14.26 C 8.78 g/m*3 14.26 C 0 km/h
1453 01-09-2010 12:00:00 17.24 C 8.54 g/m*3 17.24 C 0 km/h
1454 01-09-2010 13:00:00 19.52 C 7.96 g/m*3 19.52 C 0 km/h
1455 01-09-2010 14:00:00 21.18 C 7.03 g/m*3 21.18 C 0 km/h
1456 01-09-2010 15:00:00 23.6 C 6 g/m*3 23.6 C 0 km/h
1457 01-09-2010 16:00:00 23.8 C 6.02 g/m*3 23.8 C 0 km/h
1458 01-09-2010 17:00:00 22.04 C 6.38 g/m*3 22.04 C 0 km/h
1459 01-09-2010 18:00:00 21.1 C 6.96 g/m*3 21.1 C 0 km/h
1460 01-09-2010 19:00:00 19.62 C 7.88 g/m*3 19.62 C 0 km/h
1461 01-09-2010 20:00:00 17.36 C 8.72 g/m*3 17.36 C 0 km/h
1462 01-09-2010 21:00:00 16.24 C 8.85 g/m*3 16.24 C 0 km/h
1463 01-09-2010 22:00:00 15.55 C 8.82 g/m*3 15.55 C 0 km/h
1464 01-09-2010 23:00:00 14.16 C 8.28 g/m*3 14.16 C 0 km/h
1465 02-09-2010 00:00:00 13.02 C 8.22 g/m*3 13.02 C 0 km/h
1466 02-09-2010 01:00:00 12.32 C 8.37 g/m*3 12.32 C 0 km/h
1467 02-09-2010 02:00:00 11.6 C 8.56 g/m*3 11.6 C 0 km/h
1468 02-09-2010 03:00:00 11 C 8.31 g/m*3 11 C 0 km/h
1469 02-09-2010 04:00:00 10.44 C 8.29 g/m*3 10.44 C 0 km/h
1470 02-09-2010 05:00:00 10.32 C 8.5 g/m*3 10.32 C 0 km/h
1471 02-09-2010 06:00:00 10.34 C 8.6 g/m*3 10.34 C 0 km/h
1472 02-09-2010 07:00:00 10.68 C 8.81 g/m*3 10.68 C 0 km/h
1473 02-09-2010 08:00:00 11.34 C 8.96 g/m*3 11.34 C 0 km/h
1474 02-09-2010 09:00:00 12.4 C 8.98 g/m*3 12.4 C 0 km/h
1475 02-09-2010 10:00:00 14.02 C 8.65 g/m*3 14.02 C 0 km/h
Sensor: Nr:Datum:Temp:Abs-Feuchte:Windchill:Wind:
Aussen-T/F 1476 02-09-2010 11:00:00 15.46 C 9.02 g/m*3 15.46 C 0 km/h
1477 02-09-2010 12:00:00 18.66 C 8.75 g/m*3 18.66 C 0 km/h
1478 02-09-2010 13:00:00 20.84 C 7.37 g/m*3 20.84 C 0 km/h
1479 02-09-2010 14:00:00 22.2 C 7.22 g/m*3 22.2 C 0 km/h
1480 02-09-2010 15:00:00 21.42 C 6.91 g/m*3 21.42 C 0 km/h
1481 02-09-2010 16:00:00 20.6 C 6.91 g/m*3 20.6 C 0 km/h
1482 02-09-2010 17:00:00 19.54 C 7.13 g/m*3 19.54 C 0 km/h
1483 02-09-2010 18:00:00 18.66 C 7.41 g/m*3 18.66 C 0 km/h
1484 02-09-2010 19:00:00 17.64 C 8.93 g/m*3 17.64 C 0 km/h
1485 02-09-2010 20:00:00 15.14 C 10.01 g/m*3 15.14 C 0 km/h
1486 02-09-2010 21:00:00 14.42 C 9.85 g/m*3 14.42 C 0 km/h
1487 02-09-2010 22:00:00 13.84 C 9.34 g/m*3 13.84 C 0 km/h
1488 02-09-2010 23:00:00 12.98 C 9.2 g/m*3 12.98 C 0 km/h
1489 03-09-2010 00:00:00 12.42 C 9.1 g/m*3 12.42 C 0 km/h
1490 03-09-2010 01:00:00 11.82 C 8.92 g/m*3 11.82 C 0 km/h
1491 03-09-2010 02:00:00 11.24 C 8.76 g/m*3 11.24 C 0 km/h
1492 03-09-2010 03:00:00 10.72 C 8.63 g/m*3 10.72 C 0 km/h
1493 03-09-2010 04:00:00 10.34 C 8.6 g/m*3 10.34 C 0 km/h
1494 03-09-2010 05:00:00 10.4 C 8.75 g/m*3 10.4 C 0 km/h
1495 03-09-2010 06:00:00 11.08 C 9.24 g/m*3 11.08 C 0 km/h
1496 03-09-2010 07:00:00 11.36 C 9.32 g/m*3 11.36 C 0 km/h
1497 03-09-2010 08:00:00 11.64 C 9.34 g/m*3 11.64 C 0 km/h
1498 03-09-2010 09:00:00 12.44 C 9.29 g/m*3 12.44 C 0 km/h
1499 03-09-2010 10:00:00 13.58 C 9.22 g/m*3 13.58 C 0 km/h
1500 03-09-2010 11:00:00 15.9 C 8.94 g/m*3 15.9 C 0 km/h
Sensor: Nr:Datum:Temp:Abs-Feuchte:Windchill:Wind:
Aussen-T/F 1501 03-09-2010 12:00:00 17.86 C 8.47 g/m*3 17.86 C 0 km/h
1502 03-09-2010 13:00:00 19.68 C 8.18 g/m*3 19.68 C 0 km/h
1503 03-09-2010 14:00:00 20.4 C 7.64 g/m*3 20.4 C 0 km/h
1504 03-09-2010 15:00:00 22.78 C 7.02 g/m*3 22.78 C 0 km/h
1505 03-09-2010 16:00:00 25.12 C 6.58 g/m*3 25.12 C 0 km/h
1506 03-09-2010 17:00:00 24.12 C 6.53 g/m*3 24.12 C 0 km/h
1507 03-09-2010 18:00:00 22.7 C 8.12 g/m*3 22.7 C 0 km/h
1508 03-09-2010 19:00:00 20.7 C 8.86 g/m*3 20.7 C 0 km/h
1509 03-09-2010 20:00:00 18.62 C 8.25 g/m*3 18.62 C 0 km/h
1510 03-09-2010 21:00:00 16.32 C 8.56 g/m*3 16.32 C 0 km/h
1511 03-09-2010 22:00:00 15.36 C 8.86 g/m*3 15.36 C 0 km/h
1512 03-09-2010 23:00:00 15.34 C 9.22 g/m*3 15.34 C 0 km/h
1513 04-09-2010 00:00:00 15.1 C 9.29 g/m*3 15.1 C 0 km/h
1514 04-09-2010 01:00:00 14.82 C 9.41 g/m*3 14.82 C 0 km/h
1515 04-09-2010 02:00:00 14.28 C 9.4 g/m*3 14.28 C 0 km/h
1516 04-09-2010 03:00:00 13.72 C 9.41 g/m*3 13.72 C 0 km/h
1517 04-09-2010 04:00:00 13.2 C 9.48 g/m*3 13.2 C 0 km/h
1518 04-09-2010 05:00:00 13.1 C 9.59 g/m*3 13.1 C 0 km/h
1519 04-09-2010 06:00:00 12.54 C 9.3 g/m*3 12.54 C 0 km/h
1520 04-09-2010 07:00:00 12.08 C 9.25 g/m*3 12.08 C 0 km/h
1521 04-09-2010 08:00:00 12.8 C 9.77 g/m*3 12.8 C 0 km/h
1522 04-09-2010 09:00:00 14.44 C 9.96 g/m*3 14.44 C 0 km/h
1523 04-09-2010 10:00:00 16.3 C 9.49 g/m*3 16.3 C 0 km/h
1524 04-09-2010 11:00:00 18.88 C 8.77 g/m*3 18.88 C 0 km/h
1525 04-09-2010 12:00:00 18.86 C 7.89 g/m*3 18.86 C 0 km/h
Sensor: Nr:Datum:Temp:Abs-Feuchte:Windchill:Wind:
Aussen-T/F 1526 04-09-2010 13:00:00 19.58 C 7.62 g/m*3 19.58 C 0 km/h
1527 04-09-2010 14:00:00 22.2 C 6.71 g/m*3 22.2 C 0 km/h
1528 04-09-2010 15:00:00 22.88 C 6.29 g/m*3 22.88 C 0 km/h
1529 04-09-2010 16:00:00 22.42 C 5.53 g/m*3 22.42 C 0 km/h
1530 04-09-2010 17:00:00 23.12 C 4.88 g/m*3 23.12 C 0 km/h
1531 04-09-2010 18:00:00 22.74 C 4.37 g/m*3 22.74 C 0 km/h
1532 04-09-2010 19:00:00 19.74 C 5.55 g/m*3 19.74 C 0 km/h
1533 04-09-2010 20:00:00 16.14 C 6.54 g/m*3 16.14 C 0 km/h
1534 04-09-2010 21:00:00 14.92 C 6.94 g/m*3 14.92 C 0 km/h
1535 04-09-2010 22:00:00 14.16 C 7.26 g/m*3 14.16 C 0 km/h
1536 04-09-2010 23:00:00 13.12 C 7.59 g/m*3 13.12 C 0 km/h
1537 05-09-2010 00:00:00 12.16 C 7.62 g/m*3 12.16 C 0 km/h
1538 05-09-2010 01:00:00 11.22 C 7.53 g/m*3 11.22 C 0 km/h
1539 05-09-2010 02:00:00 10.44 C 7.52 g/m*3 10.44 C 0 km/h
1540 05-09-2010 03:00:00 9.72 C 7.4 g/m*3 9.72 C 0 km/h
1541 05-09-2010 04:00:00 9.12 C 7.27 g/m*3 9.12 C 0 km/h
1542 05-09-2010 05:00:00 8.64 C 7.27 g/m*3 8.64 C 0 km/h
1543 05-09-2010 06:00:00 8.08 C 7.25 g/m*3 8.08 C 0 km/h
1544 05-09-2010 07:00:00 8.4 C 7.52 g/m*3 8.4 C 0 km/h
1545 05-09-2010 08:00:00 9.82 C 7.91 g/m*3 9.82 C 0 km/h
1546 05-09-2010 09:00:00 11.1 C 7.88 g/m*3 11.1 C 0 km/h
1547 05-09-2010 10:00:00 12.36 C 8.44 g/m*3 12.36 C 0 km/h
1548 05-09-2010 11:00:00 15.42 C 8.16 g/m*3 15.42 C 0 km/h
1549 05-09-2010 12:00:00 18.02 C 6.52 g/m*3 18.02 C 0 km/h
1550 05-09-2010 13:00:00 20.14 C 5.92 g/m*3 20.14 C 0 km/h
Sensor: Nr:Datum:Temp:Abs-Feuchte:Windchill:Wind:
Aussen-T/F 1551 05-09-2010 14:00:00 23.5 C 5.2 g/m*3 23.5 C 0 km/h
1552 05-09-2010 15:00:00 24.16 C 4.83 g/m*3 24.16 C 0 km/h
1553 05-09-2010 16:00:00 24.4 C 4.67 g/m*3 24.4 C 0 km/h
1554 05-09-2010 17:00:00 24.6 C 5.04 g/m*3 24.6 C 0 km/h
1555 05-09-2010 18:00:00 24.84 C 5.29 g/m*3 24.84 C 0 km/h
1556 05-09-2010 19:00:00 19.38 C 6.4 g/m*3 19.38 C 0 km/h
1557 05-09-2010 20:00:00 16.44 C 6.38 g/m*3 16.44 C 0 km/h
1558 05-09-2010 21:00:00 14.9 C 6.81 g/m*3 14.9 C 0 km/h
1559 05-09-2010 22:00:00 14.12 C 7.1 g/m*3 14.12 C 0 km/h
1560 05-09-2010 23:00:00 13.94 C 6.92 g/m*3 13.94 C 0 km/h
1561 06-09-2010 00:00:00 13.22 C 7.08 g/m*3 13.22 C 0 km/h
1562 06-09-2010 01:00:00 12.36 C 7.11 g/m*3 12.36 C 0 km/h
1563 06-09-2010 02:00:00 11.62 C 7.2 g/m*3 11.62 C 0 km/h
1564 06-09-2010 03:00:00 11.1 C 7.15 g/m*3 11.1 C 0 km/h
1565 06-09-2010 04:00:00 10.7 C 7.09 g/m*3 10.7 C 0 km/h
1566 06-09-2010 05:00:00 10.24 C 7.02 g/m*3 10.24 C 0 km/h
1567 06-09-2010 06:00:00 9.56 C 7 g/m*3 9.56 C 0 km/h
1568 06-09-2010 07:00:00 9.28 C 7.07 g/m*3 9.28 C 0 km/h
1569 06-09-2010 08:00:00 9.68 C 7.22 g/m*3 9.68 C 0 km/h
1570 06-09-2010 09:00:00 10.94 C 7.52 g/m*3 10.94 C 0 km/h
1571 06-09-2010 10:00:00 13.48 C 7.52 g/m*3 13.48 C 0 km/h
1572 06-09-2010 11:00:00 16.32 C 7.14 g/m*3 16.32 C 0 km/h
1573 06-09-2010 12:00:00 18.64 C 5.58 g/m*3 18.64 C 0 km/h
1574 06-09-2010 13:00:00 20.24 C 5.4 g/m*3 20.24 C 0 km/h
1575 06-09-2010 14:00:00 22.34 C 4.51 g/m*3 22.34 C 0 km/h
Sensor: Nr:Datum:Temp:Abs-Feuchte:Windchill:Wind:
Aussen-T/F 1576 06-09-2010 15:00:00 24 C 4.35 g/m*3 24 C 0 km/h
1577 06-09-2010 16:00:00 23.88 C 4.32 g/m*3 23.88 C 0 km/h
1578 06-09-2010 17:00:00 24.42 C 4.46 g/m*3 24.42 C 0 km/h
1579 06-09-2010 18:00:00 21.44 C 5.34 g/m*3 21.44 C 0 km/h
1580 06-09-2010 19:00:00 18.72 C 5.87 g/m*3 18.72 C 0 km/h
1581 06-09-2010 20:00:00 17.1 C 5.62 g/m*3 17.1 C 0 km/h
1582 06-09-2010 21:00:00 16.22 C 5.44 g/m*3 16.22 C 0 km/h
1583 06-09-2010 22:00:00 15.5 C 5.6 g/m*3 15.5 C 0 km/h
1584 06-09-2010 23:00:00 15.2 C 5.63 g/m*3 15.2 C 0 km/h
1585 07-09-2010 00:00:00 15.38 C 5.51 g/m*3 15.38 C 0 km/h
1586 07-09-2010 01:00:00 15.42 C 5.39 g/m*3 15.42 C 0 km/h
1587 07-09-2010 02:00:00 15.46 C 5.38 g/m*3 15.46 C 0 km/h
1588 07-09-2010 03:00:00 14.34 C 6.03 g/m*3 14.34 C 0 km/h
1589 07-09-2010 04:00:00 13.06 C 7.01 g/m*3 13.06 C 0 km/h
1590 07-09-2010 05:00:00 12.98 C 7.11 g/m*3 12.98 C 0 km/h
1591 07-09-2010 06:00:00 12.5 C 7.04 g/m*3 12.5 C 0 km/h
1592 07-09-2010 07:00:00 12.12 C 7.09 g/m*3 12.12 C 0 km/h
1593 07-09-2010 08:00:00 11.56 C 8.11 g/m*3 11.56 C 0 km/h
1594 07-09-2010 09:00:00 11.46 C 8.41 g/m*3 11.46 C 0 km/h
1595 07-09-2010 10:00:00 11.46 C 8.88 g/m*3 11.46 C 0 km/h
1596 07-09-2010 11:00:00 11.64 C 9.21 g/m*3 11.64 C 0 km/h
1597 07-09-2010 12:00:00 12.42 C 9.5 g/m*3 12.42 C 0 km/h
1598 07-09-2010 13:00:00 12.78 C 9.31 g/m*3 12.78 C 0 km/h
1599 07-09-2010 14:00:00 13.36 C 9.37 g/m*3 13.36 C 0 km/h
1600 07-09-2010 15:00:00 14.58 C 9.12 g/m*3 14.58 C 0 km/h
Sensor: Nr:Datum:Temp:Abs-Feuchte:Windchill:Wind:
Aussen-T/F 1601 07-09-2010 16:00:00 15.52 C 9.11 g/m*3 15.52 C 0 km/h
1602 07-09-2010 17:00:00 14.88 C 9.06 g/m*3 14.88 C 0 km/h
1603 07-09-2010 18:00:00 13.98 C 9.08 g/m*3 13.98 C 0 km/h
1604 07-09-2010 19:00:00 13.78 C 9.38 g/m*3 13.78 C 0 km/h
1605 07-09-2010 20:00:00 13.24 C 9.55 g/m*3 13.24 C 0 km/h
1606 07-09-2010 21:00:00 12.96 C 9.89 g/m*3 12.96 C 0 km/h
1607 07-09-2010 22:00:00 12.86 C 10.03 g/m*3 12.86 C 0 km/h
1608 07-09-2010 23:00:00 12.92 C 10.16 g/m*3 12.92 C 0 km/h
1609 08-09-2010 00:00:00 12.88 C 10.24 g/m*3 12.88 C 0 km/h
1610 08-09-2010 01:00:00 13 C 10.37 g/m*3 13 C 0 km/h
1611 08-09-2010 02:00:00 13.2 C 10.61 g/m*3 13.2 C 0 km/h
1612 08-09-2010 03:00:00 13.56 C 10.92 g/m*3 13.56 C 0 km/h
1613 08-09-2010 04:00:00 13.56 C 10.92 g/m*3 13.56 C 0 km/h
1614 08-09-2010 05:00:00 14.16 C 11.4 g/m*3 14.16 C 0 km/h
1615 08-09-2010 06:00:00 14.36 C 11.44 g/m*3 14.36 C 0 km/h
1616 08-09-2010 07:00:00 14.22 C 11.25 g/m*3 14.22 C 0 km/h
1617 08-09-2010 08:00:00 14.22 C 11.25 g/m*3 14.22 C 0 km/h
1618 08-09-2010 09:00:00 15.22 C 11.62 g/m*3 15.22 C 0 km/h
1619 08-09-2010 10:00:00 15.52 C 11.41 g/m*3 15.52 C 0 km/h
1620 08-09-2010 11:00:00 15.24 C 11.03 g/m*3 15.24 C 0 km/h
1621 08-09-2010 12:00:00 14.74 C 11.26 g/m*3 14.74 C 0 km/h
1622 08-09-2010 13:00:00 16.22 C 12.12 g/m*3 16.22 C 0 km/h
1623 08-09-2010 14:00:00 17.58 C 11.56 g/m*3 17.58 C 0 km/h
1624 08-09-2010 15:00:00 17.94 C 11.17 g/m*3 17.94 C 0 km/h
1625 08-09-2010 16:00:00 18.54 C 10.69 g/m*3 18.54 C 0 km/h
Sensor: Nr:Datum:Temp:Abs-Feuchte:Windchill:Wind:
Aussen-T/F 1626 08-09-2010 17:00:00 19.88 C 10.23 g/m*3 19.88 C 0 km/h
1627 08-09-2010 18:00:00 19.06 C 10.24 g/m*3 19.06 C 0 km/h
1628 08-09-2010 19:00:00 18.2 C 10.54 g/m*3 18.2 C 0 km/h
1629 08-09-2010 20:00:00 16.8 C 10.52 g/m*3 16.8 C 0 km/h
1630 08-09-2010 21:00:00 15.72 C 9.7 g/m*3 15.72 C 0 km/h
1631 08-09-2010 22:00:00 14.78 C 9.79 g/m*3 14.78 C 0 km/h
1632 08-09-2010 23:00:00 14.48 C 10.01 g/m*3 14.48 C 0 km/h
1633 09-09-2010 00:00:00 14.38 C 10.2 g/m*3 14.38 C 0 km/h
1634 09-09-2010 01:00:00 15.04 C 10.08 g/m*3 15.04 C 0 km/h
1635 09-09-2010 02:00:00 15.14 C 9.93 g/m*3 15.14 C 0 km/h
1636 09-09-2010 03:00:00 15.32 C 9.78 g/m*3 15.32 C 0 km/h
1637 09-09-2010 04:00:00 15.22 C 9.33 g/m*3 15.22 C 0 km/h
1638 09-09-2010 05:00:00 14.9 C 9.02 g/m*3 14.9 C 0 km/h
1639 09-09-2010 06:00:00 14.78 C 8.88 g/m*3 14.78 C 0 km/h
1640 09-09-2010 07:00:00 14.58 C 9.07 g/m*3 14.58 C 0 km/h
1641 09-09-2010 08:00:00 14.8 C 9.1 g/m*3 14.8 C 0 km/h
1642 09-09-2010 09:00:00 15.26 C 9.09 g/m*3 15.26 C 0 km/h
1643 09-09-2010 10:00:00 16.76 C 9.1 g/m*3 16.76 C 0 km/h
1644 09-09-2010 11:00:00 17.78 C 8.88 g/m*3 17.78 C 0 km/h
1645 09-09-2010 12:00:00 18.64 C 8.17 g/m*3 18.64 C 0 km/h
1646 09-09-2010 13:00:00 18.8 C 8.21 g/m*3 18.8 C 0 km/h
1647 09-09-2010 14:00:00 18.98 C 8.59 g/m*3 18.98 C 0 km/h
1648 09-09-2010 15:00:00 19.38 C 9.13 g/m*3 19.38 C 0 km/h
1649 09-09-2010 16:00:00 17.1 C 10.92 g/m*3 17.1 C 0 km/h
1650 09-09-2010 17:00:00 17.92 C 11.62 g/m*3 17.92 C 0 km/h
Sensor: Nr:Datum:Temp:Abs-Feuchte:Windchill:Wind:
Aussen-T/F 1651 09-09-2010 18:00:00 17.7 C 10.47 g/m*3 17.7 C 0 km/h
1652 09-09-2010 19:00:00 16.54 C 9.46 g/m*3 16.54 C 0 km/h
1653 09-09-2010 20:00:00 15.4 C 9.78 g/m*3 15.4 C 0 km/h
1654 09-09-2010 21:00:00 14.8 C 10.26 g/m*3 14.8 C 0 km/h
1655 09-09-2010 22:00:00 14.74 C 10.17 g/m*3 14.74 C 0 km/h
1656 09-09-2010 23:00:00 14.98 C 9.71 g/m*3 14.98 C 0 km/h
1657 10-09-2010 00:00:00 14.66 C 9.92 g/m*3 14.66 C 0 km/h
1658 10-09-2010 01:00:00 14 C 9.77 g/m*3 14 C 0 km/h
1659 10-09-2010 02:00:00 13.9 C 9.95 g/m*3 13.9 C 0 km/h
1660 10-09-2010 03:00:00 13.9 C 10.07 g/m*3 13.9 C 0 km/h
1661 10-09-2010 04:00:00 13.84 C 10.25 g/m*3 13.84 C 0 km/h
1662 10-09-2010 05:00:00 13.06 C 9.99 g/m*3 13.06 C 0 km/h
1663 10-09-2010 06:00:00 13.12 C 10.24 g/m*3 13.12 C 0 km/h
1664 10-09-2010 07:00:00 13.18 C 9.84 g/m*3 13.18 C 0 km/h
1665 10-09-2010 08:00:00 13.32 C 9.95 g/m*3 13.32 C 0 km/h
1666 10-09-2010 09:00:00 14.6 C 9.54 g/m*3 14.6 C 0 km/h
1667 10-09-2010 10:00:00 16.16 C 9.35 g/m*3 16.16 C 0 km/h
1668 10-09-2010 11:00:00 17.88 C 9.21 g/m*3 17.88 C 0 km/h
1669 10-09-2010 12:00:00 18.74 C 9.18 g/m*3 18.74 C 0 km/h
1670 10-09-2010 13:00:00 19.18 C 8.66 g/m*3 19.18 C 0 km/h
1671 10-09-2010 14:00:00 19.94 C 8.75 g/m*3 19.94 C 0 km/h
1672 10-09-2010 15:00:00 20.82 C 8.59 g/m*3 20.82 C 0 km/h
1673 10-09-2010 16:00:00 21.1 C 8.44 g/m*3 21.1 C 0 km/h
1674 10-09-2010 17:00:00 20.18 C 8.98 g/m*3 20.18 C 0 km/h
1675 10-09-2010 18:00:00 17.86 C 10.21 g/m*3 17.86 C 0 km/h
Sensor: Nr:Datum:Temp:Abs-Feuchte:Windchill:Wind:
Aussen-T/F 1676 10-09-2010 19:00:00 16.26 C 11.43 g/m*3 16.26 C 0 km/h
1677 10-09-2010 20:00:00 15.68 C 11.57 g/m*3 15.68 C 0 km/h
1678 10-09-2010 21:00:00 15.8 C 11.68 g/m*3 15.8 C 0 km/h
1679 10-09-2010 22:00:00 15.68 C 11.44 g/m*3 15.68 C 0 km/h
1680 10-09-2010 23:00:00 15.46 C 11.18 g/m*3 15.46 C 0 km/h
1681 11-09-2010 00:00:00 15.14 C 10.86 g/m*3 15.14 C 0 km/h
1682 11-09-2010 01:00:00 15 C 10.8 g/m*3 15 C 0 km/h
1683 11-09-2010 02:00:00 14.74 C 10.73 g/m*3 14.74 C 0 km/h
1684 11-09-2010 03:00:00 14.08 C 10.42 g/m*3 14.08 C 0 km/h
1685 11-09-2010 04:00:00 13.14 C 9.86 g/m*3 13.14 C 0 km/h
1686 11-09-2010 05:00:00 12.64 C 9.78 g/m*3 12.64 C 0 km/h
1687 11-09-2010 06:00:00 12.74 C 9.91 g/m*3 12.74 C 0 km/h
1688 11-09-2010 07:00:00 12.16 C 9.54 g/m*3 12.16 C 0 km/h
1689 11-09-2010 08:00:00 13.04 C 10.23 g/m*3 13.04 C 0 km/h
1690 11-09-2010 09:00:00 13.76 C 10.55 g/m*3 13.76 C 0 km/h
1691 11-09-2010 10:00:00 15.66 C 11.32 g/m*3 15.66 C 0 km/h
1692 11-09-2010 11:00:00 18.24 C 11.37 g/m*3 18.24 C 0 km/h
1693 11-09-2010 12:00:00 19.9 C 9.59 g/m*3 19.9 C 0 km/h
1694 11-09-2010 13:00:00 21.76 C 8.81 g/m*3 21.76 C 0 km/h
1695 11-09-2010 14:00:00 24.2 C 8.14 g/m*3 24.2 C 0 km/h
1696 11-09-2010 15:00:00 26.04 C 7.86 g/m*3 26.04 C 0 km/h
1697 11-09-2010 16:00:00 26.34 C 8.19 g/m*3 26.34 C 0 km/h
1698 11-09-2010 17:00:00 27.62 C 8.31 g/m*3 27.62 C 0 km/h
1699 11-09-2010 18:00:00 26.06 C 9.28 g/m*3 26.06 C 0 km/h
1700 11-09-2010 19:00:00 21.76 C 9.72 g/m*3 21.76 C 0 km/h
Sensor: Nr:Datum:Temp:Abs-Feuchte:Windchill:Wind:
Aussen-T/F 1701 11-09-2010 20:00:00 19.34 C 9.51 g/m*3 19.34 C 0 km/h
1702 11-09-2010 21:00:00 18.1 C 10.01 g/m*3 18.1 C 0 km/h
1703 11-09-2010 22:00:00 17.2 C 10.28 g/m*3 17.2 C 0 km/h
1704 11-09-2010 23:00:00 16.56 C 10.4 g/m*3 16.56 C 0 km/h
1705 12-09-2010 00:00:00 16.06 C 10.42 g/m*3 16.06 C 0 km/h
1706 12-09-2010 01:00:00 15.34 C 10.34 g/m*3 15.34 C 0 km/h
1707 12-09-2010 02:00:00 14.88 C 10.39 g/m*3 14.88 C 0 km/h
1708 12-09-2010 03:00:00 14.46 C 10.2 g/m*3 14.46 C 0 km/h
1709 12-09-2010 04:00:00 14.1 C 10.07 g/m*3 14.1 C 0 km/h
1710 12-09-2010 05:00:00 13.76 C 9.98 g/m*3 13.76 C 0 km/h
1711 12-09-2010 06:00:00 13.52 C 9.93 g/m*3 13.52 C 0 km/h
1712 12-09-2010 07:00:00 13.7 C 10.14 g/m*3 13.7 C 0 km/h
1713 12-09-2010 08:00:00 14.26 C 10.3 g/m*3 14.26 C 0 km/h
1714 12-09-2010 09:00:00 14.84 C 10.51 g/m*3 14.84 C 0 km/h
1715 12-09-2010 10:00:00 16.94 C 11.16 g/m*3 16.94 C 0 km/h
1716 12-09-2010 11:00:00 20.02 C 10.69 g/m*3 20.02 C 0 km/h
1717 12-09-2010 12:00:00 21.62 C 10.75 g/m*3 21.62 C 0 km/h
1718 12-09-2010 13:00:00 24.4 C 9.84 g/m*3 24.4 C 0 km/h
1719 12-09-2010 14:00:00 23.86 C 9.2 g/m*3 23.86 C 0 km/h
1720 12-09-2010 15:00:00 19.32 C 8.87 g/m*3 19.32 C 0 km/h
1721 12-09-2010 16:00:00 17.78 C 9.19 g/m*3 17.78 C 0 km/h
1722 12-09-2010 17:00:00 16.2 C 9.68 g/m*3 16.2 C 0 km/h
1723 12-09-2010 18:00:00 14.92 C 10.59 g/m*3 14.92 C 0 km/h
1724 12-09-2010 19:00:00 14.26 C 10.79 g/m*3 14.26 C 0 km/h
1725 12-09-2010 20:00:00 13.82 C 10.81 g/m*3 13.82 C 0 km/h
Sensor: Nr:Datum:Temp:Abs-Feuchte:Windchill:Wind:
Aussen-T/F 1726 12-09-2010 21:00:00 13.78 C 10.97 g/m*3 13.78 C 0 km/h
1727 12-09-2010 22:00:00 13.78 C 11.07 g/m*3 13.78 C 0 km/h
1728 12-09-2010 23:00:00 13.58 C 10.93 g/m*3 13.58 C 0 km/h
1729 13-09-2010 00:00:00 13.68 C 11 g/m*3 13.68 C 0 km/h
1730 13-09-2010 01:00:00 13.7 C 11.01 g/m*3 13.7 C 0 km/h
1731 13-09-2010 02:00:00 13.52 C 10.89 g/m*3 13.52 C 0 km/h
1732 13-09-2010 03:00:00 13.26 C 10.58 g/m*3 13.26 C 0 km/h
1733 13-09-2010 04:00:00 13 C 10.21 g/m*3 13 C 0 km/h
1734 13-09-2010 05:00:00 13.26 C 9.77 g/m*3 13.26 C 0 km/h
1735 13-09-2010 06:00:00 13.3 C 9.57 g/m*3 13.3 C 0 km/h
1736 13-09-2010 07:00:00 12.72 C 9.18 g/m*3 12.72 C 0 km/h
1737 13-09-2010 08:00:00 13.04 C 9.62 g/m*3 13.04 C 0 km/h
1738 13-09-2010 09:00:00 13.98 C 9.47 g/m*3 13.98 C 0 km/h
1739 13-09-2010 10:00:00 15.32 C 9.05 g/m*3 15.32 C 0 km/h
1740 13-09-2010 11:00:00 16.5 C 8.57 g/m*3 16.5 C 0 km/h
1741 13-09-2010 12:00:00 17.24 C 7.93 g/m*3 17.24 C 0 km/h
1742 13-09-2010 13:00:00 18.94 C 7.53 g/m*3 18.94 C 0 km/h
1743 13-09-2010 14:00:00 20.18 C 6.95 g/m*3 20.18 C 0 km/h
1744 13-09-2010 15:00:00 20.8 C 7.1 g/m*3 20.8 C 0 km/h
1745 13-09-2010 16:00:00 21.56 C 6.93 g/m*3 21.56 C 0 km/h
1746 13-09-2010 17:00:00 20.48 C 7.96 g/m*3 20.48 C 0 km/h
1747 13-09-2010 18:00:00 18.22 C 8.62 g/m*3 18.22 C 0 km/h
1748 13-09-2010 19:00:00 16.92 C 8.55 g/m*3 16.92 C 0 km/h
1749 13-09-2010 20:00:00 15.24 C 8.9 g/m*3 15.24 C 0 km/h
1750 13-09-2010 21:00:00 14.52 C 8.97 g/m*3 14.52 C 0 km/h
Sensor: Nr:Datum:Temp:Abs-Feuchte:Windchill:Wind:
Aussen-T/F 1751 13-09-2010 22:00:00 13.7 C 8.86 g/m*3 13.7 C 0 km/h
1752 13-09-2010 23:00:00 13.14 C 8.85 g/m*3 13.14 C 0 km/h
1753 14-09-2010 00:00:00 12.82 C 9.2 g/m*3 12.82 C 0 km/h
1754 14-09-2010 01:00:00 12.8 C 9.27 g/m*3 12.8 C 0 km/h
1755 14-09-2010 02:00:00 13.1 C 9.33 g/m*3 13.1 C 0 km/h
1756 14-09-2010 03:00:00 13.36 C 9.23 g/m*3 13.36 C 0 km/h
1757 14-09-2010 04:00:00 12.94 C 9.42 g/m*3 12.94 C 0 km/h
1758 14-09-2010 05:00:00 12.96 C 9.84 g/m*3 12.96 C 0 km/h
1759 14-09-2010 06:00:00 13.9 C 9.28 g/m*3 13.9 C 0 km/h
1760 14-09-2010 07:00:00 14.06 C 8.93 g/m*3 14.06 C 0 km/h
1761 14-09-2010 08:00:00 14.1 C 9.32 g/m*3 14.1 C 0 km/h
1762 14-09-2010 09:00:00 15.16 C 9.06 g/m*3 15.16 C 0 km/h
1763 14-09-2010 10:00:00 16.1 C 9.07 g/m*3 16.1 C 0 km/h
1764 14-09-2010 11:00:00 17.06 C 9.15 g/m*3 17.06 C 0 km/h
1765 14-09-2010 12:00:00 18.44 C 9.18 g/m*3 18.44 C 0 km/h
1766 14-09-2010 13:00:00 19.98 C 9.22 g/m*3 19.98 C 0 km/h
1767 14-09-2010 14:00:00 19.66 C 8.84 g/m*3 19.66 C 0 km/h
1768 14-09-2010 15:00:00 20.4 C 8.63 g/m*3 20.4 C 0 km/h
1769 14-09-2010 16:00:00 20.68 C 7.88 g/m*3 20.68 C 0 km/h
1770 14-09-2010 17:00:00 20.14 C 7.46 g/m*3 20.14 C 0 km/h
1771 14-09-2010 18:00:00 19.34 C 7.81 g/m*3 19.34 C 0 km/h
1772 14-09-2010 19:00:00 18.8 C 7.73 g/m*3 18.8 C 0 km/h
1773 14-09-2010 20:00:00 18.6 C 7.7 g/m*3 18.6 C 0 km/h
1774 14-09-2010 21:00:00 18.54 C 7.77 g/m*3 18.54 C 0 km/h
1775 14-09-2010 22:00:00 18.5 C 7.83 g/m*3 18.5 C 0 km/h
Sensor: Nr:Datum:Temp:Abs-Feuchte:Windchill:Wind:
Aussen-T/F 1776 14-09-2010 23:00:00 18.22 C 7.91 g/m*3 18.22 C 0 km/h
1777 15-09-2010 00:00:00 18.02 C 7.87 g/m*3 18.02 C 0 km/h
1778 15-09-2010 01:00:00 18.18 C 7.67 g/m*3 18.18 C 0 km/h
1779 15-09-2010 02:00:00 18.32 C 7.64 g/m*3 18.32 C 0 km/h
1780 15-09-2010 03:00:00 18.06 C 8.23 g/m*3 18.06 C 0 km/h
1781 15-09-2010 04:00:00 17.7 C 9.11 g/m*3 17.7 C 0 km/h
1782 15-09-2010 05:00:00 15 C 9.75 g/m*3 15 C 0 km/h
1783 15-09-2010 06:00:00 12.78 C 10.09 g/m*3 12.78 C 0 km/h
1784 15-09-2010 07:00:00 12.74 C 10.29 g/m*3 12.74 C 0 km/h
1785 15-09-2010 08:00:00 12.7 C 10.35 g/m*3 12.7 C 0 km/h
1786 15-09-2010 09:00:00 12.92 C 10.36 g/m*3 12.92 C 0 km/h
1787 15-09-2010 10:00:00 14.06 C 9.95 g/m*3 14.06 C 0 km/h
1788 15-09-2010 11:00:00 15.02 C 8.86 g/m*3 15.02 C 0 km/h
1789 15-09-2010 12:00:00 16.5 C 7.02 g/m*3 16.5 C 0 km/h
1790 15-09-2010 13:00:00 17.24 C 6.31 g/m*3 17.24 C 0 km/h
1791 15-09-2010 14:00:00 18.38 C 5.66 g/m*3 18.38 C 0 km/h
1792 15-09-2010 15:00:00 19.52 C 5.75 g/m*3 19.52 C 0 km/h
1793 15-09-2010 16:00:00 19.52 C 5.98 g/m*3 19.52 C 0 km/h
1794 15-09-2010 17:00:00 19.68 C 5.8 g/m*3 19.68 C 0 km/h
1795 15-09-2010 18:00:00 17.84 C 5.32 g/m*3 17.84 C 0 km/h
1796 15-09-2010 19:00:00 16.6 C 5.65 g/m*3 16.6 C 0 km/h
1797 15-09-2010 20:00:00 15.84 C 6.26 g/m*3 15.84 C 0 km/h
1798 15-09-2010 21:00:00 15.18 C 6.38 g/m*3 15.18 C 0 km/h
1799 15-09-2010 22:00:00 14.96 C 5.96 g/m*3 14.96 C 0 km/h
1800 15-09-2010 23:00:00 14.86 C 5.64 g/m*3 14.86 C 0 km/h
Sensor: Nr:Datum:Temp:Abs-Feuchte:Windchill:Wind:
Aussen-T/F 1801 16-09-2010 00:00:00 14.18 C 5.9 g/m*3 14.18 C 0 km/h
1802 16-09-2010 01:00:00 14.1 C 5.41 g/m*3 14.1 C 0 km/h
1803 16-09-2010 02:00:00 13.94 C 5.79 g/m*3 13.94 C 0 km/h
1804 16-09-2010 03:00:00 13.84 C 6.71 g/m*3 13.84 C 0 km/h
1805 16-09-2010 04:00:00 13.58 C 6.98 g/m*3 13.58 C 0 km/h
1806 16-09-2010 05:00:00 13.36 C 7.26 g/m*3 13.36 C 0 km/h
1807 16-09-2010 06:00:00 12.44 C 8.08 g/m*3 12.44 C 0 km/h
1808 16-09-2010 07:00:00 11.78 C 8.68 g/m*3 11.78 C 0 km/h
1809 16-09-2010 08:00:00 11.86 C 8.83 g/m*3 11.86 C 0 km/h
1810 16-09-2010 09:00:00 12.64 C 9.25 g/m*3 12.64 C 0 km/h
1811 16-09-2010 10:00:00 14.12 C 8.65 g/m*3 14.12 C 0 km/h
1812 16-09-2010 11:00:00 15.26 C 8.23 g/m*3 15.26 C 0 km/h
1813 16-09-2010 12:00:00 17.02 C 7.68 g/m*3 17.02 C 0 km/h
1814 16-09-2010 13:00:00 17.32 C 7.17 g/m*3 17.32 C 0 km/h
1815 16-09-2010 14:00:00 15.28 C 8.71 g/m*3 15.28 C 0 km/h
1816 16-09-2010 15:00:00 17.22 C 9.15 g/m*3 17.22 C 0 km/h
1817 16-09-2010 16:00:00 16.36 C 8.49 g/m*3 16.36 C 0 km/h
1818 16-09-2010 17:00:00 15.3 C 9.51 g/m*3 15.3 C 0 km/h
1819 16-09-2010 18:00:00 14.9 C 8.95 g/m*3 14.9 C 0 km/h
1820 16-09-2010 19:00:00 13.42 C 9.68 g/m*3 13.42 C 0 km/h
1821 16-09-2010 20:00:00 12.84 C 10.02 g/m*3 12.84 C 0 km/h
1822 16-09-2010 21:00:00 12.62 C 10.08 g/m*3 12.62 C 0 km/h
1823 16-09-2010 22:00:00 12.2 C 9.58 g/m*3 12.2 C 0 km/h
1824 16-09-2010 23:00:00 12.1 C 9.29 g/m*3 12.1 C 0 km/h
1825 17-09-2010 00:00:00 12.16 C 9.24 g/m*3 12.16 C 0 km/h
Sensor: Nr:Datum:Temp:Abs-Feuchte:Windchill:Wind:
Aussen-T/F 1826 17-09-2010 01:00:00 12.06 C 9.26 g/m*3 12.06 C 0 km/h
1827 17-09-2010 02:00:00 11.96 C 9.29 g/m*3 11.96 C 0 km/h
1828 17-09-2010 03:00:00 12.06 C 8.94 g/m*3 12.06 C 0 km/h
1829 17-09-2010 04:00:00 11.94 C 8.73 g/m*3 11.94 C 0 km/h
1830 17-09-2010 05:00:00 11.2 C 8.23 g/m*3 11.2 C 0 km/h
1831 17-09-2010 06:00:00 10.6 C 8.59 g/m*3 10.6 C 0 km/h
1832 17-09-2010 07:00:00 10.02 C 8.15 g/m*3 10.02 C 0 km/h
1833 17-09-2010 08:00:00 10.22 C 7.66 g/m*3 10.22 C 0 km/h
1834 17-09-2010 09:00:00 10.86 C 7.28 g/m*3 10.86 C 0 km/h
1835 17-09-2010 10:00:00 12.06 C 7.55 g/m*3 12.06 C 0 km/h
1836 17-09-2010 11:00:00 13.72 C 7.56 g/m*3 13.72 C 0 km/h
1837 17-09-2010 12:00:00 15.7 C 6.58 g/m*3 15.7 C 0 km/h
1838 17-09-2010 13:00:00 16.66 C 5.9 g/m*3 16.66 C 0 km/h
1839 17-09-2010 14:00:00 17.62 C 5.29 g/m*3 17.62 C 0 km/h
1840 17-09-2010 15:00:00 17.48 C 5.06 g/m*3 17.48 C 0 km/h
1841 17-09-2010 16:00:00 19.06 C 4.94 g/m*3 19.06 C 0 km/h
1842 17-09-2010 17:00:00 19.46 C 4.45 g/m*3 19.46 C 0 km/h
1843 17-09-2010 18:00:00 16.66 C 6.1 g/m*3 16.66 C 0 km/h
1844 17-09-2010 19:00:00 15.24 C 6.69 g/m*3 15.24 C 0 km/h
1845 17-09-2010 20:00:00 14.26 C 7.06 g/m*3 14.26 C 0 km/h
1846 17-09-2010 21:00:00 13.48 C 7.15 g/m*3 13.48 C 0 km/h
1847 17-09-2010 22:00:00 13.34 C 6.72 g/m*3 13.34 C 0 km/h
1848 17-09-2010 23:00:00 12.58 C 6.81 g/m*3 12.58 C 0 km/h
1849 18-09-2010 00:00:00 12.12 C 6.94 g/m*3 12.12 C 0 km/h
1850 18-09-2010 01:00:00 10.9 C 7 g/m*3 10.9 C 0 km/h
Sensor: Nr:Datum:Temp:Abs-Feuchte:Windchill:Wind:
Aussen-T/F 1851 18-09-2010 02:00:00 10 C 7.2 g/m*3 10 C 0 km/h
1852 18-09-2010 03:00:00 9.38 C 7.3 g/m*3 9.38 C 0 km/h
1853 18-09-2010 04:00:00 8.54 C 7.19 g/m*3 8.54 C 0 km/h
1854 18-09-2010 05:00:00 7.94 C 7.18 g/m*3 7.94 C 0 km/h
1855 18-09-2010 06:00:00 7.62 C 7.36 g/m*3 7.62 C 0 km/h
1856 18-09-2010 07:00:00 7.5 C 7.3 g/m*3 7.5 C 0 km/h
1857 18-09-2010 08:00:00 7.46 C 7.23 g/m*3 7.46 C 0 km/h
1858 18-09-2010 09:00:00 8.12 C 7.55 g/m*3 8.12 C 0 km/h
1859 18-09-2010 10:00:00 10.2 C 8.18 g/m*3 10.2 C 0 km/h
1860 18-09-2010 11:00:00 13.46 C 6.65 g/m*3 13.46 C 0 km/h
1861 18-09-2010 12:00:00 15.14 C 5.92 g/m*3 15.14 C 0 km/h
1862 18-09-2010 13:00:00 15.6 C 5.43 g/m*3 15.6 C 0 km/h
1863 18-09-2010 14:00:00 15.26 C 4.77 g/m*3 15.26 C 0 km/h
1864 18-09-2010 15:00:00 16.3 C 4.58 g/m*3 16.3 C 0 km/h
1865 18-09-2010 16:00:00 16.22 C 4.86 g/m*3 16.22 C 0 km/h
1866 18-09-2010 17:00:00 15.86 C 5.73 g/m*3 15.86 C 0 km/h
1867 18-09-2010 18:00:00 15.66 C 6.06 g/m*3 15.66 C 0 km/h
1868 18-09-2010 19:00:00 13.26 C 6.08 g/m*3 13.26 C 0 km/h
1869 18-09-2010 20:00:00 11.08 C 6.6 g/m*3 11.08 C 0 km/h
1870 18-09-2010 21:00:00 10.02 C 6.62 g/m*3 10.02 C 0 km/h
1871 18-09-2010 22:00:00 8.98 C 6.69 g/m*3 8.98 C 0 km/h
1872 18-09-2010 23:00:00 8.2 C 6.77 g/m*3 8.2 C 0 km/h
1873 19-09-2010 00:00:00 7.56 C 6.72 g/m*3 7.56 C 0 km/h
1874 19-09-2010 01:00:00 6.92 C 6.54 g/m*3 6.92 C 0 km/h
1875 19-09-2010 02:00:00 6.44 C 6.53 g/m*3 6.44 C 0 km/h
Sensor: Nr:Datum:Temp:Abs-Feuchte:Windchill:Wind:
Aussen-T/F 1876 19-09-2010 03:00:00 6.42 C 6.57 g/m*3 6.42 C 0 km/h
1877 19-09-2010 04:00:00 6.2 C 6.5 g/m*3 6.2 C 0 km/h
1878 19-09-2010 05:00:00 6.04 C 6.42 g/m*3 6.04 C 0 km/h
1879 19-09-2010 06:00:00 5.76 C 6.33 g/m*3 5.76 C 0 km/h
1880 19-09-2010 07:00:00 6 C 6.46 g/m*3 6 C 0 km/h
1881 19-09-2010 08:00:00 6.96 C 6.79 g/m*3 6.96 C 0 km/h
1882 19-09-2010 09:00:00 8.12 C 6.98 g/m*3 8.12 C 0 km/h
1883 19-09-2010 10:00:00 10.72 C 6.69 g/m*3 10.72 C 0 km/h
1884 19-09-2010 11:00:00 12.92 C 6.27 g/m*3 12.92 C 0 km/h
1885 19-09-2010 12:00:00 14.94 C 5.67 g/m*3 14.94 C 0 km/h
1886 19-09-2010 13:00:00 16.12 C 5.54 g/m*3 16.12 C 0 km/h
1887 19-09-2010 14:00:00 17.38 C 5.68 g/m*3 17.38 C 0 km/h
1888 19-09-2010 15:00:00 18.62 C 5.45 g/m*3 18.62 C 0 km/h
1889 19-09-2010 16:00:00 19.04 C 5.29 g/m*3 19.04 C 0 km/h
1890 19-09-2010 17:00:00 18.78 C 5.69 g/m*3 18.78 C 0 km/h
1891 19-09-2010 18:00:00 17.08 C 5.99 g/m*3 17.08 C 0 km/h
1892 19-09-2010 19:00:00 15.78 C 5.97 g/m*3 15.78 C 0 km/h
1893 19-09-2010 20:00:00 14.46 C 6.3 g/m*3 14.46 C 0 km/h
1894 19-09-2010 21:00:00 13.96 C 6.62 g/m*3 13.96 C 0 km/h
1895 19-09-2010 22:00:00 13.32 C 6.78 g/m*3 13.32 C 0 km/h
1896 19-09-2010 23:00:00 12.28 C 6.77 g/m*3 12.28 C 0 km/h
1897 20-09-2010 00:00:00 11.68 C 6.87 g/m*3 11.68 C 0 km/h
1898 20-09-2010 01:00:00 10.44 C 6.78 g/m*3 10.44 C 0 km/h
1899 20-09-2010 02:00:00 9.84 C 6.88 g/m*3 9.84 C 0 km/h
1900 20-09-2010 03:00:00 9.64 C 7.02 g/m*3 9.64 C 0 km/h
Sensor: Nr:Datum:Temp:Abs-Feuchte:Windchill:Wind:
Aussen-T/F 1901 20-09-2010 04:00:00 8.98 C 6.89 g/m*3 8.98 C 0 km/h
1902 20-09-2010 05:00:00 8.32 C 6.89 g/m*3 8.32 C 0 km/h
1903 20-09-2010 06:00:00 8.48 C 7.03 g/m*3 8.48 C 0 km/h
1904 20-09-2010 07:00:00 8.52 C 7.1 g/m*3 8.52 C 0 km/h
1905 20-09-2010 08:00:00 9.18 C 6.87 g/m*3 9.18 C 0 km/h
1906 20-09-2010 09:00:00 9.84 C 6.92 g/m*3 9.84 C 0 km/h
1907 20-09-2010 10:00:00 12.4 C 7.21 g/m*3 12.4 C 0 km/h
1908 20-09-2010 11:00:00 14.62 C 6.99 g/m*3 14.62 C 0 km/h
1909 20-09-2010 12:00:00 16.26 C 6.34 g/m*3 16.26 C 0 km/h
1910 20-09-2010 13:00:00 18.02 C 6.12 g/m*3 18.02 C 0 km/h
1911 20-09-2010 14:00:00 20.02 C 5.81 g/m*3 20.02 C 0 km/h
1912 20-09-2010 15:00:00 21.42 C 5.86 g/m*3 21.42 C 0 km/h
1913 20-09-2010 16:00:00 22.46 C 6.22 g/m*3 22.46 C 0 km/h
1914 20-09-2010 17:00:00 22.28 C 6.11 g/m*3 22.28 C 0 km/h
1915 20-09-2010 18:00:00 21.3 C 6.67 g/m*3 21.3 C 0 km/h
1916 20-09-2010 19:00:00 17.5 C 7.19 g/m*3 17.5 C 0 km/h
1917 20-09-2010 20:00:00 15.34 C 7.54 g/m*3 15.34 C 0 km/h
1918 20-09-2010 21:00:00 14.2 C 7.72 g/m*3 14.2 C 0 km/h
1919 20-09-2010 22:00:00 13.22 C 8.07 g/m*3 13.22 C 0 km/h
1920 20-09-2010 23:00:00 12.28 C 8.05 g/m*3 12.28 C 0 km/h
1921 21-09-2010 00:00:00 11.52 C 7.88 g/m*3 11.52 C 0 km/h
1922 21-09-2010 01:00:00 10.9 C 7.8 g/m*3 10.9 C 0 km/h
1923 21-09-2010 02:00:00 10.24 C 7.69 g/m*3 10.24 C 0 km/h
1924 21-09-2010 03:00:00 9.74 C 7.71 g/m*3 9.74 C 0 km/h
1925 21-09-2010 04:00:00 9.22 C 7.51 g/m*3 9.22 C 0 km/h
Sensor: Nr:Datum:Temp:Abs-Feuchte:Windchill:Wind:
Aussen-T/F 1926 21-09-2010 05:00:00 8.78 C 7.46 g/m*3 8.78 C 0 km/h
1927 21-09-2010 06:00:00 8.34 C 7.37 g/m*3 8.34 C 0 km/h
1928 21-09-2010 07:00:00 8.14 C 7.34 g/m*3 8.14 C 0 km/h
1929 21-09-2010 08:00:00 8.26 C 7.53 g/m*3 8.26 C 0 km/h
1930 21-09-2010 09:00:00 9.18 C 7.97 g/m*3 9.18 C 0 km/h
1931 21-09-2010 10:00:00 11.12 C 8.71 g/m*3 11.12 C 0 km/h
1932 21-09-2010 11:00:00 14.12 C 8.65 g/m*3 14.12 C 0 km/h
1933 21-09-2010 12:00:00 16.14 C 8.99 g/m*3 16.14 C 0 km/h
1934 21-09-2010 13:00:00 17.02 C 9.65 g/m*3 17.02 C 0 km/h
1935 21-09-2010 14:00:00 17.82 C 9.48 g/m*3 17.82 C 0 km/h
1936 21-09-2010 15:00:00 23.12 C 8.2 g/m*3 23.12 C 0 km/h
1937 21-09-2010 16:00:00 25.16 C 7.62 g/m*3 25.16 C 0 km/h
1938 21-09-2010 17:00:00 24.6 C 7.56 g/m*3 24.6 C 0 km/h
1939 21-09-2010 18:00:00 22.18 C 7.88 g/m*3 22.18 C 0 km/h
1940 21-09-2010 19:00:00 18.64 C 8.36 g/m*3 18.64 C 0 km/h
1941 21-09-2010 20:00:00 16.3 C 8.52 g/m*3 16.3 C 0 km/h
1942 21-09-2010 21:00:00 15.06 C 8.49 g/m*3 15.06 C 0 km/h
1943 21-09-2010 22:00:00 13.9 C 8.51 g/m*3 13.9 C 0 km/h
1944 21-09-2010 23:00:00 12.98 C 8.54 g/m*3 12.98 C 0 km/h
1945 22-09-2010 00:00:00 12.2 C 8.55 g/m*3 12.2 C 0 km/h
1946 22-09-2010 01:00:00 11.5 C 8.41 g/m*3 11.5 C 0 km/h
1947 22-09-2010 02:00:00 10.78 C 8.15 g/m*3 10.78 C 0 km/h
1948 22-09-2010 03:00:00 10.22 C 8 g/m*3 10.22 C 0 km/h
1949 22-09-2010 04:00:00 9.72 C 7.94 g/m*3 9.72 C 0 km/h
1950 22-09-2010 05:00:00 9.84 C 8.15 g/m*3 9.84 C 0 km/h
Sensor: Nr:Datum:Temp:Abs-Feuchte:Windchill:Wind:
Aussen-T/F 1951 22-09-2010 06:00:00 9.78 C 8.15 g/m*3 9.78 C 0 km/h
1952 22-09-2010 07:00:00 9.56 C 8.04 g/m*3 9.56 C 0 km/h
1953 22-09-2010 08:00:00 9.36 C 7.96 g/m*3 9.36 C 0 km/h
1954 22-09-2010 09:00:00 10.18 C 8.15 g/m*3 10.18 C 0 km/h
1955 22-09-2010 10:00:00 12.42 C 8.64 g/m*3 12.42 C 0 km/h
1956 22-09-2010 11:00:00 13.78 C 9.19 g/m*3 13.78 C 0 km/h
1957 22-09-2010 12:00:00 16.54 C 9.97 g/m*3 16.54 C 0 km/h
1958 22-09-2010 13:00:00 19.76 C 10.09 g/m*3 19.76 C 0 km/h
1959 22-09-2010 14:00:00 22.86 C 10.07 g/m*3 22.86 C 0 km/h
1960 22-09-2010 15:00:00 25.06 C 9.29 g/m*3 25.06 C 0 km/h
1961 22-09-2010 16:00:00 27.32 C 8.59 g/m*3 27.32 C 0 km/h
1962 22-09-2010 17:00:00 27.06 C 8.16 g/m*3 27.06 C 0 km/h
1963 22-09-2010 18:00:00 24.88 C 9.1 g/m*3 24.88 C 0 km/h
1964 22-09-2010 19:00:00 20.88 C 9.2 g/m*3 20.88 C 0 km/h
1965 22-09-2010 20:00:00 18.54 C 9.1 g/m*3 18.54 C 0 km/h
1966 22-09-2010 21:00:00 17.46 C 9.31 g/m*3 17.46 C 0 km/h
1967 22-09-2010 22:00:00 16.18 C 9.26 g/m*3 16.18 C 0 km/h
1968 22-09-2010 23:00:00 14.92 C 8.78 g/m*3 14.92 C 0 km/h
1969 23-09-2010 00:00:00 14.02 C 8.65 g/m*3 14.02 C 0 km/h
1970 23-09-2010 01:00:00 13.22 C 8.71 g/m*3 13.22 C 0 km/h
1971 23-09-2010 02:00:00 12.44 C 8.7 g/m*3 12.44 C 0 km/h
1972 23-09-2010 03:00:00 11.8 C 8.57 g/m*3 11.8 C 0 km/h
1973 23-09-2010 04:00:00 11.16 C 8.39 g/m*3 11.16 C 0 km/h
1974 23-09-2010 05:00:00 10.64 C 8.22 g/m*3 10.64 C 0 km/h
1975 23-09-2010 06:00:00 10.46 C 8.2 g/m*3 10.46 C 0 km/h
Sensor: Nr:Datum:Temp:Abs-Feuchte:Windchill:Wind:
Aussen-T/F 1976 23-09-2010 07:00:00 10.52 C 8.25 g/m*3 10.52 C 0 km/h
1977 23-09-2010 08:00:00 10.88 C 8.42 g/m*3 10.88 C 0 km/h
1978 23-09-2010 09:00:00 11.64 C 8.65 g/m*3 11.64 C 0 km/h
1979 23-09-2010 10:00:00 12.98 C 9.24 g/m*3 12.98 C 0 km/h
1980 23-09-2010 11:00:00 15.64 C 10.08 g/m*3 15.64 C 0 km/h
1981 23-09-2010 12:00:00 18.66 C 10.61 g/m*3 18.66 C 0 km/h
1982 23-09-2010 13:00:00 22.3 C 10.7 g/m*3 22.3 C 0 km/h
1983 23-09-2010 14:00:00 24.06 C 10.22 g/m*3 24.06 C 0 km/h
1984 23-09-2010 15:00:00 25.04 C 9.37 g/m*3 25.04 C 0 km/h
1985 23-09-2010 16:00:00 25.14 C 9.88 g/m*3 25.14 C 0 km/h
1986 23-09-2010 17:00:00 23.48 C 10.73 g/m*3 23.48 C 0 km/h
1987 23-09-2010 18:00:00 22.12 C 10.63 g/m*3 22.12 C 0 km/h
1988 23-09-2010 19:00:00 19.9 C 11.06 g/m*3 19.9 C 0 km/h
1989 23-09-2010 20:00:00 18.5 C 11.3 g/m*3 18.5 C 0 km/h
1990 23-09-2010 21:00:00 18.5 C 11.49 g/m*3 18.5 C 0 km/h
1991 23-09-2010 22:00:00 17.94 C 11.82 g/m*3 17.94 C 0 km/h
1992 23-09-2010 23:00:00 16.44 C 12.26 g/m*3 16.44 C 0 km/h
1993 24-09-2010 00:00:00 15.7 C 12.18 g/m*3 15.7 C 0 km/h
1994 24-09-2010 01:00:00 15.54 C 12.3 g/m*3 15.54 C 0 km/h
1995 24-09-2010 02:00:00 15.38 C 12.15 g/m*3 15.38 C 0 km/h
1996 24-09-2010 03:00:00 14.94 C 11.91 g/m*3 14.94 C 0 km/h
1997 24-09-2010 04:00:00 14.78 C 11.89 g/m*3 14.78 C 0 km/h
1998 24-09-2010 05:00:00 14.54 C 11.72 g/m*3 14.54 C 0 km/h
1999 24-09-2010 06:00:00 14.7 C 11.83 g/m*3 14.7 C 0 km/h
2000 24-09-2010 07:00:00 14.4 C 11.62 g/m*3 14.4 C 0 km/h
Sensor: Nr:Datum:Temp:Abs-Feuchte:Windchill:Wind:
Aussen-T/F 2001 24-09-2010 08:00:00 14.58 C 11.82 g/m*3 14.58 C 0 km/h
2002 24-09-2010 09:00:00 14.88 C 12.07 g/m*3 14.88 C 0 km/h
2003 24-09-2010 10:00:00 14.98 C 12.06 g/m*3 14.98 C 0 km/h
2004 24-09-2010 11:00:00 15.22 C 12.22 g/m*3 15.22 C 0 km/h
2005 24-09-2010 12:00:00 15.14 C 12.18 g/m*3 15.14 C 0 km/h
2006 24-09-2010 13:00:00 14.56 C 11.73 g/m*3 14.56 C 0 km/h
2007 24-09-2010 14:00:00 13.54 C 11.02 g/m*3 13.54 C 0 km/h
2008 24-09-2010 15:00:00 13.08 C 10.8 g/m*3 13.08 C 0 km/h
2009 24-09-2010 16:00:00 13.8 C 11.32 g/m*3 13.8 C 0 km/h
2010 24-09-2010 17:00:00 13.48 C 11.03 g/m*3 13.48 C 0 km/h
2011 24-09-2010 18:00:00 13.26 C 10.83 g/m*3 13.26 C 0 km/h
2012 24-09-2010 19:00:00 12.84 C 10.64 g/m*3 12.84 C 0 km/h
2013 24-09-2010 20:00:00 12.7 C 10.58 g/m*3 12.7 C 0 km/h
2014 24-09-2010 21:00:00 12.82 C 10.65 g/m*3 12.82 C 0 km/h
2015 24-09-2010 22:00:00 12.7 C 10.58 g/m*3 12.7 C 0 km/h
2016 24-09-2010 23:00:00 12.4 C 10.38 g/m*3 12.4 C 0 km/h
2017 25-09-2010 00:00:00 12.48 C 10.43 g/m*3 12.48 C 0 km/h
2018 25-09-2010 01:00:00 12.52 C 10.46 g/m*3 12.52 C 0 km/h
2019 25-09-2010 02:00:00 12.6 C 10.51 g/m*3 12.6 C 0 km/h
2020 25-09-2010 03:00:00 12.62 C 10.52 g/m*3 12.62 C 0 km/h
2021 25-09-2010 04:00:00 12.54 C 10.47 g/m*3 12.54 C 0 km/h
2022 25-09-2010 05:00:00 12.38 C 10.35 g/m*3 12.38 C 0 km/h
2023 25-09-2010 06:00:00 12.06 C 10.06 g/m*3 12.06 C 0 km/h
2024 25-09-2010 07:00:00 11.88 C 9.94 g/m*3 11.88 C 0 km/h
2025 25-09-2010 08:00:00 11.26 C 9.5 g/m*3 11.26 C 0 km/h
Sensor: Nr:Datum:Temp:Abs-Feuchte:Windchill:Wind:
Aussen-T/F 2026 25-09-2010 09:00:00 10.48 C 8.81 g/m*3 10.48 C 0 km/h
2027 25-09-2010 10:00:00 11.04 C 8.25 g/m*3 11.04 C 0 km/h
2028 25-09-2010 11:00:00 12.3 C 7.45 g/m*3 12.3 C 0 km/h
2029 25-09-2010 12:00:00 12.44 C 6.9 g/m*3 12.44 C 0 km/h
2030 25-09-2010 13:00:00 13.26 C 6.04 g/m*3 13.26 C 0 km/h
2031 25-09-2010 14:00:00 14.24 C 5.36 g/m*3 14.24 C 0 km/h
2032 25-09-2010 15:00:00 15.04 C 4.68 g/m*3 15.04 C 0 km/h
2033 25-09-2010 16:00:00 14.72 C 4.97 g/m*3 14.72 C 0 km/h
2034 25-09-2010 17:00:00 15.6 C 5.08 g/m*3 15.6 C 0 km/h
2035 25-09-2010 18:00:00 14.22 C 5.06 g/m*3 14.22 C 0 km/h
2036 25-09-2010 19:00:00 12.98 C 5.75 g/m*3 12.98 C 0 km/h
2037 25-09-2010 20:00:00 11.7 C 5.88 g/m*3 11.7 C 0 km/h
2038 25-09-2010 21:00:00 10.12 C 6.31 g/m*3 10.12 C 0 km/h
2039 25-09-2010 22:00:00 10.28 C 6.68 g/m*3 10.28 C 0 km/h
2040 25-09-2010 23:00:00 9.28 C 7.4 g/m*3 9.28 C 0 km/h
2041 26-09-2010 00:00:00 9.44 C 7.76 g/m*3 9.44 C 0 km/h
2042 26-09-2010 01:00:00 9.48 C 7.24 g/m*3 9.48 C 0 km/h
2043 26-09-2010 02:00:00 9.42 C 7.05 g/m*3 9.42 C 0 km/h
2044 26-09-2010 03:00:00 9.2 C 7.07 g/m*3 9.2 C 0 km/h
2045 26-09-2010 04:00:00 8.88 C 7.28 g/m*3 8.88 C 0 km/h
2046 26-09-2010 05:00:00 9.02 C 7.33 g/m*3 9.02 C 0 km/h
2047 26-09-2010 06:00:00 8.9 C 7.38 g/m*3 8.9 C 0 km/h
2048 26-09-2010 07:00:00 8.8 C 7.45 g/m*3 8.8 C 0 km/h
2049 26-09-2010 08:00:00 9.62 C 7.3 g/m*3 9.62 C 0 km/h
2050 26-09-2010 09:00:00 10.26 C 7.18 g/m*3 10.26 C 0 km/h
Sensor: Nr:Datum:Temp:Abs-Feuchte:Windchill:Wind:
Aussen-T/F 2051 26-09-2010 10:00:00 11.84 C 6.75 g/m*3 11.84 C 0 km/h
2052 26-09-2010 11:00:00 13.22 C 6.44 g/m*3 13.22 C 0 km/h
2053 26-09-2010 12:00:00 14.48 C 6.39 g/m*3 14.48 C 0 km/h
2054 26-09-2010 13:00:00 13 C 7.58 g/m*3 13 C 0 km/h
2055 26-09-2010 14:00:00 13.3 C 8.3 g/m*3 13.3 C 0 km/h
2056 26-09-2010 15:00:00 14.18 C 8.12 g/m*3 14.18 C 0 km/h
2057 26-09-2010 16:00:00 14.92 C 7.04 g/m*3 14.92 C 0 km/h
2058 26-09-2010 17:00:00 15.18 C 6.61 g/m*3 15.18 C 0 km/h
2059 26-09-2010 18:00:00 12.96 C 6.95 g/m*3 12.96 C 0 km/h
2060 26-09-2010 19:00:00 12.24 C 7.1 g/m*3 12.24 C 0 km/h
2061 26-09-2010 20:00:00 11.78 C 7.21 g/m*3 11.78 C 0 km/h
2062 26-09-2010 21:00:00 11.16 C 7.12 g/m*3 11.16 C 0 km/h
2063 26-09-2010 22:00:00 9.7 C 7.06 g/m*3 9.7 C 0 km/h
2064 26-09-2010 23:00:00 8.84 C 7.17 g/m*3 8.84 C 0 km/h
2065 27-09-2010 00:00:00 8.12 C 7.07 g/m*3 8.12 C 0 km/h
2066 27-09-2010 01:00:00 7.46 C 7.04 g/m*3 7.46 C 0 km/h
2067 27-09-2010 02:00:00 6.84 C 6.86 g/m*3 6.84 C 0 km/h
2068 27-09-2010 03:00:00 6.46 C 6.75 g/m*3 6.46 C 0 km/h
2069 27-09-2010 04:00:00 6.24 C 6.8 g/m*3 6.24 C 0 km/h
2070 27-09-2010 05:00:00 6.24 C 6.83 g/m*3 6.24 C 0 km/h
2071 27-09-2010 06:00:00 6.32 C 6.89 g/m*3 6.32 C 0 km/h
2072 27-09-2010 07:00:00 6.74 C 7.13 g/m*3 6.74 C 0 km/h
2073 27-09-2010 08:00:00 7.7 C 7.61 g/m*3 7.7 C 0 km/h
2074 27-09-2010 09:00:00 9.24 C 8.2 g/m*3 9.24 C 0 km/h
2075 27-09-2010 10:00:00 10.76 C 7.57 g/m*3 10.76 C 0 km/h
Sensor: Nr:Datum:Temp:Abs-Feuchte:Windchill:Wind:
Aussen-T/F 2076 27-09-2010 11:00:00 11.98 C 6.79 g/m*3 11.98 C 0 km/h
2077 27-09-2010 12:00:00 12.78 C 6.82 g/m*3 12.78 C 0 km/h
2078 27-09-2010 13:00:00 13.48 C 6.73 g/m*3 13.48 C 0 km/h
2079 27-09-2010 14:00:00 13.26 C 6.66 g/m*3 13.26 C 0 km/h
2080 27-09-2010 15:00:00 13.4 C 6.65 g/m*3 13.4 C 0 km/h
2081 27-09-2010 16:00:00 13.38 C 7.2 g/m*3 13.38 C 0 km/h
2082 27-09-2010 17:00:00 12.9 C 7.69 g/m*3 12.9 C 0 km/h
2083 27-09-2010 18:00:00 11.94 C 7.73 g/m*3 11.94 C 0 km/h
2084 27-09-2010 19:00:00 10.58 C 8.13 g/m*3 10.58 C 0 km/h
2085 27-09-2010 20:00:00 10.3 C 8.39 g/m*3 10.3 C 0 km/h
2086 27-09-2010 21:00:00 10.34 C 8.55 g/m*3 10.34 C 0 km/h
2087 27-09-2010 22:00:00 10.3 C 8.6 g/m*3 10.3 C 0 km/h
2088 27-09-2010 23:00:00 10.16 C 8.64 g/m*3 10.16 C 0 km/h
2089 28-09-2010 00:00:00 10 C 8.68 g/m*3 10 C 0 km/h
2090 28-09-2010 01:00:00 9.98 C 8.75 g/m*3 9.98 C 0 km/h
2091 28-09-2010 02:00:00 9.9 C 8.78 g/m*3 9.9 C 0 km/h
2092 28-09-2010 03:00:00 9.9 C 8.87 g/m*3 9.9 C 0 km/h
2093 28-09-2010 04:00:00 9.92 C 8.86 g/m*3 9.92 C 0 km/h
2094 28-09-2010 05:00:00 10 C 8.93 g/m*3 10 C 0 km/h
2095 28-09-2010 06:00:00 10.08 C 8.97 g/m*3 10.08 C 0 km/h
2096 28-09-2010 07:00:00 10 C 8.93 g/m*3 10 C 0 km/h
2097 28-09-2010 08:00:00 10.04 C 8.95 g/m*3 10.04 C 0 km/h
2098 28-09-2010 09:00:00 10.24 C 9.06 g/m*3 10.24 C 0 km/h
2099 28-09-2010 10:00:00 10.58 C 9.26 g/m*3 10.58 C 0 km/h
2100 28-09-2010 11:00:00 11.18 C 9.62 g/m*3 11.18 C 0 km/h
Sensor: Nr:Datum:Temp:Abs-Feuchte:Windchill:Wind:
Aussen-T/F 2101 28-09-2010 12:00:00 11.48 C 9.72 g/m*3 11.48 C 0 km/h
2102 28-09-2010 13:00:00 11.74 C 9.71 g/m*3 11.74 C 0 km/h
2103 28-09-2010 14:00:00 11.76 C 9.66 g/m*3 11.76 C 0 km/h
2104 28-09-2010 15:00:00 11.74 C 9.73 g/m*3 11.74 C 0 km/h
2105 28-09-2010 16:00:00 11.84 C 9.85 g/m*3 11.84 C 0 km/h
2106 28-09-2010 17:00:00 11.98 C 10.01 g/m*3 11.98 C 0 km/h
2107 28-09-2010 18:00:00 11.86 C 9.99 g/m*3 11.86 C 0 km/h
2108 28-09-2010 19:00:00 11.72 C 9.95 g/m*3 11.72 C 0 km/h
2109 28-09-2010 20:00:00 11.6 C 9.87 g/m*3 11.6 C 0 km/h
2110 28-09-2010 21:00:00 11.58 C 9.86 g/m*3 11.58 C 0 km/h
2111 28-09-2010 22:00:00 11.62 C 9.89 g/m*3 11.62 C 0 km/h
2112 28-09-2010 23:00:00 11.6 C 9.87 g/m*3 11.6 C 0 km/h
2113 29-09-2010 00:00:00 11.64 C 9.9 g/m*3 11.64 C 0 km/h
2114 29-09-2010 01:00:00 11.62 C 9.89 g/m*3 11.62 C 0 km/h
2115 29-09-2010 02:00:00 11.56 C 9.85 g/m*3 11.56 C 0 km/h
2116 29-09-2010 03:00:00 11.48 C 9.8 g/m*3 11.48 C 0 km/h
2117 29-09-2010 04:00:00 11.48 C 9.8 g/m*3 11.48 C 0 km/h
2118 29-09-2010 05:00:00 11.4 C 9.75 g/m*3 11.4 C 0 km/h
2119 29-09-2010 06:00:00 11.52 C 9.82 g/m*3 11.52 C 0 km/h
2120 29-09-2010 07:00:00 11.04 C 9.53 g/m*3 11.04 C 0 km/h
2121 29-09-2010 08:00:00 11.18 C 9.62 g/m*3 11.18 C 0 km/h
2122 29-09-2010 09:00:00 11.44 C 9.57 g/m*3 11.44 C 0 km/h
2123 29-09-2010 10:00:00 12.92 C 8.98 g/m*3 12.92 C 0 km/h
2124 29-09-2010 11:00:00 13.96 C 8.42 g/m*3 13.96 C 0 km/h
2125 29-09-2010 12:00:00 14.4 C 8.03 g/m*3 14.4 C 0 km/h
Sensor: Nr:Datum:Temp:Abs-Feuchte:Windchill:Wind:
Aussen-T/F 2126 29-09-2010 13:00:00 15.74 C 7.89 g/m*3 15.74 C 0 km/h
2127 29-09-2010 14:00:00 16.82 C 7.64 g/m*3 16.82 C 0 km/h
2128 29-09-2010 15:00:00 19.16 C 6.88 g/m*3 19.16 C 0 km/h
2129 29-09-2010 16:00:00 18.14 C 7.62 g/m*3 18.14 C 0 km/h
2130 29-09-2010 17:00:00 18.3 C 7.54 g/m*3 18.3 C 0 km/h
2131 29-09-2010 18:00:00 14.62 C 7.84 g/m*3 14.62 C 0 km/h
2132 29-09-2010 19:00:00 13.08 C 7.68 g/m*3 13.08 C 0 km/h
2133 29-09-2010 20:00:00 13.12 C 7.7 g/m*3 13.12 C 0 km/h
2134 29-09-2010 21:00:00 12.5 C 7.94 g/m*3 12.5 C 0 km/h
2135 29-09-2010 22:00:00 12.38 C 8.36 g/m*3 12.38 C 0 km/h
2136 29-09-2010 23:00:00 11.96 C 8.33 g/m*3 11.96 C 0 km/h
2137 30-09-2010 00:00:00 12.16 C 8.44 g/m*3 12.16 C 0 km/h
2138 30-09-2010 01:00:00 11.86 C 7.75 g/m*3 11.86 C 0 km/h
2139 30-09-2010 02:00:00 11.46 C 7.62 g/m*3 11.46 C 0 km/h
2140 30-09-2010 03:00:00 11.16 C 7.87 g/m*3 11.16 C 0 km/h
2141 30-09-2010 04:00:00 11.02 C 7.88 g/m*3 11.02 C 0 km/h
2142 30-09-2010 05:00:00 10.76 C 7.79 g/m*3 10.76 C 0 km/h
2143 30-09-2010 06:00:00 10.7 C 7.33 g/m*3 10.7 C 0 km/h
2144 30-09-2010 07:00:00 10.66 C 7.66 g/m*3 10.66 C 0 km/h
2145 30-09-2010 08:00:00 10.9 C 7.76 g/m*3 10.9 C 0 km/h
2146 30-09-2010 09:00:00 11.4 C 7.86 g/m*3 11.4 C 0 km/h
2147 30-09-2010 10:00:00 11.64 C 8.27 g/m*3 11.64 C 0 km/h
2148 30-09-2010 11:00:00 11.86 C 8.47 g/m*3 11.86 C 0 km/h
2149 30-09-2010 12:00:00 11.98 C 8.94 g/m*3 11.98 C 0 km/h
2150 30-09-2010 13:00:00 12.58 C 9.55 g/m*3 12.58 C 0 km/h
Sensor: Nr:Datum:Temp:Abs-Feuchte:Windchill:Wind:
Aussen-T/F 2151 30-09-2010 14:00:00 12.94 C 9.9 g/m*3 12.94 C 0 km/h
2152 30-09-2010 15:00:00 13.26 C 10.12 g/m*3 13.26 C 0 km/h
2153 30-09-2010 16:00:00 13.4 C 10.16 g/m*3 13.4 C 0 km/h
2154 30-09-2010 17:00:00 12.96 C 9.98 g/m*3 12.96 C 0 km/h
2155 30-09-2010 18:00:00 12.48 C 9.82 g/m*3 12.48 C 0 km/h
2156 30-09-2010 19:00:00 12.14 C 9.78 g/m*3 12.14 C 0 km/h
2157 30-09-2010 20:00:00 12.16 C 9.92 g/m*3 12.16 C 0 km/h
2158 30-09-2010 21:00:00 12.08 C 9.96 g/m*3 12.08 C 0 km/h
2159 30-09-2010 22:00:00 11.96 C 9.93 g/m*3 11.96 C 0 km/h
2160 30-09-2010 23:00:00 12 C 10 g/m*3 12 C 0 km/h
2161 01-10-2010 00:00:00 12.02 C 10.05 g/m*3 12.02 C 0 km/h
2162 01-10-2010 01:00:00 11.58 C 9.86 g/m*3 11.58 C 0 km/h
2163 01-10-2010 02:00:00 11.44 C 9.78 g/m*3 11.44 C 0 km/h
2164 01-10-2010 03:00:00 11.56 C 9.85 g/m*3 11.56 C 0 km/h
2165 01-10-2010 04:00:00 11.7 C 9.94 g/m*3 11.7 C 0 km/h
2166 01-10-2010 05:00:00 11.62 C 9.89 g/m*3 11.62 C 0 km/h
2167 01-10-2010 06:00:00 11.4 C 9.75 g/m*3 11.4 C 0 km/h
2168 01-10-2010 07:00:00 11 C 9.51 g/m*3 11 C 0 km/h
2169 01-10-2010 08:00:00 10.3 C 9.1 g/m*3 10.3 C 0 km/h
2170 01-10-2010 09:00:00 11.24 C 9.65 g/m*3 11.24 C 0 km/h
2171 01-10-2010 10:00:00 11.72 C 9.63 g/m*3 11.72 C 0 km/h
2172 01-10-2010 11:00:00 12.46 C 8.84 g/m*3 12.46 C 0 km/h
2173 01-10-2010 12:00:00 12.68 C 8.49 g/m*3 12.68 C 0 km/h
2174 01-10-2010 13:00:00 13.18 C 8.12 g/m*3 13.18 C 0 km/h
2175 01-10-2010 14:00:00 13.32 C 7.94 g/m*3 13.32 C 0 km/h
Sensor: Nr:Datum:Temp:Abs-Feuchte:Windchill:Wind:
Aussen-T/F 2176 01-10-2010 15:00:00 15.3 C 7.78 g/m*3 15.3 C 0 km/h
2177 01-10-2010 16:00:00 16.74 C 7.61 g/m*3 16.74 C 0 km/h
2178 01-10-2010 17:00:00 16.14 C 8.35 g/m*3 16.14 C 0 km/h
2179 01-10-2010 18:00:00 14.34 C 8.79 g/m*3 14.34 C 0 km/h
2180 01-10-2010 19:00:00 12.18 C 8.56 g/m*3 12.18 C 0 km/h
2181 01-10-2010 20:00:00 11.26 C 8.51 g/m*3 11.26 C 0 km/h
2182 01-10-2010 21:00:00 10.86 C 8.53 g/m*3 10.86 C 0 km/h
2183 01-10-2010 22:00:00 10.98 C 8.76 g/m*3 10.98 C 0 km/h
2184 01-10-2010 23:00:00 11.06 C 8.74 g/m*3 11.06 C 0 km/h
2185 02-10-2010 00:00:00 11.12 C 8.71 g/m*3 11.12 C 0 km/h
2186 02-10-2010 01:00:00 10.92 C 8.74 g/m*3 10.92 C 0 km/h
2187 02-10-2010 02:00:00 10.96 C 8.97 g/m*3 10.96 C 0 km/h
2188 02-10-2010 03:00:00 11.1 C 9.15 g/m*3 11.1 C 0 km/h
2189 02-10-2010 04:00:00 11.08 C 9.26 g/m*3 11.08 C 0 km/h
2190 02-10-2010 05:00:00 10.98 C 9.3 g/m*3 10.98 C 0 km/h
2191 02-10-2010 06:00:00 11 C 9.39 g/m*3 11 C 0 km/h
2192 02-10-2010 07:00:00 11.14 C 9.55 g/m*3 11.14 C 0 km/h
2193 02-10-2010 08:00:00 11.46 C 9.79 g/m*3 11.46 C 0 km/h
2194 02-10-2010 09:00:00 12 C 10.12 g/m*3 12 C 0 km/h
2195 02-10-2010 10:00:00 13.14 C 10.75 g/m*3 13.14 C 0 km/h
2196 02-10-2010 11:00:00 14.32 C 11.27 g/m*3 14.32 C 0 km/h
2197 02-10-2010 12:00:00 15.04 C 11.52 g/m*3 15.04 C 0 km/h
2198 02-10-2010 13:00:00 15.74 C 11.53 g/m*3 15.74 C 0 km/h
2199 02-10-2010 14:00:00 15.64 C 11.41 g/m*3 15.64 C 0 km/h
2200 02-10-2010 15:00:00 16 C 11.47 g/m*3 16 C 0 km/h
Sensor: Nr:Datum:Temp:Abs-Feuchte:Windchill:Wind:
Aussen-T/F 2201 02-10-2010 16:00:00 16.24 C 11.09 g/m*3 16.24 C 0 km/h
2202 02-10-2010 17:00:00 16.28 C 10.92 g/m*3 16.28 C 0 km/h
2203 02-10-2010 18:00:00 15.42 C 10.92 g/m*3 15.42 C 0 km/h
2204 02-10-2010 19:00:00 14.94 C 10.94 g/m*3 14.94 C 0 km/h
2205 02-10-2010 20:00:00 14.8 C 11.1 g/m*3 14.8 C 0 km/h
2206 02-10-2010 21:00:00 14.5 C 11.02 g/m*3 14.5 C 0 km/h
2207 02-10-2010 22:00:00 14.48 C 11.16 g/m*3 14.48 C 0 km/h
2208 02-10-2010 23:00:00 14.56 C 11.13 g/m*3 14.56 C 0 km/h
2209 03-10-2010 00:00:00 14.44 C 11.08 g/m*3 14.44 C 0 km/h
2210 03-10-2010 01:00:00 14.7 C 10.7 g/m*3 14.7 C 0 km/h
2211 03-10-2010 02:00:00 14.58 C 10.32 g/m*3 14.58 C 0 km/h
2212 03-10-2010 03:00:00 13.92 C 10.59 g/m*3 13.92 C 0 km/h
2213 03-10-2010 04:00:00 14.08 C 10.62 g/m*3 14.08 C 0 km/h
2214 03-10-2010 05:00:00 14.26 C 10.34 g/m*3 14.26 C 0 km/h
2215 03-10-2010 06:00:00 13.46 C 10.24 g/m*3 13.46 C 0 km/h
2216 03-10-2010 07:00:00 13.42 C 10.43 g/m*3 13.42 C 0 km/h
2217 03-10-2010 08:00:00 13.98 C 10.41 g/m*3 13.98 C 0 km/h
2218 03-10-2010 09:00:00 15.12 C 10.08 g/m*3 15.12 C 0 km/h
2219 03-10-2010 10:00:00 16.78 C 9.91 g/m*3 16.78 C 0 km/h
2220 03-10-2010 11:00:00 18.14 C 10.13 g/m*3 18.14 C 0 km/h
2221 03-10-2010 12:00:00 19.68 C 9.74 g/m*3 19.68 C 0 km/h
2222 03-10-2010 13:00:00 21.36 C 9.43 g/m*3 21.36 C 0 km/h
2223 03-10-2010 14:00:00 23.34 C 9.09 g/m*3 23.34 C 0 km/h
2224 03-10-2010 15:00:00 24.72 C 8.61 g/m*3 24.72 C 0 km/h
2225 03-10-2010 16:00:00 25.12 C 8.67 g/m*3 25.12 C 0 km/h
Sensor: Nr:Datum:Temp:Abs-Feuchte:Windchill:Wind:
Aussen-T/F 2226 03-10-2010 17:00:00 25.22 C 9.37 g/m*3 25.22 C 0 km/h
2227 03-10-2010 18:00:00 21.54 C 10.55 g/m*3 21.54 C 0 km/h
2228 03-10-2010 19:00:00 18.78 C 10.84 g/m*3 18.78 C 0 km/h
2229 03-10-2010 20:00:00 18.34 C 10.88 g/m*3 18.34 C 0 km/h
2230 03-10-2010 21:00:00 17.96 C 11.03 g/m*3 17.96 C 0 km/h
2231 03-10-2010 22:00:00 17.56 C 10.86 g/m*3 17.56 C 0 km/h
2232 03-10-2010 23:00:00 17.56 C 10.32 g/m*3 17.56 C 0 km/h
2233 04-10-2010 00:00:00 17.28 C 9.86 g/m*3 17.28 C 0 km/h
2234 04-10-2010 01:00:00 17.18 C 9.59 g/m*3 17.18 C 0 km/h
2235 04-10-2010 02:00:00 16.82 C 9.65 g/m*3 16.82 C 0 km/h
2236 04-10-2010 03:00:00 15.76 C 9.96 g/m*3 15.76 C 0 km/h
2237 04-10-2010 04:00:00 15.1 C 9.99 g/m*3 15.1 C 0 km/h
2238 04-10-2010 05:00:00 14.3 C 9.95 g/m*3 14.3 C 0 km/h
2239 04-10-2010 06:00:00 13.92 C 9.94 g/m*3 13.92 C 0 km/h
2240 04-10-2010 07:00:00 13.62 C 9.83 g/m*3 13.62 C 0 km/h
2241 04-10-2010 08:00:00 14.26 C 9.8 g/m*3 14.26 C 0 km/h
2242 04-10-2010 09:00:00 15 C 9.23 g/m*3 15 C 0 km/h
2243 04-10-2010 10:00:00 15.66 C 8.97 g/m*3 15.66 C 0 km/h
2244 04-10-2010 11:00:00 17.62 C 8.92 g/m*3 17.62 C 0 km/h
2245 04-10-2010 12:00:00 17.84 C 8.76 g/m*3 17.84 C 0 km/h
2246 04-10-2010 13:00:00 18.72 C 8.62 g/m*3 18.72 C 0 km/h
2247 04-10-2010 14:00:00 19.76 C 8.72 g/m*3 19.76 C 0 km/h
2248 04-10-2010 15:00:00 22.5 C 8.63 g/m*3 22.5 C 0 km/h
2249 04-10-2010 16:00:00 23.64 C 8.23 g/m*3 23.64 C 0 km/h
2250 04-10-2010 17:00:00 21.14 C 9.16 g/m*3 21.14 C 0 km/h
Sensor: Nr:Datum:Temp:Abs-Feuchte:Windchill:Wind:
Aussen-T/F 2251 04-10-2010 18:00:00 18.68 C 9.66 g/m*3 18.68 C 0 km/h
2252 04-10-2010 19:00:00 16.52 C 10.09 g/m*3 16.52 C 0 km/h
2253 04-10-2010 20:00:00 16.22 C 10.02 g/m*3 16.22 C 0 km/h
2254 04-10-2010 21:00:00 15.42 C 9.94 g/m*3 15.42 C 0 km/h
2255 04-10-2010 22:00:00 14.56 C 9.91 g/m*3 14.56 C 0 km/h
2256 04-10-2010 23:00:00 14.2 C 9.92 g/m*3 14.2 C 0 km/h
2257 05-10-2010 00:00:00 14.2 C 10.01 g/m*3 14.2 C 0 km/h
2258 05-10-2010 01:00:00 13.94 C 9.9 g/m*3 13.94 C 0 km/h
2259 05-10-2010 02:00:00 13.52 C 9.84 g/m*3 13.52 C 0 km/h
2260 05-10-2010 03:00:00 13.6 C 10 g/m*3 13.6 C 0 km/h
2261 05-10-2010 04:00:00 13.6 C 10.1 g/m*3 13.6 C 0 km/h
2262 05-10-2010 05:00:00 13.6 C 10.14 g/m*3 13.6 C 0 km/h
2263 05-10-2010 06:00:00 13.42 C 10.38 g/m*3 13.42 C 0 km/h
2264 05-10-2010 07:00:00 13.4 C 10.56 g/m*3 13.4 C 0 km/h
2265 05-10-2010 08:00:00 13.14 C 10.41 g/m*3 13.14 C 0 km/h
2266 05-10-2010 09:00:00 13.3 C 10.68 g/m*3 13.3 C 0 km/h
2267 05-10-2010 10:00:00 14.8 C 11.81 g/m*3 14.8 C 0 km/h
2268 05-10-2010 11:00:00 17.48 C 13.01 g/m*3 17.48 C 0 km/h
2269 05-10-2010 12:00:00 18.1 C 11.43 g/m*3 18.1 C 0 km/h
2270 05-10-2010 13:00:00 19.18 C 11.23 g/m*3 19.18 C 0 km/h
2271 05-10-2010 14:00:00 19.26 C 10.95 g/m*3 19.26 C 0 km/h
2272 05-10-2010 15:00:00 18.8 C 12.63 g/m*3 18.8 C 0 km/h
2273 05-10-2010 16:00:00 18.5 C 12.47 g/m*3 18.5 C 0 km/h
2274 05-10-2010 17:00:00 17.1 C 11.67 g/m*3 17.1 C 0 km/h
2275 05-10-2010 18:00:00 17.02 C 11.44 g/m*3 17.02 C 0 km/h
Sensor: Nr:Datum:Temp:Abs-Feuchte:Windchill:Wind:
Aussen-T/F 2276 05-10-2010 19:00:00 16.66 C 11.31 g/m*3 16.66 C 0 km/h
2277 05-10-2010 20:00:00 16.36 C 10.94 g/m*3 16.36 C 0 km/h
2278 05-10-2010 21:00:00 15.68 C 10.26 g/m*3 15.68 C 0 km/h
2279 05-10-2010 22:00:00 15.3 C 9.98 g/m*3 15.3 C 0 km/h
2280 05-10-2010 23:00:00 15.6 C 9.97 g/m*3 15.6 C 0 km/h
2281 06-10-2010 00:00:00 15.6 C 9.97 g/m*3 15.6 C 0 km/h
2282 06-10-2010 01:00:00 15.5 C 9.99 g/m*3 15.5 C 0 km/h
2283 06-10-2010 02:00:00 15.44 C 10.17 g/m*3 15.44 C 0 km/h
2284 06-10-2010 03:00:00 15.28 C 10.1 g/m*3 15.28 C 0 km/h
2285 06-10-2010 04:00:00 15.1 C 10.09 g/m*3 15.1 C 0 km/h
2286 06-10-2010 05:00:00 14.92 C 10.26 g/m*3 14.92 C 0 km/h
2287 06-10-2010 06:00:00 14.82 C 10.1 g/m*3 14.82 C 0 km/h
2288 06-10-2010 07:00:00 14.66 C 9.95 g/m*3 14.66 C 0 km/h
2289 06-10-2010 08:00:00 14.52 C 10.19 g/m*3 14.52 C 0 km/h
2290 06-10-2010 09:00:00 15.54 C 10.12 g/m*3 15.54 C 0 km/h
2291 06-10-2010 10:00:00 16.24 C 9.93 g/m*3 16.24 C 0 km/h
2292 06-10-2010 11:00:00 17.76 C 9.27 g/m*3 17.76 C 0 km/h
2293 06-10-2010 12:00:00 19.04 C 8.69 g/m*3 19.04 C 0 km/h
2294 06-10-2010 13:00:00 20.2 C 8.5 g/m*3 20.2 C 0 km/h
2295 06-10-2010 14:00:00 21.62 C 8.24 g/m*3 21.62 C 0 km/h
2296 06-10-2010 15:00:00 23.06 C 8.25 g/m*3 23.06 C 0 km/h
2297 06-10-2010 16:00:00 22.84 C 8.96 g/m*3 22.84 C 0 km/h
2298 06-10-2010 17:00:00 21.08 C 10.16 g/m*3 21.08 C 0 km/h
2299 06-10-2010 18:00:00 18.94 C 10.23 g/m*3 18.94 C 0 km/h
2300 06-10-2010 19:00:00 17.3 C 10.19 g/m*3 17.3 C 0 km/h
Sensor: Nr:Datum:Temp:Abs-Feuchte:Windchill:Wind:
Aussen-T/F 2301 06-10-2010 20:00:00 16.9 C 10.13 g/m*3 16.9 C 0 km/h
2302 06-10-2010 21:00:00 16.36 C 10.42 g/m*3 16.36 C 0 km/h
2303 06-10-2010 22:00:00 15.74 C 10.52 g/m*3 15.74 C 0 km/h
2304 06-10-2010 23:00:00 14.9 C 10.32 g/m*3 14.9 C 0 km/h
2305 07-10-2010 00:00:00 14.22 C 10.17 g/m*3 14.22 C 0 km/h
2306 07-10-2010 01:00:00 14.24 C 10.5 g/m*3 14.24 C 0 km/h
2307 07-10-2010 02:00:00 14.24 C 10.43 g/m*3 14.24 C 0 km/h
2308 07-10-2010 03:00:00 14.08 C 10.35 g/m*3 14.08 C 0 km/h
2309 07-10-2010 04:00:00 13.82 C 10.31 g/m*3 13.82 C 0 km/h
2310 07-10-2010 05:00:00 13.3 C 10.17 g/m*3 13.3 C 0 km/h
2311 07-10-2010 06:00:00 13.84 C 10.51 g/m*3 13.84 C 0 km/h
2312 07-10-2010 07:00:00 14.12 C 10.6 g/m*3 14.12 C 0 km/h
2313 07-10-2010 08:00:00 14.66 C 10.9 g/m*3 14.66 C 0 km/h
2314 07-10-2010 09:00:00 15.06 C 10.6 g/m*3 15.06 C 0 km/h
2315 07-10-2010 10:00:00 16.18 C 10.33 g/m*3 16.18 C 0 km/h
2316 07-10-2010 11:00:00 17.26 C 10.32 g/m*3 17.26 C 0 km/h
2317 07-10-2010 12:00:00 18.4 C 9.97 g/m*3 18.4 C 0 km/h
2318 07-10-2010 13:00:00 19.26 C 9.83 g/m*3 19.26 C 0 km/h
2319 07-10-2010 14:00:00 19.88 C 9.78 g/m*3 19.88 C 0 km/h
2320 07-10-2010 15:00:00 20.5 C 9.5 g/m*3 20.5 C 0 km/h
2321 07-10-2010 16:00:00 19.94 C 9.47 g/m*3 19.94 C 0 km/h
2322 07-10-2010 17:00:00 19.16 C 9.57 g/m*3 19.16 C 0 km/h
2323 07-10-2010 18:00:00 17.88 C 10.22 g/m*3 17.88 C 0 km/h
2324 07-10-2010 19:00:00 16.9 C 10.38 g/m*3 16.9 C 0 km/h
2325 07-10-2010 20:00:00 16.3 C 10.35 g/m*3 16.3 C 0 km/h
Sensor: Nr:Datum:Temp:Abs-Feuchte:Windchill:Wind:
Aussen-T/F 2326 07-10-2010 21:00:00 16.22 C 10.13 g/m*3 16.22 C 0 km/h
2327 07-10-2010 22:00:00 16 C 9.86 g/m*3 16 C 0 km/h
2328 07-10-2010 23:00:00 16.02 C 9.74 g/m*3 16.02 C 0 km/h
2329 08-10-2010 00:00:00 15.82 C 9.89 g/m*3 15.82 C 0 km/h
2330 08-10-2010 01:00:00 15.62 C 9.67 g/m*3 15.62 C 0 km/h
2331 08-10-2010 02:00:00 15.44 C 9.35 g/m*3 15.44 C 0 km/h
2332 08-10-2010 03:00:00 14.92 C 8.75 g/m*3 14.92 C 0 km/h
2333 08-10-2010 04:00:00 14.52 C 8.57 g/m*3 14.52 C 0 km/h
2334 08-10-2010 05:00:00 14.24 C 8.81 g/m*3 14.24 C 0 km/h
2335 08-10-2010 06:00:00 13.98 C 8.96 g/m*3 13.98 C 0 km/h
2336 08-10-2010 07:00:00 14.02 C 9.13 g/m*3 14.02 C 0 km/h
2337 08-10-2010 08:00:00 14.2 C 9.23 g/m*3 14.2 C 0 km/h
2338 08-10-2010 09:00:00 14.6 C 9.41 g/m*3 14.6 C 0 km/h
2339 08-10-2010 10:00:00 15.28 C 9.47 g/m*3 15.28 C 0 km/h
2340 08-10-2010 11:00:00 15.86 C 9.29 g/m*3 15.86 C 0 km/h
2341 08-10-2010 12:00:00 16.54 C 9.09 g/m*3 16.54 C 0 km/h
2342 08-10-2010 13:00:00 16.94 C 8.77 g/m*3 16.94 C 0 km/h
2343 08-10-2010 14:00:00 18.76 C 8.77 g/m*3 18.76 C 0 km/h
2344 08-10-2010 15:00:00 20.32 C 8.52 g/m*3 20.32 C 0 km/h
2345 08-10-2010 16:00:00 22.2 C 8.95 g/m*3 22.2 C 0 km/h
2346 08-10-2010 17:00:00 21.78 C 9.24 g/m*3 21.78 C 0 km/h
2347 08-10-2010 18:00:00 19.06 C 9.68 g/m*3 19.06 C 0 km/h
2348 08-10-2010 19:00:00 15.88 C 9.98 g/m*3 15.88 C 0 km/h
2349 08-10-2010 20:00:00 14.78 C 9.79 g/m*3 14.78 C 0 km/h
2350 08-10-2010 21:00:00 14.08 C 9.65 g/m*3 14.08 C 0 km/h
Sensor: Nr:Datum:Temp:Abs-Feuchte:Windchill:Wind:
Aussen-T/F 2351 08-10-2010 22:00:00 13.28 C 9.51 g/m*3 13.28 C 0 km/h
2352 08-10-2010 23:00:00 12.58 C 9.3 g/m*3 12.58 C 0 km/h
2353 09-10-2010 00:00:00 11.9 C 9.11 g/m*3 11.9 C 0 km/h
2354 09-10-2010 01:00:00 11.34 C 8.96 g/m*3 11.34 C 0 km/h
2355 09-10-2010 02:00:00 10.74 C 8.68 g/m*3 10.74 C 0 km/h
2356 09-10-2010 03:00:00 10.24 C 8.43 g/m*3 10.24 C 0 km/h
2357 09-10-2010 04:00:00 9.78 C 8.32 g/m*3 9.78 C 0 km/h
2358 09-10-2010 05:00:00 9.52 C 8.29 g/m*3 9.52 C 0 km/h
2359 09-10-2010 06:00:00 9.42 C 8.31 g/m*3 9.42 C 0 km/h
2360 09-10-2010 07:00:00 9.24 C 8.24 g/m*3 9.24 C 0 km/h
2361 09-10-2010 08:00:00 9.2 C 8.22 g/m*3 9.2 C 0 km/h
2362 09-10-2010 09:00:00 9.28 C 8.24 g/m*3 9.28 C 0 km/h
2363 09-10-2010 10:00:00 10.44 C 8.87 g/m*3 10.44 C 0 km/h
2364 09-10-2010 11:00:00 12.52 C 9.53 g/m*3 12.52 C 0 km/h
2365 09-10-2010 12:00:00 14.68 C 8.2 g/m*3 14.68 C 0 km/h
2366 09-10-2010 13:00:00 17.1 C 7.89 g/m*3 17.1 C 0 km/h
2367 09-10-2010 14:00:00 19.96 C 7.03 g/m*3 19.96 C 0 km/h
2368 09-10-2010 15:00:00 21.86 C 6.28 g/m*3 21.86 C 0 km/h
2369 09-10-2010 16:00:00 22.16 C 6.23 g/m*3 22.16 C 0 km/h
2370 09-10-2010 17:00:00 20.8 C 6.19 g/m*3 20.8 C 0 km/h
2371 09-10-2010 18:00:00 17.02 C 6.26 g/m*3 17.02 C 0 km/h
2372 09-10-2010 19:00:00 13.8 C 6.12 g/m*3 13.8 C 0 km/h
2373 09-10-2010 20:00:00 12.84 C 6.58 g/m*3 12.84 C 0 km/h
2374 09-10-2010 21:00:00 11.48 C 6.99 g/m*3 11.48 C 0 km/h
2375 09-10-2010 22:00:00 10.6 C 7.03 g/m*3 10.6 C 0 km/h
Sensor: Nr:Datum:Temp:Abs-Feuchte:Windchill:Wind:
Aussen-T/F 2376 09-10-2010 23:00:00 9.62 C 6.92 g/m*3 9.62 C 0 km/h
2377 10-10-2010 00:00:00 8.94 C 6.99 g/m*3 8.94 C 0 km/h
2378 10-10-2010 01:00:00 8.38 C 6.93 g/m*3 8.38 C 0 km/h
2379 10-10-2010 02:00:00 7.76 C 6.82 g/m*3 7.76 C 0 km/h
2380 10-10-2010 03:00:00 7.14 C 6.66 g/m*3 7.14 C 0 km/h
2381 10-10-2010 04:00:00 6.76 C 6.61 g/m*3 6.76 C 0 km/h
2382 10-10-2010 05:00:00 6.28 C 6.45 g/m*3 6.28 C 0 km/h
2383 10-10-2010 06:00:00 5.86 C 6.36 g/m*3 5.86 C 0 km/h
2384 10-10-2010 07:00:00 5.5 C 6.31 g/m*3 5.5 C 0 km/h
2385 10-10-2010 08:00:00 6.36 C 6.69 g/m*3 6.36 C 0 km/h
2386 10-10-2010 09:00:00 7.26 C 6.79 g/m*3 7.26 C 0 km/h
2387 10-10-2010 10:00:00 8.92 C 6.6 g/m*3 8.92 C 0 km/h
2388 10-10-2010 11:00:00 10.92 C 6.57 g/m*3 10.92 C 0 km/h
2389 10-10-2010 12:00:00 12.8 C 6.47 g/m*3 12.8 C 0 km/h
2390 10-10-2010 13:00:00 15.86 C 5.67 g/m*3 15.86 C 0 km/h
2391 10-10-2010 14:00:00 18.62 C 5.45 g/m*3 18.62 C 0 km/h
2392 10-10-2010 15:00:00 20.4 C 5.91 g/m*3 20.4 C 0 km/h
2393 10-10-2010 16:00:00 21.28 C 5.7 g/m*3 21.28 C 0 km/h
2394 10-10-2010 17:00:00 20.64 C 5.6 g/m*3 20.64 C 0 km/h
2395 10-10-2010 18:00:00 17.2 C 5.45 g/m*3 17.2 C 0 km/h
2396 10-10-2010 19:00:00 14.18 C 5.49 g/m*3 14.18 C 0 km/h
2397 10-10-2010 20:00:00 13.02 C 4.91 g/m*3 13.02 C 0 km/h
2398 10-10-2010 21:00:00 12.44 C 4.01 g/m*3 12.44 C 0 km/h
2399 10-10-2010 22:00:00 11.46 C 4.12 g/m*3 11.46 C 0 km/h
2400 10-10-2010 23:00:00 10.72 C 4.52 g/m*3 10.72 C 0 km/h
Sensor: Nr:Datum:Temp:Abs-Feuchte:Windchill:Wind:
Aussen-T/F 2401 11-10-2010 00:00:00 9.98 C 4.88 g/m*3 9.98 C 0 km/h
2402 11-10-2010 01:00:00 9.44 C 4.91 g/m*3 9.44 C 0 km/h
2403 11-10-2010 02:00:00 9.08 C 4.87 g/m*3 9.08 C 0 km/h
2404 11-10-2010 03:00:00 8.24 C 4.99 g/m*3 8.24 C 0 km/h
2405 11-10-2010 04:00:00 7.58 C 5.1 g/m*3 7.58 C 0 km/h
2406 11-10-2010 05:00:00 6.64 C 5.24 g/m*3 6.64 C 0 km/h
2407 11-10-2010 06:00:00 5.72 C 5.32 g/m*3 5.72 C 0 km/h
2408 11-10-2010 07:00:00 5.22 C 5.36 g/m*3 5.22 C 0 km/h
2409 11-10-2010 08:00:00 4.96 C 5.39 g/m*3 4.96 C 0 km/h
2410 11-10-2010 09:00:00 5.6 C 5.7 g/m*3 5.6 C 0 km/h
2411 11-10-2010 10:00:00 7.12 C 6.11 g/m*3 7.12 C 0 km/h
2412 11-10-2010 11:00:00 9.46 C 6.36 g/m*3 9.46 C 0 km/h
2413 11-10-2010 12:00:00 11.62 C 6.45 g/m*3 11.62 C 0 km/h
2414 11-10-2010 13:00:00 14.92 C 5.9 g/m*3 14.92 C 0 km/h
2415 11-10-2010 14:00:00 17.48 C 5.45 g/m*3 17.48 C 0 km/h
2416 11-10-2010 15:00:00 19.78 C 5.05 g/m*3 19.78 C 0 km/h
2417 11-10-2010 16:00:00 20.96 C 4.61 g/m*3 20.96 C 0 km/h
2418 11-10-2010 17:00:00 19.56 C 3.6 g/m*3 19.56 C 0 km/h
2419 11-10-2010 18:00:00 16.12 C 3.98 g/m*3 16.12 C 0 km/h
2420 11-10-2010 19:00:00 13.18 C 4.33 g/m*3 13.18 C 0 km/h
2421 11-10-2010 20:00:00 11.32 C 4.82 g/m*3 11.32 C 0 km/h
2422 11-10-2010 21:00:00 10.025 C 4.96 g/m*3 10.03 C 0 km/h
2423 11-10-2010 22:00:00 9.2 C 4.84 g/m*3 9.2 C 0 km/h
2424 11-10-2010 23:00:00 8.24 C 4.87 g/m*3 8.24 C 0 km/h
2425 12-10-2010 00:00:00 7.16 C 5.01 g/m*3 7.16 C 0 km/h
Sensor: Nr:Datum:Temp:Abs-Feuchte:Windchill:Wind:
Aussen-T/F 2426 12-10-2010 01:00:00 6.4 C 5.13 g/m*3 6.4 C 0 km/h
2427 12-10-2010 02:00:00 5.74 C 5.24 g/m*3 5.74 C 0 km/h
2428 12-10-2010 03:00:00 5.04 C 5.31 g/m*3 5.04 C 0 km/h
2429 12-10-2010 04:00:00 4.42 C 5.34 g/m*3 4.42 C 0 km/h
2430 12-10-2010 05:00:00 3.8 C 5.31 g/m*3 3.8 C 0 km/h
2431 12-10-2010 06:00:00 3.46 C 5.26 g/m*3 3.46 C 0 km/h
2432 12-10-2010 07:00:00 2.94 C 5.15 g/m*3 2.94 C 0 km/h
2433 12-10-2010 08:00:00 3.56 C 5.52 g/m*3 3.56 C 0 km/h
2434 12-10-2010 09:00:00 4.9 C 5.93 g/m*3 4.9 C 0 km/h
2435 12-10-2010 10:00:00 5.82 C 6.07 g/m*3 5.82 C 0 km/h
2436 12-10-2010 11:00:00 7.16 C 6.36 g/m*3 7.16 C 0 km/h
2437 12-10-2010 12:00:00 9.56 C 6.18 g/m*3 9.56 C 0 km/h
2438 12-10-2010 13:00:00 12.58 C 5.72 g/m*3 12.58 C 0 km/h
2439 12-10-2010 14:00:00 15.26 C 5.65 g/m*3 15.26 C 0 km/h
2440 12-10-2010 15:00:00 16.94 C 5.42 g/m*3 16.94 C 0 km/h
2441 12-10-2010 16:00:00 17.66 C 5.42 g/m*3 17.66 C 0 km/h
2442 12-10-2010 17:00:00 17.22 C 4.57 g/m*3 17.22 C 0 km/h
2443 12-10-2010 18:00:00 14.5 C 5.65 g/m*3 14.5 C 0 km/h
2444 12-10-2010 19:00:00 11.42 C 6.45 g/m*3 11.42 C 0 km/h
2445 12-10-2010 20:00:00 9.84 C 6.47 g/m*3 9.84 C 0 km/h
2446 12-10-2010 21:00:00 8.36 C 6.26 g/m*3 8.36 C 0 km/h
2447 12-10-2010 22:00:00 7.74 C 6.15 g/m*3 7.74 C 0 km/h
2448 12-10-2010 23:00:00 7.78 C 6 g/m*3 7.78 C 0 km/h
2449 13-10-2010 00:00:00 7.6 C 5.86 g/m*3 7.6 C 0 km/h
2450 13-10-2010 01:00:00 7.02 C 5.82 g/m*3 7.02 C 0 km/h
Sensor: Nr:Datum:Temp:Abs-Feuchte:Windchill:Wind:
Aussen-T/F 2451 13-10-2010 02:00:00 6.8 C 5.83 g/m*3 6.8 C 0 km/h
2452 13-10-2010 03:00:00 6.44 C 5.69 g/m*3 6.44 C 0 km/h
2453 13-10-2010 04:00:00 6.2 C 5.59 g/m*3 6.2 C 0 km/h
2454 13-10-2010 05:00:00 6.1 C 5.6 g/m*3 6.1 C 0 km/h
2455 13-10-2010 06:00:00 5.84 C 5.6 g/m*3 5.84 C 0 km/h
2456 13-10-2010 07:00:00 5.42 C 5.53 g/m*3 5.42 C 0 km/h
2457 13-10-2010 08:00:00 5.62 C 5.49 g/m*3 5.62 C 0 km/h
2458 13-10-2010 09:00:00 5.86 C 5.45 g/m*3 5.86 C 0 km/h
2459 13-10-2010 10:00:00 6.66 C 5.3 g/m*3 6.66 C 0 km/h
2460 13-10-2010 11:00:00 7.04 C 5.08 g/m*3 7.04 C 0 km/h
2461 13-10-2010 12:00:00 8.14 C 5.06 g/m*3 8.14 C 0 km/h
2462 13-10-2010 13:00:00 8.8 C 4.89 g/m*3 8.8 C 0 km/h
2463 13-10-2010 14:00:00 9.8 C 4.95 g/m*3 9.8 C 0 km/h
2464 13-10-2010 15:00:00 11.78 C 4.94 g/m*3 11.78 C 0 km/h
2465 13-10-2010 16:00:00 12.06 C 5.01 g/m*3 12.06 C 0 km/h
2466 13-10-2010 17:00:00 12.34 C 5.23 g/m*3 12.34 C 0 km/h
2467 13-10-2010 18:00:00 9.94 C 5.5 g/m*3 9.94 C 0 km/h
2468 13-10-2010 19:00:00 7.48 C 5.76 g/m*3 7.48 C 0 km/h
2469 13-10-2010 20:00:00 6.96 C 5.81 g/m*3 6.96 C 0 km/h
2470 13-10-2010 21:00:00 5.82 C 5.72 g/m*3 5.82 C 0 km/h
2471 13-10-2010 22:00:00 5.16 C 5.73 g/m*3 5.16 C 0 km/h
2472 13-10-2010 23:00:00 4.52 C 5.61 g/m*3 4.52 C 0 km/h
2473 14-10-2010 00:00:00 3.88 C 5.51 g/m*3 3.88 C 0 km/h
2474 14-10-2010 01:00:00 3.38 C 5.47 g/m*3 3.38 C 0 km/h
2475 14-10-2010 02:00:00 3.62 C 5.65 g/m*3 3.62 C 0 km/h
Sensor: Nr:Datum:Temp:Abs-Feuchte:Windchill:Wind:
Aussen-T/F 2476 14-10-2010 03:00:00 3.52 C 5.57 g/m*3 3.52 C 0 km/h
2477 14-10-2010 04:00:00 3.54 C 5.55 g/m*3 3.54 C 0 km/h
2478 14-10-2010 05:00:00 3.62 C 5.63 g/m*3 3.62 C 0 km/h
2479 14-10-2010 06:00:00 3.92 C 5.7 g/m*3 3.92 C 0 km/h
2480 14-10-2010 07:00:00 4.12 C 5.76 g/m*3 4.12 C 0 km/h
2481 14-10-2010 08:00:00 4.44 C 5.84 g/m*3 4.44 C 0 km/h
2482 14-10-2010 09:00:00 4.56 C 5.86 g/m*3 4.56 C 0 km/h
2483 14-10-2010 10:00:00 5.16 C 5.88 g/m*3 5.16 C 0 km/h
2484 14-10-2010 11:00:00 6.2 C 5.75 g/m*3 6.2 C 0 km/h
2485 14-10-2010 12:00:00 7.86 C 5.59 g/m*3 7.86 C 0 km/h
2486 14-10-2010 13:00:00 9.36 C 5.58 g/m*3 9.36 C 0 km/h
2487 14-10-2010 14:00:00 11.86 C 5.85 g/m*3 11.86 C 0 km/h
2488 14-10-2010 15:00:00 13.94 C 5.72 g/m*3 13.94 C 0 km/h
2489 14-10-2010 16:00:00 14.4 C 5.83 g/m*3 14.4 C 0 km/h
2490 14-10-2010 17:00:00 13.24 C 5.5 g/m*3 13.24 C 0 km/h
2491 14-10-2010 18:00:00 11.04 C 5.96 g/m*3 11.04 C 0 km/h
2492 14-10-2010 19:00:00 10.26 C 6.25 g/m*3 10.26 C 0 km/h
2493 14-10-2010 20:00:00 10.2 C 6.24 g/m*3 10.2 C 0 km/h
2494 14-10-2010 21:00:00 9.8 C 6.33 g/m*3 9.8 C 0 km/h
2495 14-10-2010 22:00:00 9.74 C 6.51 g/m*3 9.74 C 0 km/h
2496 14-10-2010 23:00:00 9.68 C 6.68 g/m*3 9.68 C 0 km/h
2497 15-10-2010 00:00:00 9.5 C 6.75 g/m*3 9.5 C 0 km/h
2498 15-10-2010 01:00:00 9.42 C 6.88 g/m*3 9.42 C 0 km/h
2499 15-10-2010 02:00:00 9.24 C 7.13 g/m*3 9.24 C 0 km/h
2500 15-10-2010 03:00:00 9.28 C 7.25 g/m*3 9.28 C 0 km/h
Sensor: Nr:Datum:Temp:Abs-Feuchte:Windchill:Wind:
Aussen-T/F 2501 15-10-2010 04:00:00 9.28 C 7.36 g/m*3 9.28 C 0 km/h
2502 15-10-2010 05:00:00 9.2 C 7.41 g/m*3 9.2 C 0 km/h
2503 15-10-2010 06:00:00 9.3 C 7.66 g/m*3 9.3 C 0 km/h
2504 15-10-2010 07:00:00 9.28 C 7.74 g/m*3 9.28 C 0 km/h
2505 15-10-2010 08:00:00 9.24 C 7.86 g/m*3 9.24 C 0 km/h
2506 15-10-2010 09:00:00 9.82 C 8.19 g/m*3 9.82 C 0 km/h
2507 15-10-2010 10:00:00 10.72 C 8.06 g/m*3 10.72 C 0 km/h
2508 15-10-2010 11:00:00 11.52 C 7.76 g/m*3 11.52 C 0 km/h
2509 15-10-2010 12:00:00 12.42 C 7.33 g/m*3 12.42 C 0 km/h
2510 15-10-2010 13:00:00 13.38 C 6.9 g/m*3 13.38 C 0 km/h
2511 15-10-2010 14:00:00 12.78 C 6.76 g/m*3 12.78 C 0 km/h
2512 15-10-2010 15:00:00 12.86 C 6.68 g/m*3 12.86 C 0 km/h
2513 15-10-2010 16:00:00 12.24 C 6.79 g/m*3 12.24 C 0 km/h
2514 15-10-2010 17:00:00 11.56 C 7.07 g/m*3 11.56 C 0 km/h
2515 15-10-2010 18:00:00 10.88 C 7.03 g/m*3 10.88 C 0 km/h
2516 15-10-2010 19:00:00 10.52 C 7.01 g/m*3 10.52 C 0 km/h
2517 15-10-2010 20:00:00 10.36 C 7.02 g/m*3 10.36 C 0 km/h
2518 15-10-2010 21:00:00 10.1 C 7.19 g/m*3 10.1 C 0 km/h
2519 15-10-2010 22:00:00 9.3 C 7.67 g/m*3 9.3 C 0 km/h
2520 15-10-2010 23:00:00 9.2 C 8.04 g/m*3 9.2 C 0 km/h
2521 16-10-2010 00:00:00 9.02 C 8.16 g/m*3 9.02 C 0 km/h
2522 16-10-2010 01:00:00 8.82 C 8.19 g/m*3 8.82 C 0 km/h
2523 16-10-2010 02:00:00 8.78 C 8.22 g/m*3 8.78 C 0 km/h
2524 16-10-2010 03:00:00 8.68 C 8.21 g/m*3 8.68 C 0 km/h
2525 16-10-2010 04:00:00 8.54 C 8.13 g/m*3 8.54 C 0 km/h
Sensor: Nr:Datum:Temp:Abs-Feuchte:Windchill:Wind:
Aussen-T/F 2526 16-10-2010 05:00:00 8.36 C 8.04 g/m*3 8.36 C 0 km/h
2527 16-10-2010 06:00:00 8.3 C 8.01 g/m*3 8.3 C 0 km/h
2528 16-10-2010 07:00:00 8.12 C 7.88 g/m*3 8.12 C 0 km/h
2529 16-10-2010 08:00:00 8.1 C 7.77 g/m*3 8.1 C 0 km/h
2530 16-10-2010 09:00:00 8.24 C 7.81 g/m*3 8.24 C 0 km/h
2531 16-10-2010 10:00:00 8.64 C 8.03 g/m*3 8.64 C 0 km/h
2532 16-10-2010 11:00:00 8.96 C 8.11 g/m*3 8.96 C 0 km/h
2533 16-10-2010 12:00:00 9.38 C 8.11 g/m*3 9.38 C 0 km/h
2534 16-10-2010 13:00:00 9.72 C 8.16 g/m*3 9.72 C 0 km/h
2535 16-10-2010 14:00:00 9.96 C 7.89 g/m*3 9.96 C 0 km/h
2536 16-10-2010 15:00:00 10.08 C 7.82 g/m*3 10.08 C 0 km/h
2537 16-10-2010 16:00:00 9.9 C 7.84 g/m*3 9.9 C 0 km/h
2538 16-10-2010 17:00:00 9.36 C 7.9 g/m*3 9.36 C 0 km/h
2539 16-10-2010 18:00:00 8.38 C 6.98 g/m*3 8.38 C 0 km/h
2540 16-10-2010 19:00:00 6.96 C 6.55 g/m*3 6.96 C 0 km/h
2541 16-10-2010 20:00:00 6.56 C 6.31 g/m*3 6.56 C 0 km/h
2542 16-10-2010 21:00:00 6.28 C 6.21 g/m*3 6.28 C 0 km/h
2543 16-10-2010 22:00:00 5.9 C 6.37 g/m*3 5.9 C 0 km/h
2544 16-10-2010 23:00:00 5.96 C 6.56 g/m*3 5.96 C 0 km/h
2545 17-10-2010 00:00:00 6.14 C 6.7 g/m*3 6.14 C 0 km/h
2546 17-10-2010 01:00:00 6.24 C 6.71 g/m*3 6.24 C 0 km/h
2547 17-10-2010 02:00:00 6.22 C 6.61 g/m*3 6.22 C 0 km/h
2548 17-10-2010 03:00:00 6.24 C 6.49 g/m*3 6.24 C 0 km/h
2549 17-10-2010 04:00:00 6.22 C 6.33 g/m*3 6.22 C 0 km/h
2550 17-10-2010 05:00:00 6.3 C 6.43 g/m*3 6.3 C 0 km/h
Sensor: Nr:Datum:Temp:Abs-Feuchte:Windchill:Wind:
Aussen-T/F 2551 17-10-2010 06:00:00 6.34 C 6.46 g/m*3 6.34 C 0 km/h
2552 17-10-2010 07:00:00 6.34 C 6.29 g/m*3 6.34 C 0 km/h
2553 17-10-2010 08:00:00 6.58 C 6.17 g/m*3 6.58 C 0 km/h
2554 17-10-2010 09:00:00 6.88 C 6.15 g/m*3 6.88 C 0 km/h
2555 17-10-2010 10:00:00 7.32 C 6.14 g/m*3 7.32 C 0 km/h
2556 17-10-2010 11:00:00 7.7 C 5.98 g/m*3 7.7 C 0 km/h
2557 17-10-2010 12:00:00 7.88 C 5.97 g/m*3 7.88 C 0 km/h
2558 17-10-2010 13:00:00 8.1 C 5.96 g/m*3 8.1 C 0 km/h
2559 17-10-2010 14:00:00 8.36 C 6.14 g/m*3 8.36 C 0 km/h
2560 17-10-2010 15:00:00 8.52 C 6.12 g/m*3 8.52 C 0 km/h
2561 17-10-2010 16:00:00 8.46 C 6.28 g/m*3 8.46 C 0 km/h
2562 17-10-2010 17:00:00 8.3 C 6.32 g/m*3 8.3 C 0 km/h
2563 17-10-2010 18:00:00 7.9 C 6.32 g/m*3 7.9 C 0 km/h
2564 17-10-2010 19:00:00 7.68 C 6.38 g/m*3 7.68 C 0 km/h
2565 17-10-2010 20:00:00 7.68 C 6.43 g/m*3 7.68 C 0 km/h
2566 17-10-2010 21:00:00 7.62 C 6.44 g/m*3 7.62 C 0 km/h
2567 17-10-2010 22:00:00 7.38 C 6.43 g/m*3 7.38 C 0 km/h
2568 17-10-2010 23:00:00 7.04 C 6.31 g/m*3 7.04 C 0 km/h
2569 18-10-2010 00:00:00 6.48 C 6.19 g/m*3 6.48 C 0 km/h
2570 18-10-2010 01:00:00 5.18 C 5.97 g/m*3 5.18 C 0 km/h
2571 18-10-2010 02:00:00 5.8 C 6.35 g/m*3 5.8 C 0 km/h
2572 18-10-2010 03:00:00 6 C 6.3 g/m*3 6 C 0 km/h
2573 18-10-2010 04:00:00 6.02 C 6.25 g/m*3 6.02 C 0 km/h
2574 18-10-2010 05:00:00 5.84 C 6.1 g/m*3 5.84 C 0 km/h
2575 18-10-2010 06:00:00 5.8 C 6.16 g/m*3 5.8 C 0 km/h
Sensor: Nr:Datum:Temp:Abs-Feuchte:Windchill:Wind:
Aussen-T/F 2576 18-10-2010 07:00:00 5.76 C 6.14 g/m*3 5.76 C 0 km/h
2577 18-10-2010 08:00:00 5.78 C 6.2 g/m*3 5.78 C 0 km/h
2578 18-10-2010 09:00:00 6.66 C 6.44 g/m*3 6.66 C 0 km/h
2579 18-10-2010 10:00:00 7.56 C 5.99 g/m*3 7.56 C 0 km/h
2580 18-10-2010 11:00:00 7.76 C 5.06 g/m*3 7.76 C 0 km/h
2581 18-10-2010 12:00:00 8.26 C 4.98 g/m*3 8.26 C 0 km/h
2582 18-10-2010 13:00:00 8.82 C 4.85 g/m*3 8.82 C 0 km/h
2583 18-10-2010 14:00:00 8.88 C 4.86 g/m*3 8.88 C 0 km/h
2584 18-10-2010 15:00:00 8.74 C 4.86 g/m*3 8.74 C 0 km/h
2585 18-10-2010 16:00:00 8.74 C 4.91 g/m*3 8.74 C 0 km/h
2586 18-10-2010 17:00:00 8.52 C 4.86 g/m*3 8.52 C 0 km/h
2587 18-10-2010 18:00:00 7.76 C 4.97 g/m*3 7.76 C 0 km/h
2588 18-10-2010 19:00:00 6.32 C 4.89 g/m*3 6.32 C 0 km/h
2589 18-10-2010 20:00:00 5.6 C 5.05 g/m*3 5.6 C 0 km/h
2590 18-10-2010 21:00:00 5.18 C 5.03 g/m*3 5.18 C 0 km/h
2591 18-10-2010 22:00:00 4.92 C 5.06 g/m*3 4.92 C 0 km/h
2592 18-10-2010 23:00:00 4.86 C 5.17 g/m*3 4.86 C 0 km/h
2593 19-10-2010 00:00:00 5.14 C 5.24 g/m*3 5.14 C 0 km/h
2594 19-10-2010 01:00:00 5.42 C 5.27 g/m*3 5.42 C 0 km/h
2595 19-10-2010 02:00:00 5.5 C 5.32 g/m*3 5.5 C 0 km/h
2596 19-10-2010 03:00:00 4.96 C 5.75 g/m*3 4.96 C 0 km/h
2597 19-10-2010 04:00:00 5.04 C 6.04 g/m*3 5.04 C 0 km/h
2598 19-10-2010 05:00:00 5.42 C 6.06 g/m*3 5.42 C 0 km/h
2599 19-10-2010 06:00:00 5.6 C 6.31 g/m*3 5.6 C 0 km/h
2600 19-10-2010 07:00:00 5.98 C 6.38 g/m*3 5.98 C 0 km/h
Sensor: Nr:Datum:Temp:Abs-Feuchte:Windchill:Wind:
Aussen-T/F 2601 19-10-2010 08:00:00 5.98 C 6.42 g/m*3 5.98 C 0 km/h
2602 19-10-2010 09:00:00 6.54 C 6.62 g/m*3 6.54 C 0 km/h
2603 19-10-2010 10:00:00 7.34 C 6.65 g/m*3 7.34 C 0 km/h
2604 19-10-2010 11:00:00 7.5 C 6.93 g/m*3 7.5 C 0 km/h
2605 19-10-2010 12:00:00 7.98 C 7.08 g/m*3 7.98 C 0 km/h
2606 19-10-2010 13:00:00 9.08 C 7.48 g/m*3 9.08 C 0 km/h
2607 19-10-2010 14:00:00 9.8 C 7.42 g/m*3 9.8 C 0 km/h
2608 19-10-2010 15:00:00 10.34 C 7.37 g/m*3 10.34 C 0 km/h
2609 19-10-2010 16:00:00 12.46 C 7 g/m*3 12.46 C 0 km/h
2610 19-10-2010 17:00:00 10.3 C 7.22 g/m*3 10.3 C 0 km/h
2611 19-10-2010 18:00:00 9.04 C 6.96 g/m*3 9.04 C 0 km/h
2612 19-10-2010 19:00:00 7.98 C 6.85 g/m*3 7.98 C 0 km/h
2613 19-10-2010 20:00:00 7.36 C 6.46 g/m*3 7.36 C 0 km/h
2614 19-10-2010 21:00:00 6.94 C 6.22 g/m*3 6.94 C 0 km/h
2615 19-10-2010 22:00:00 6.52 C 6.16 g/m*3 6.52 C 0 km/h
2616 19-10-2010 23:00:00 6.54 C 6.2 g/m*3 6.54 C 0 km/h
2617 20-10-2010 00:00:00 6.34 C 6.16 g/m*3 6.34 C 0 km/h
2618 20-10-2010 01:00:00 6.38 C 6.16 g/m*3 6.38 C 0 km/h
2619 20-10-2010 02:00:00 5.94 C 6.39 g/m*3 5.94 C 0 km/h
2620 20-10-2010 03:00:00 5.76 C 6.53 g/m*3 5.76 C 0 km/h
2621 20-10-2010 04:00:00 5.84 C 6.51 g/m*3 5.84 C 0 km/h
2622 20-10-2010 05:00:00 5.62 C 6.56 g/m*3 5.62 C 0 km/h
2623 20-10-2010 06:00:00 5.52 C 6.61 g/m*3 5.52 C 0 km/h
2624 20-10-2010 07:00:00 5.5 C 6.64 g/m*3 5.5 C 0 km/h
2625 20-10-2010 08:00:00 5.6 C 6.66 g/m*3 5.6 C 0 km/h
Sensor: Nr:Datum:Temp:Abs-Feuchte:Windchill:Wind:
Aussen-T/F 2626 20-10-2010 09:00:00 6 C 6.84 g/m*3 6 C 0 km/h
2627 20-10-2010 10:00:00 6.92 C 6.95 g/m*3 6.92 C 0 km/h
2628 20-10-2010 11:00:00 6.84 C 6.44 g/m*3 6.84 C 0 km/h
2629 20-10-2010 12:00:00 6.92 C 6.38 g/m*3 6.92 C 0 km/h
2630 20-10-2010 13:00:00 7.92 C 6.2 g/m*3 7.92 C 0 km/h
2631 20-10-2010 14:00:00 9.48 C 5.67 g/m*3 9.48 C 0 km/h
2632 20-10-2010 15:00:00 7.68 C 5.56 g/m*3 7.68 C 0 km/h
2633 20-10-2010 16:00:00 7.36 C 5.06 g/m*3 7.36 C 0 km/h
2634 20-10-2010 17:00:00 7.02 C 4.92 g/m*3 7.02 C 0 km/h
2635 20-10-2010 18:00:00 6.32 C 5.04 g/m*3 6.32 C 0 km/h
2636 20-10-2010 19:00:00 4.64 C 5.24 g/m*3 4.64 C 0 km/h
2637 20-10-2010 20:00:00 4.54 C 5.25 g/m*3 4.54 C 0 km/h
2638 20-10-2010 21:00:00 4.46 C 5.11 g/m*3 4.46 C 0 km/h
2639 20-10-2010 22:00:00 4.48 C 5.07 g/m*3 4.48 C 0 km/h
2640 20-10-2010 23:00:00 4.32 C 5.05 g/m*3 4.32 C 0 km/h
2641 21-10-2010 00:00:00 4.6 C 5.11 g/m*3 4.6 C 0 km/h
2642 21-10-2010 01:00:00 4.44 C 5.04 g/m*3 4.44 C 0 km/h
2643 21-10-2010 02:00:00 3.74 C 4.97 g/m*3 3.74 C 0 km/h
2644 21-10-2010 03:00:00 3.32 C 4.98 g/m*3 3.32 C 0 km/h
2645 21-10-2010 04:00:00 2.64 C 4.9 g/m*3 2.64 C 0 km/h
2646 21-10-2010 05:00:00 1.92 C 4.82 g/m*3 1.92 C 0 km/h
2647 21-10-2010 06:00:00 1.7 C 4.9 g/m*3 1.7 C 0 km/h
2648 21-10-2010 07:00:00 1.66 C 5 g/m*3 1.66 C 0 km/h
2649 21-10-2010 08:00:00 2.1 C 5.14 g/m*3 2.1 C 0 km/h
2650 21-10-2010 09:00:00 3 C 5.24 g/m*3 3 C 0 km/h
Sensor: Nr:Datum:Temp:Abs-Feuchte:Windchill:Wind:
Aussen-T/F 2651 21-10-2010 10:00:00 4.16 C 5.06 g/m*3 4.16 C 0 km/h
2652 21-10-2010 11:00:00 5.64 C 4.99 g/m*3 5.64 C 0 km/h
2653 21-10-2010 12:00:00 6.98 C 4.63 g/m*3 6.98 C 0 km/h
2654 21-10-2010 13:00:00 8.7 C 4.13 g/m*3 8.7 C 0 km/h
2655 21-10-2010 14:00:00 10.38 C 3.87 g/m*3 10.38 C 0 km/h
2656 21-10-2010 15:00:00 10.66 C 3.63 g/m*3 10.66 C 0 km/h
2657 21-10-2010 16:00:00 10.4 C 3.64 g/m*3 10.4 C 0 km/h
2658 21-10-2010 17:00:00 10.96 C 3.55 g/m*3 10.96 C 0 km/h
2659 21-10-2010 18:00:00 7.38 C 3.99 g/m*3 7.38 C 0 km/h
2660 21-10-2010 19:00:00 5.64 C 4.05 g/m*3 5.64 C 0 km/h
2661 21-10-2010 20:00:00 4.86 C 3.96 g/m*3 4.86 C 0 km/h
2662 21-10-2010 21:00:00 4.62 C 3.74 g/m*3 4.62 C 0 km/h
2663 21-10-2010 22:00:00 3.84 C 3.84 g/m*3 3.84 C 0 km/h
2664 21-10-2010 23:00:00 3.14 C 3.89 g/m*3 3.14 C 0 km/h
2665 22-10-2010 00:00:00 2.38 C 4.06 g/m*3 2.38 C 0 km/h
2666 22-10-2010 01:00:00 1.74 C 4.11 g/m*3 1.74 C 0 km/h
2667 22-10-2010 02:00:00 2.12 C 4.09 g/m*3 2.12 C 0 km/h
2668 22-10-2010 03:00:00 2.16 C 4.08 g/m*3 2.16 C 0 km/h
2669 22-10-2010 04:00:00 1.48 C 4.09 g/m*3 1.48 C 0 km/h
2670 22-10-2010 05:00:00 1.38 C 4.11 g/m*3 1.38 C 0 km/h
2671 22-10-2010 06:00:00 1.66 C 4.06 g/m*3 1.66 C 0 km/h
2672 22-10-2010 07:00:00 0.94 C 3.98 g/m*3 0.94 C 0 km/h
2673 22-10-2010 08:00:00 1.28 C 4.04 g/m*3 1.28 C 0 km/h
2674 22-10-2010 09:00:00 2.06 C 4.3 g/m*3 2.06 C 0 km/h
2675 22-10-2010 10:00:00 4.3 C 4.23 g/m*3 4.3 C 0 km/h
Sensor: Nr:Datum:Temp:Abs-Feuchte:Windchill:Wind:
Aussen-T/F 2676 22-10-2010 11:00:00 5.36 C 3.94 g/m*3 5.36 C 0 km/h
2677 22-10-2010 12:00:00 6.56 C 3.9 g/m*3 6.56 C 0 km/h
2678 22-10-2010 13:00:00 7.18 C 3.89 g/m*3 7.18 C 0 km/h
2679 22-10-2010 14:00:00 7.36 C 3.87 g/m*3 7.36 C 0 km/h
2680 22-10-2010 15:00:00 7.22 C 3.82 g/m*3 7.22 C 0 km/h
2681 22-10-2010 16:00:00 7.42 C 4.33 g/m*3 7.42 C 0 km/h
2682 22-10-2010 17:00:00 7.22 C 4.28 g/m*3 7.22 C 0 km/h
2683 22-10-2010 18:00:00 6.18 C 4.1 g/m*3 6.18 C 0 km/h
2684 22-10-2010 19:00:00 6.2 C 3.69 g/m*3 6.2 C 0 km/h
2685 22-10-2010 20:00:00 6.02 C 3.82 g/m*3 6.02 C 0 km/h
2686 22-10-2010 21:00:00 5.72 C 3.9 g/m*3 5.72 C 0 km/h
2687 22-10-2010 22:00:00 4.14 C 4.09 g/m*3 4.14 C 0 km/h
2688 22-10-2010 23:00:00 2.76 C 4.31 g/m*3 2.76 C 0 km/h
2689 23-10-2010 00:00:00 1.7 C 4.3 g/m*3 1.7 C 0 km/h
2690 23-10-2010 01:00:00 1.08 C 4.29 g/m*3 1.08 C 0 km/h
2691 23-10-2010 02:00:00 0.54 C 4.24 g/m*3 0.54 C 0 km/h
2692 23-10-2010 03:00:00 0.1 C 4.19 g/m*3 0.1 C 0 km/h
2693 23-10-2010 04:00:00 -0.34 C 4.14 g/m*3 -0.34 C 0 km/h
2694 23-10-2010 05:00:00 -0.82 C 4.03 g/m*3 -0.82 C 0 km/h
2695 23-10-2010 06:00:00 -1.04 C 4 g/m*3 -1.04 C 0 km/h
2696 23-10-2010 07:00:00 -0.86 C 4.09 g/m*3 -0.86 C 0 km/h
2697 23-10-2010 08:00:00 -0.78 C 4.18 g/m*3 -0.78 C 0 km/h
2698 23-10-2010 09:00:00 -0.82 C 4.14 g/m*3 -0.82 C 0 km/h
2699 23-10-2010 10:00:00 1.06 C 4.78 g/m*3 1.06 C 0 km/h
2700 23-10-2010 11:00:00 4.08 C 5.33 g/m*3 4.08 C 0 km/h
Sensor: Nr:Datum:Temp:Abs-Feuchte:Windchill:Wind:
Aussen-T/F 2701 23-10-2010 12:00:00 6.64 C 5.16 g/m*3 6.64 C 0 km/h
2702 23-10-2010 13:00:00 8.56 C 4.97 g/m*3 8.56 C 0 km/h
2703 23-10-2010 14:00:00 9.08 C 4.25 g/m*3 9.08 C 0 km/h
2704 23-10-2010 15:00:00 8.42 C 4.64 g/m*3 8.42 C 0 km/h
2705 23-10-2010 16:00:00 7.92 C 4.93 g/m*3 7.92 C 0 km/h
2706 23-10-2010 17:00:00 7.88 C 5.35 g/m*3 7.88 C 0 km/h
2707 23-10-2010 18:00:00 8.04 C 5.49 g/m*3 8.04 C 0 km/h
2708 23-10-2010 19:00:00 8.56 C 5.16 g/m*3 8.56 C 0 km/h
2709 23-10-2010 20:00:00 9.14 C 5.27 g/m*3 9.14 C 0 km/h
2710 23-10-2010 21:00:00 9.26 C 5.77 g/m*3 9.26 C 0 km/h
2711 23-10-2010 22:00:00 9.375 C 5.85 g/m*3 9.38 C 0 km/h
2712 23-10-2010 23:00:00 9.32 C 5.67 g/m*3 9.32 C 0 km/h
2713 24-10-2010 00:00:00 9.02 C 5.74 g/m*3 9.02 C 0 km/h
2714 24-10-2010 01:00:00 8.98 C 5.85 g/m*3 8.98 C 0 km/h
2715 24-10-2010 02:00:00 8.46 C 6.28 g/m*3 8.46 C 0 km/h
2716 24-10-2010 03:00:00 8.46 C 6.3 g/m*3 8.46 C 0 km/h
2717 24-10-2010 04:00:00 8.66 C 6.02 g/m*3 8.66 C 0 km/h
2718 24-10-2010 05:00:00 8.5 C 5.98 g/m*3 8.5 C 0 km/h
2719 24-10-2010 06:00:00 7.98 C 6.24 g/m*3 7.98 C 0 km/h
2720 24-10-2010 07:00:00 7.06 C 6.72 g/m*3 7.06 C 0 km/h
2721 24-10-2010 08:00:00 6.96 C 6.91 g/m*3 6.96 C 0 km/h
2722 24-10-2010 09:00:00 7.14 C 7.02 g/m*3 7.14 C 0 km/h
2723 24-10-2010 10:00:00 7 C 6.65 g/m*3 7 C 0 km/h
2724 24-10-2010 11:00:00 8.3 C 5.85 g/m*3 8.3 C 0 km/h
2725 24-10-2010 12:00:00 9.36 C 4.75 g/m*3 9.36 C 0 km/h
Sensor: Nr:Datum:Temp:Abs-Feuchte:Windchill:Wind:
Aussen-T/F 2726 24-10-2010 13:00:00 10.46 C 4.6 g/m*3 10.46 C 0 km/h
2727 24-10-2010 14:00:00 11.62 C 4.29 g/m*3 11.62 C 0 km/h
2728 24-10-2010 15:00:00 12.3 C 4.23 g/m*3 12.3 C 0 km/h
2729 24-10-2010 16:00:00 13.04 C 3.75 g/m*3 13.04 C 0 km/h
2730 24-10-2010 17:00:00 12.02 C 4.01 g/m*3 12.02 C 0 km/h
2731 24-10-2010 18:00:00 9.56 C 4.75 g/m*3 9.56 C 0 km/h
2732 24-10-2010 19:00:00 7.42 C 5.14 g/m*3 7.42 C 0 km/h
2733 24-10-2010 20:00:00 6.48 C 5.18 g/m*3 6.48 C 0 km/h
2734 24-10-2010 21:00:00 6.12 C 5.38 g/m*3 6.12 C 0 km/h
2735 24-10-2010 22:00:00 5.62 C 5.56 g/m*3 5.62 C 0 km/h
2736 24-10-2010 23:00:00 4.84 C 5.49 g/m*3 4.84 C 0 km/h
2737 25-10-2010 00:00:00 4.8 C 5.7 g/m*3 4.8 C 0 km/h
2738 25-10-2010 01:00:00 4.5 C 5.65 g/m*3 4.5 C 0 km/h
2739 25-10-2010 02:00:00 4.42 C 5.69 g/m*3 4.42 C 0 km/h
2740 25-10-2010 03:00:00 4.62 C 5.76 g/m*3 4.62 C 0 km/h
2741 25-10-2010 04:00:00 5.1 C 5.73 g/m*3 5.1 C 0 km/h
2742 25-10-2010 05:00:00 5.1 C 5.62 g/m*3 5.1 C 0 km/h
2743 25-10-2010 06:00:00 5.04 C 5.55 g/m*3 5.04 C 0 km/h
2744 25-10-2010 07:00:00 4.86 C 5.51 g/m*3 4.86 C 0 km/h
2745 25-10-2010 08:00:00 4.9 C 5.52 g/m*3 4.9 C 0 km/h
2746 25-10-2010 09:00:00 5.06 C 5.47 g/m*3 5.06 C 0 km/h
2747 25-10-2010 10:00:00 5.8 C 5.5 g/m*3 5.8 C 0 km/h
2748 25-10-2010 11:00:00 6.54 C 5.44 g/m*3 6.54 C 0 km/h
2749 25-10-2010 12:00:00 7.84 C 5.3 g/m*3 7.84 C 0 km/h
2750 25-10-2010 13:00:00 8.74 C 5.12 g/m*3 8.74 C 0 km/h
Sensor: Nr:Datum:Temp:Abs-Feuchte:Windchill:Wind:
Aussen-T/F 2751 25-10-2010 14:00:00 10.1 C 4.63 g/m*3 10.1 C 0 km/h
2752 25-10-2010 15:00:00 10.4 C 3.91 g/m*3 10.4 C 0 km/h
2753 25-10-2010 16:00:00 10.72 C 3.91 g/m*3 10.72 C 0 km/h
2754 25-10-2010 17:00:00 10.68 C 4.06 g/m*3 10.68 C 0 km/h
2755 25-10-2010 18:00:00 8.36 C 4.25 g/m*3 8.36 C 0 km/h
2756 25-10-2010 19:00:00 6.22 C 4.68 g/m*3 6.22 C 0 km/h
2757 25-10-2010 20:00:00 4.66 C 4.77 g/m*3 4.66 C 0 km/h
2758 25-10-2010 21:00:00 3.92 C 4.92 g/m*3 3.92 C 0 km/h
2759 25-10-2010 22:00:00 3 C 4.83 g/m*3 3 C 0 km/h
2760 25-10-2010 23:00:00 2.28 C 4.79 g/m*3 2.28 C 0 km/h
2761 26-10-2010 00:00:00 1.88 C 4.78 g/m*3 1.88 C 0 km/h
2762 26-10-2010 01:00:00 1.48 C 4.76 g/m*3 1.48 C 0 km/h
2763 26-10-2010 02:00:00 0.82 C 4.64 g/m*3 0.82 C 0 km/h
2764 26-10-2010 03:00:00 0.3 C 4.5 g/m*3 0.3 C 0 km/h
2765 26-10-2010 04:00:00 0.12 C 4.51 g/m*3 0.12 C 0 km/h
2766 26-10-2010 05:00:00 0.08 C 4.56 g/m*3 0.08 C 0 km/h
2767 26-10-2010 06:00:00 0.14 C 4.6 g/m*3 0.14 C 0 km/h
2768 26-10-2010 07:00:00 -0.32 C 4.45 g/m*3 -0.32 C 0 km/h
2769 26-10-2010 08:00:00 -0.42 C 4.42 g/m*3 -0.42 C 0 km/h
2770 26-10-2010 09:00:00 -0.36 C 4.44 g/m*3 -0.36 C 0 km/h
2771 26-10-2010 10:00:00 0.1 C 4.58 g/m*3 0.1 C 0 km/h
2772 26-10-2010 11:00:00 1.22 C 4.82 g/m*3 1.22 C 0 km/h
2773 26-10-2010 12:00:00 3.16 C 5.19 g/m*3 3.16 C 0 km/h
2774 26-10-2010 13:00:00 5.54 C 5.61 g/m*3 5.54 C 0 km/h
2775 26-10-2010 14:00:00 8.88 C 5.51 g/m*3 8.88 C 0 km/h
Sensor: Nr:Datum:Temp:Abs-Feuchte:Windchill:Wind:
Aussen-T/F 2776 26-10-2010 15:00:00 9.72 C 5.28 g/m*3 9.72 C 0 km/h
2777 26-10-2010 16:00:00 9.24 C 5.41 g/m*3 9.24 C 0 km/h
2778 26-10-2010 17:00:00 8.04 C 5.69 g/m*3 8.04 C 0 km/h
2779 26-10-2010 18:00:00 7.08 C 5.64 g/m*3 7.08 C 0 km/h
2780 26-10-2010 19:00:00 6.58 C 5.68 g/m*3 6.58 C 0 km/h
2781 26-10-2010 20:00:00 6.34 C 5.66 g/m*3 6.34 C 0 km/h
2782 26-10-2010 21:00:00 6.06 C 5.58 g/m*3 6.06 C 0 km/h
2783 26-10-2010 22:00:00 5.7 C 5.71 g/m*3 5.7 C 0 km/h
2784 26-10-2010 23:00:00 5.6 C 5.73 g/m*3 5.6 C 0 km/h
2785 27-10-2010 00:00:00 5.16 C 5.6 g/m*3 5.16 C 0 km/h
2786 27-10-2010 01:00:00 5.36 C 5.14 g/m*3 5.36 C 0 km/h
2787 27-10-2010 02:00:00 5.54 C 5.11 g/m*3 5.54 C 0 km/h
2788 27-10-2010 03:00:00 5.48 C 5.26 g/m*3 5.48 C 0 km/h
2789 27-10-2010 04:00:00 5.42 C 5.24 g/m*3 5.42 C 0 km/h
2790 27-10-2010 05:00:00 5.64 C 5.16 g/m*3 5.64 C 0 km/h
2791 27-10-2010 06:00:00 5.68 C 5.22 g/m*3 5.68 C 0 km/h
2792 27-10-2010 07:00:00 5.76 C 5.16 g/m*3 5.76 C 0 km/h
2793 27-10-2010 08:00:00 5.68 C 5.09 g/m*3 5.68 C 0 km/h
2794 27-10-2010 09:00:00 5.84 C 5.65 g/m*3 5.84 C 0 km/h
2795 27-10-2010 10:00:00 7 C 5.8 g/m*3 7 C 0 km/h
2796 27-10-2010 11:00:00 8.22 C 5.45 g/m*3 8.22 C 0 km/h
2797 27-10-2010 12:00:00 9.62 C 4.46 g/m*3 9.62 C 0 km/h
2798 27-10-2010 13:00:00 10.92 C 3.84 g/m*3 10.92 C 0 km/h
2799 27-10-2010 14:00:00 11.06 C 3.64 g/m*3 11.06 C 0 km/h
2800 27-10-2010 15:00:00 11.56 C 3.55 g/m*3 11.56 C 0 km/h
Sensor: Nr:Datum:Temp:Abs-Feuchte:Windchill:Wind:
Aussen-T/F 2801 27-10-2010 16:00:00 11.98 C 3.43 g/m*3 11.98 C 0 km/h
2802 27-10-2010 17:00:00 11.6 C 3.55 g/m*3 11.6 C 0 km/h
2803 27-10-2010 18:00:00 10.44 C 4.27 g/m*3 10.44 C 0 km/h
2804 27-10-2010 19:00:00 10.04 C 4.41 g/m*3 10.04 C 0 km/h
2805 27-10-2010 20:00:00 9.8 C 4.42 g/m*3 9.8 C 0 km/h
2806 27-10-2010 21:00:00 9.56 C 4.71 g/m*3 9.56 C 0 km/h
2807 27-10-2010 22:00:00 9.2 C 4.89 g/m*3 9.2 C 0 km/h
2808 27-10-2010 23:00:00 9.02 C 4.86 g/m*3 9.02 C 0 km/h
2809 28-10-2010 00:00:00 8.66 C 4.87 g/m*3 8.66 C 0 km/h
2810 28-10-2010 01:00:00 8.46 C 4.91 g/m*3 8.46 C 0 km/h
2811 28-10-2010 02:00:00 8.06 C 5.05 g/m*3 8.06 C 0 km/h
2812 28-10-2010 03:00:00 7.62 C 4.86 g/m*3 7.62 C 0 km/h
2813 28-10-2010 04:00:00 7.66 C 5.06 g/m*3 7.66 C 0 km/h
2814 28-10-2010 05:00:00 7.52 C 5.05 g/m*3 7.52 C 0 km/h
2815 28-10-2010 06:00:00 7.98 C 4.41 g/m*3 7.98 C 0 km/h
2816 28-10-2010 07:00:00 8.48 C 4.31 g/m*3 8.48 C 0 km/h
2817 28-10-2010 08:00:00 8.7 C 4.67 g/m*3 8.7 C 0 km/h
2818 28-10-2010 09:00:00 8.86 C 4.91 g/m*3 8.86 C 0 km/h
2819 28-10-2010 10:00:00 7.9 C 6.09 g/m*3 7.9 C 0 km/h
2820 28-10-2010 11:00:00 9.7 C 5.97 g/m*3 9.7 C 0 km/h
2821 28-10-2010 12:00:00 10.72 C 5.78 g/m*3 10.72 C 0 km/h
2822 28-10-2010 13:00:00 11.34 C 5.69 g/m*3 11.34 C 0 km/h
2823 28-10-2010 14:00:00 12.3 C 5.67 g/m*3 12.3 C 0 km/h
2824 28-10-2010 15:00:00 12.72 C 5.66 g/m*3 12.72 C 0 km/h
2825 28-10-2010 16:00:00 11.62 C 6.12 g/m*3 11.62 C 0 km/h
Sensor: Nr:Datum:Temp:Abs-Feuchte:Windchill:Wind:
Aussen-T/F 2826 28-10-2010 17:00:00 11.08 C 6.14 g/m*3 11.08 C 0 km/h
2827 28-10-2010 18:00:00 9.86 C 6.13 g/m*3 9.86 C 0 km/h
2828 28-10-2010 19:00:00 9.18 C 6.22 g/m*3 9.18 C 0 km/h
2829 28-10-2010 20:00:00 9 C 6.24 g/m*3 9 C 0 km/h
2830 28-10-2010 21:00:00 8.38 C 6.3 g/m*3 8.38 C 0 km/h
2831 28-10-2010 22:00:00 7.56 C 6.36 g/m*3 7.56 C 0 km/h
2832 28-10-2010 23:00:00 6.78 C 6.32 g/m*3 6.78 C 0 km/h
2833 29-10-2010 00:00:00 6.26 C 6.26 g/m*3 6.26 C 0 km/h
2834 29-10-2010 01:00:00 6.28 C 6.4 g/m*3 6.28 C 0 km/h
2835 29-10-2010 02:00:00 6.46 C 6.57 g/m*3 6.46 C 0 km/h
2836 29-10-2010 03:00:00 7.23333 C 6.82 g/m*3 7.23 C 0 km/h
2837 02-11-2010 08:00:00 8.77778 C 6.98 g/m*3 8.78 C 0 km/h
2838 02-11-2010 09:00:00 9.9 C 6.85 g/m*3 9.9 C 0 km/h
2839 02-11-2010 10:00:00 11.04 C 6.74 g/m*3 11.04 C 0 km/h
2840 02-11-2010 11:00:00 11.88 C 6.43 g/m*3 11.88 C 0 km/h
2841 02-11-2010 12:00:00 12.52 C 6.49 g/m*3 12.52 C 0 km/h
2842 02-11-2010 13:00:00 12.72 C 6.33 g/m*3 12.72 C 0 km/h
2843 02-11-2010 14:00:00 12.8 C 6.36 g/m*3 12.8 C 0 km/h
2844 02-11-2010 15:00:00 12.92 C 6.39 g/m*3 12.92 C 0 km/h
2845 02-11-2010 16:00:00 12.34 C 6.44 g/m*3 12.34 C 0 km/h
2846 02-11-2010 17:00:00 11.34 C 6.61 g/m*3 11.34 C 0 km/h
2847 02-11-2010 18:00:00 11.22 C 6.66 g/m*3 11.22 C 0 km/h
2848 02-11-2010 19:00:00 11.46 C 6.66 g/m*3 11.46 C 0 km/h
2849 02-11-2010 20:00:00 11 C 7.01 g/m*3 11 C 0 km/h
2850 02-11-2010 21:00:00 10.94 C 7.18 g/m*3 10.94 C 0 km/h
Sensor: Nr:Datum:Temp:Abs-Feuchte:Windchill:Wind:
Aussen-T/F 2851 02-11-2010 22:00:00 11.08 C 7.42 g/m*3 11.08 C 0 km/h
2852 02-11-2010 23:00:00 11.14 C 7.57 g/m*3 11.14 C 0 km/h
2853 03-11-2010 00:00:00 11.32 C 7.66 g/m*3 11.32 C 0 km/h
2854 03-11-2010 01:00:00 10.88 C 7.49 g/m*3 10.88 C 0 km/h
2855 03-11-2010 02:00:00 11.68 C 7.56 g/m*3 11.68 C 0 km/h
2856 03-11-2010 03:00:00 12.06 C 7.34 g/m*3 12.06 C 0 km/h
2857 03-11-2010 04:00:00 12.44 C 7.47 g/m*3 12.44 C 0 km/h
2858 03-11-2010 05:00:00 12.72 C 7.49 g/m*3 12.72 C 0 km/h
2859 03-11-2010 06:00:00 12.66 C 7.62 g/m*3 12.66 C 0 km/h
2860 03-11-2010 07:00:00 12.76 C 7.66 g/m*3 12.76 C 0 km/h
2861 03-11-2010 08:00:00 13.28 C 7.57 g/m*3 13.28 C 0 km/h
2862 03-11-2010 09:00:00 13.78 C 7.64 g/m*3 13.78 C 0 km/h
2863 03-11-2010 10:00:00 14.2 C 7.55 g/m*3 14.2 C 0 km/h
2864 03-11-2010 11:00:00 14.42 C 7.65 g/m*3 14.42 C 0 km/h
2865 03-11-2010 12:00:00 13.94 C 7.74 g/m*3 13.94 C 0 km/h
2866 03-11-2010 13:00:00 13.54 C 7.83 g/m*3 13.54 C 0 km/h
2867 03-11-2010 14:00:00 13.66 C 7.94 g/m*3 13.66 C 0 km/h
2868 03-11-2010 15:00:00 13.78 C 8.07 g/m*3 13.78 C 0 km/h
2869 03-11-2010 16:00:00 13.46 C 8.1 g/m*3 13.46 C 0 km/h
2870 03-11-2010 17:00:00 13.06 C 8.2 g/m*3 13.06 C 0 km/h
2871 03-11-2010 18:00:00 12.66 C 8.31 g/m*3 12.66 C 0 km/h
2872 03-11-2010 19:00:00 12.96 C 8.26 g/m*3 12.96 C 0 km/h
2873 03-11-2010 20:00:00 13.38 C 8.2 g/m*3 13.38 C 0 km/h
2874 03-11-2010 21:00:00 13.54 C 8.16 g/m*3 13.54 C 0 km/h
2875 03-11-2010 22:00:00 14.1 C 8.16 g/m*3 14.1 C 0 km/h
Sensor: Nr:Datum:Temp:Abs-Feuchte:Windchill:Wind:
Aussen-T/F 2876 03-11-2010 23:00:00 14.2 C 8.4 g/m*3 14.2 C 0 km/h
2877 04-11-2010 00:00:00 14.3 C 8.77 g/m*3 14.3 C 0 km/h
2878 04-11-2010 01:00:00 14.74 C 9.06 g/m*3 14.74 C 0 km/h
2879 04-11-2010 02:00:00 14.96 C 9.06 g/m*3 14.96 C 0 km/h
2880 04-11-2010 03:00:00 15.16 C 9.12 g/m*3 15.16 C 0 km/h
2881 04-11-2010 04:00:00 15.22 C 9.3 g/m*3 15.22 C 0 km/h
2882 04-11-2010 05:00:00 15.54 C 9.41 g/m*3 15.54 C 0 km/h
2883 04-11-2010 06:00:00 15.7 C 9.61 g/m*3 15.7 C 0 km/h
2884 04-11-2010 07:00:00 15.92 C 9.52 g/m*3 15.92 C 0 km/h
2885 04-11-2010 08:00:00 16.2 C 9.43 g/m*3 16.2 C 0 km/h
2886 04-11-2010 09:00:00 16.64 C 9.06 g/m*3 16.64 C 0 km/h
2887 04-11-2010 10:00:00 17.24 C 8.84 g/m*3 17.24 C 0 km/h
2888 04-11-2010 11:00:00 17.82 C 8.45 g/m*3 17.82 C 0 km/h
2889 04-11-2010 12:00:00 18.44 C 8.17 g/m*3 18.44 C 0 km/h
2890 04-11-2010 13:00:00 18.54 C 8.18 g/m*3 18.54 C 0 km/h
2891 04-11-2010 14:00:00 18.44 C 8.01 g/m*3 18.44 C 0 km/h
2892 04-11-2010 15:00:00 18.24 C 8.13 g/m*3 18.24 C 0 km/h
2893 04-11-2010 16:00:00 17.52 C 8.42 g/m*3 17.52 C 0 km/h
2894 04-11-2010 17:00:00 16.92 C 8.44 g/m*3 16.92 C 0 km/h
2895 04-11-2010 18:00:00 16.78 C 8.43 g/m*3 16.78 C 0 km/h
2896 04-11-2010 19:00:00 16.92 C 8.47 g/m*3 16.92 C 0 km/h
2897 04-11-2010 20:00:00 16.12 C 8.12 g/m*3 16.12 C 0 km/h
2898 04-11-2010 21:00:00 15.74 C 8.05 g/m*3 15.74 C 0 km/h
2899 04-11-2010 22:00:00 15.38 C 7.87 g/m*3 15.38 C 0 km/h
2900 04-11-2010 23:00:00 15.4 C 7.88 g/m*3 15.4 C 0 km/h
Sensor: Nr:Datum:Temp:Abs-Feuchte:Windchill:Wind:
Aussen-T/F 2901 05-11-2010 00:00:00 15.34 C 7.88 g/m*3 15.34 C 0 km/h
2902 05-11-2010 01:00:00 15.14 C 7.53 g/m*3 15.14 C 0 km/h
2903 05-11-2010 02:00:00 14.74 C 7.45 g/m*3 14.74 C 0 km/h
2904 05-11-2010 03:00:00 14.46 C 7.37 g/m*3 14.46 C 0 km/h
2905 05-11-2010 04:00:00 14.2 C 7.38 g/m*3 14.2 C 0 km/h
2906 05-11-2010 05:00:00 14.14 C 7.18 g/m*3 14.14 C 0 km/h
2907 05-11-2010 06:00:00 13.82 C 7.13 g/m*3 13.82 C 0 km/h
2908 05-11-2010 07:00:00 13.46 C 6.95 g/m*3 13.46 C 0 km/h
2909 05-11-2010 08:00:00 13.88 C 6.61 g/m*3 13.88 C 0 km/h
2910 05-11-2010 09:00:00 14.52 C 6.72 g/m*3 14.52 C 0 km/h
2911 05-11-2010 10:00:00 14.9 C 6.88 g/m*3 14.9 C 0 km/h
2912 05-11-2010 11:00:00 15.22 C 6.99 g/m*3 15.22 C 0 km/h
2913 05-11-2010 12:00:00 15.14 C 7.09 g/m*3 15.14 C 0 km/h
2914 05-11-2010 13:00:00 15.1 C 7.1 g/m*3 15.1 C 0 km/h
2915 05-11-2010 14:00:00 14.8 C 7.4 g/m*3 14.8 C 0 km/h
2916 05-11-2010 15:00:00 14.6 C 7.48 g/m*3 14.6 C 0 km/h
2917 05-11-2010 16:00:00 14.56 C 7.49 g/m*3 14.56 C 0 km/h
2918 05-11-2010 17:00:00 14.64 C 7.55 g/m*3 14.64 C 0 km/h
2919 05-11-2010 18:00:00 14.76 C 7.58 g/m*3 14.76 C 0 km/h
2920 05-11-2010 19:00:00 14.36 C 7.57 g/m*3 14.36 C 0 km/h
2921 05-11-2010 20:00:00 14.44 C 7.58 g/m*3 14.44 C 0 km/h
2922 05-11-2010 21:00:00 14.28 C 7.61 g/m*3 14.28 C 0 km/h
2923 05-11-2010 22:00:00 14.02 C 7.58 g/m*3 14.02 C 0 km/h
2924 05-11-2010 23:00:00 13.94 C 7.57 g/m*3 13.94 C 0 km/h
2925 06-11-2010 00:00:00 14.04 C 7.57 g/m*3 14.04 C 0 km/h
Sensor: Nr:Datum:Temp:Abs-Feuchte:Windchill:Wind:
Aussen-T/F 2926 06-11-2010 01:00:00 14.02 C 7.61 g/m*3 14.02 C 0 km/h
2927 06-11-2010 02:00:00 13.38 C 7.69 g/m*3 13.38 C 0 km/h
2928 06-11-2010 03:00:00 12.9 C 7.98 g/m*3 12.9 C 0 km/h
2929 06-11-2010 04:00:00 12.78 C 8.12 g/m*3 12.78 C 0 km/h
2930 06-11-2010 05:00:00 13.12 C 8 g/m*3 13.12 C 0 km/h
2931 06-11-2010 06:00:00 13.46 C 7.86 g/m*3 13.46 C 0 km/h
2932 06-11-2010 07:00:00 13.48 C 7.57 g/m*3 13.48 C 0 km/h
2933 06-11-2010 08:00:00 13.34 C 7.5 g/m*3 13.34 C 0 km/h
2934 06-11-2010 09:00:00 11.92 C 7.55 g/m*3 11.92 C 0 km/h
2935 06-11-2010 10:00:00 10.18 C 7.93 g/m*3 10.18 C 0 km/h
2936 06-11-2010 11:00:00 10.58 C 8.19 g/m*3 10.58 C 0 km/h
2937 06-11-2010 12:00:00 9.78 C 7.67 g/m*3 9.78 C 0 km/h
2938 06-11-2010 13:00:00 9.08 C 7.46 g/m*3 9.08 C 0 km/h
2939 06-11-2010 14:00:00 8.92 C 7.67 g/m*3 8.92 C 0 km/h
2940 06-11-2010 15:00:00 8.64 C 7.67 g/m*3 8.64 C 0 km/h
2941 06-11-2010 16:00:00 8.2 C 7.54 g/m*3 8.2 C 0 km/h
2942 06-11-2010 17:00:00 7.84 C 7.49 g/m*3 7.84 C 0 km/h
2943 06-11-2010 18:00:00 7.44 C 7.34 g/m*3 7.44 C 0 km/h
2944 06-11-2010 19:00:00 7.42 C 7.41 g/m*3 7.42 C 0 km/h
2945 06-11-2010 20:00:00 7.2 C 7.3 g/m*3 7.2 C 0 km/h
2946 06-11-2010 21:00:00 7.26 C 7.33 g/m*3 7.26 C 0 km/h
2947 06-11-2010 22:00:00 7.48 C 7.43 g/m*3 7.48 C 0 km/h
2948 06-11-2010 23:00:00 7.36 C 7.38 g/m*3 7.36 C 0 km/h
2949 07-11-2010 00:00:00 7.22 C 7.31 g/m*3 7.22 C 0 km/h
2950 07-11-2010 01:00:00 7.18 C 7.29 g/m*3 7.18 C 0 km/h
Sensor: Nr:Datum:Temp:Abs-Feuchte:Windchill:Wind:
Aussen-T/F 2951 07-11-2010 02:00:00 6.98 C 7.24 g/m*3 6.98 C 0 km/h
2952 07-11-2010 03:00:00 7.3 C 7.4 g/m*3 7.3 C 0 km/h
2953 07-11-2010 04:00:00 7.18 C 7.34 g/m*3 7.18 C 0 km/h
2954 07-11-2010 05:00:00 6.8 C 7.19 g/m*3 6.8 C 0 km/h
2955 07-11-2010 06:00:00 6.48 C 7.04 g/m*3 6.48 C 0 km/h
2956 07-11-2010 07:00:00 6.7 C 7.14 g/m*3 6.7 C 0 km/h
2957 07-11-2010 08:00:00 7.16 C 7.28 g/m*3 7.16 C 0 km/h
2958 07-11-2010 09:00:00 7.46 C 7.47 g/m*3 7.46 C 0 km/h
2959 07-11-2010 10:00:00 7.82 C 7.68 g/m*3 7.82 C 0 km/h
2960 07-11-2010 11:00:00 8.06 C 7.67 g/m*3 8.06 C 0 km/h
2961 07-11-2010 12:00:00 8.74 C 7.87 g/m*3 8.74 C 0 km/h
2962 07-11-2010 13:00:00 8.48 C 7.5 g/m*3 8.48 C 0 km/h
2963 07-11-2010 14:00:00 8.22 C 7.43 g/m*3 8.22 C 0 km/h
2964 07-11-2010 15:00:00 7.5 C 7.17 g/m*3 7.5 C 0 km/h
2965 07-11-2010 16:00:00 6.82 C 6.97 g/m*3 6.82 C 0 km/h
2966 07-11-2010 17:00:00 6.76 C 7.02 g/m*3 6.76 C 0 km/h
2967 07-11-2010 18:00:00 6.58 C 6.94 g/m*3 6.58 C 0 km/h
2968 07-11-2010 19:00:00 5.72 C 6.61 g/m*3 5.72 C 0 km/h
2969 07-11-2010 20:00:00 5.18 C 6.4 g/m*3 5.18 C 0 km/h
2970 07-11-2010 21:00:00 4.98 C 6.32 g/m*3 4.98 C 0 km/h
2971 07-11-2010 22:00:00 4.9 C 6.32 g/m*3 4.9 C 0 km/h
2972 07-11-2010 23:00:00 4.64 C 6.22 g/m*3 4.64 C 0 km/h
2973 08-11-2010 00:00:00 4.04 C 5.95 g/m*3 4.04 C 0 km/h
2974 08-11-2010 01:00:00 4.12 C 5.97 g/m*3 4.12 C 0 km/h
2975 08-11-2010 02:00:00 4.04 C 5.97 g/m*3 4.04 C 0 km/h
Sensor: Nr:Datum:Temp:Abs-Feuchte:Windchill:Wind:
Aussen-T/F 2976 08-11-2010 03:00:00 4.46 C 6.16 g/m*3 4.46 C 0 km/h
2977 08-11-2010 04:00:00 4.4 C 6.14 g/m*3 4.4 C 0 km/h
2978 08-11-2010 05:00:00 4.6 C 6.22 g/m*3 4.6 C 0 km/h
2979 08-11-2010 06:00:00 4.86 C 6.33 g/m*3 4.86 C 0 km/h
2980 08-11-2010 07:00:00 4.74 C 6.26 g/m*3 4.74 C 0 km/h
2981 08-11-2010 08:00:00 4.96 C 6.34 g/m*3 4.96 C 0 km/h
2982 08-11-2010 09:00:00 5.84 C 6.58 g/m*3 5.84 C 0 km/h
2983 08-11-2010 10:00:00 7.08 C 6.5 g/m*3 7.08 C 0 km/h
2984 08-11-2010 11:00:00 7.26 C 5.75 g/m*3 7.26 C 0 km/h
2985 08-11-2010 12:00:00 6.78 C 5.3 g/m*3 6.78 C 0 km/h
2986 08-11-2010 13:00:00 7.24 C 5.15 g/m*3 7.24 C 0 km/h
2987 08-11-2010 14:00:00 6.88 C 4.74 g/m*3 6.88 C 0 km/h
2988 08-11-2010 15:00:00 5.6 C 4.67 g/m*3 5.6 C 0 km/h
2989 08-11-2010 16:00:00 2.98 C 4.87 g/m*3 2.98 C 0 km/h
2990 08-11-2010 17:00:00 2.08 C 4.85 g/m*3 2.08 C 0 km/h
2991 08-11-2010 18:00:00 1.46 C 4.79 g/m*3 1.46 C 0 km/h
2992 08-11-2010 19:00:00 2.26 C 5.11 g/m*3 2.26 C 0 km/h
2993 08-11-2010 20:00:00 3.5 C 5.42 g/m*3 3.5 C 0 km/h
2994 08-11-2010 21:00:00 3.9 C 5.56 g/m*3 3.9 C 0 km/h
2995 08-11-2010 22:00:00 4.22 C 5.72 g/m*3 4.22 C 0 km/h
2996 08-11-2010 23:00:00 4.44 C 5.62 g/m*3 4.44 C 0 km/h
2997 09-11-2010 00:00:00 4.24 C 5.65 g/m*3 4.24 C 0 km/h
2998 09-11-2010 01:00:00 4.2 C 5.73 g/m*3 4.2 C 0 km/h
2999 09-11-2010 02:00:00 4.2 C 5.79 g/m*3 4.2 C 0 km/h
3000 09-11-2010 03:00:00 4.46 C 5.97 g/m*3 4.46 C 0 km/h
Sensor: Nr:Datum:Temp:Abs-Feuchte:Windchill:Wind:
Aussen-T/F 3001 09-11-2010 04:00:00 4.44 C 5.96 g/m*3 4.44 C 0 km/h
3002 09-11-2010 05:00:00 4.74 C 6.08 g/m*3 4.74 C 0 km/h
3003 09-11-2010 06:00:00 5.1 C 6.16 g/m*3 5.1 C 0 km/h
3004 09-11-2010 07:00:00 5.58 C 6.24 g/m*3 5.58 C 0 km/h
3005 09-11-2010 08:00:00 6.42 C 6.09 g/m*3 6.42 C 0 km/h
3006 09-11-2010 09:00:00 6.9 C 6.1 g/m*3 6.9 C 0 km/h
3007 09-11-2010 10:00:00 7.9 C 6.26 g/m*3 7.9 C 0 km/h
3008 09-11-2010 11:00:00 9.16 C 6.29 g/m*3 9.16 C 0 km/h
3009 09-11-2010 12:00:00 9.52 C 6.43 g/m*3 9.52 C 0 km/h
3010 09-11-2010 13:00:00 9.66 C 6.47 g/m*3 9.66 C 0 km/h
3011 09-11-2010 14:00:00 8.86 C 6.85 g/m*3 8.86 C 0 km/h
3012 09-11-2010 15:00:00 8.42 C 7.07 g/m*3 8.42 C 0 km/h
3013 09-11-2010 16:00:00 7.92 C 7.19 g/m*3 7.92 C 0 km/h
3014 09-11-2010 17:00:00 7.3 C 7.05 g/m*3 7.3 C 0 km/h
3015 09-11-2010 18:00:00 6.64 C 6.83 g/m*3 6.64 C 0 km/h
3016 09-11-2010 19:00:00 6.86 C 7.02 g/m*3 6.86 C 0 km/h
3017 09-11-2010 20:00:00 6.78 C 7.03 g/m*3 6.78 C 0 km/h
3018 09-11-2010 21:00:00 6.84 C 7.05 g/m*3 6.84 C 0 km/h
3019 09-11-2010 22:00:00 6.78 C 7.03 g/m*3 6.78 C 0 km/h
3020 09-11-2010 23:00:00 6.84 C 7.05 g/m*3 6.84 C 0 km/h
3021 10-11-2010 00:00:00 6.56 C 6.93 g/m*3 6.56 C 0 km/h
3022 10-11-2010 01:00:00 6.92 C 7.14 g/m*3 6.92 C 0 km/h
3023 10-11-2010 02:00:00 6.9 C 7.14 g/m*3 6.9 C 0 km/h
3024 10-11-2010 03:00:00 7.1 C 7.18 g/m*3 7.1 C 0 km/h
3025 10-11-2010 04:00:00 6.88 C 7.12 g/m*3 6.88 C 0 km/h
Sensor: Nr:Datum:Temp:Abs-Feuchte:Windchill:Wind:
Aussen-T/F 3026 10-11-2010 05:00:00 6.9 C 7.13 g/m*3 6.9 C 0 km/h
3027 10-11-2010 06:00:00 6.82 C 7.09 g/m*3 6.82 C 0 km/h
3028 10-11-2010 07:00:00 6.34 C 6.87 g/m*3 6.34 C 0 km/h
3029 10-11-2010 08:00:00 6.72 C 7.05 g/m*3 6.72 C 0 km/h
3030 10-11-2010 09:00:00 8.22 C 7.56 g/m*3 8.22 C 0 km/h
3031 10-11-2010 10:00:00 9.6 C 6.93 g/m*3 9.6 C 0 km/h
3032 10-11-2010 11:00:00 9.64 C 6.48 g/m*3 9.64 C 0 km/h
3033 10-11-2010 12:00:00 10.18 C 6.48 g/m*3 10.18 C 0 km/h
3034 10-11-2010 13:00:00 11.08 C 6.16 g/m*3 11.08 C 0 km/h
3035 10-11-2010 14:00:00 10.52 C 6.02 g/m*3 10.52 C 0 km/h
3036 10-11-2010 15:00:00 7.86 C 6.41 g/m*3 7.86 C 0 km/h
3037 10-11-2010 16:00:00 6.24 C 6.18 g/m*3 6.24 C 0 km/h
3038 10-11-2010 17:00:00 5.94 C 5.81 g/m*3 5.94 C 0 km/h
3039 10-11-2010 18:00:00 5.22 C 5.67 g/m*3 5.22 C 0 km/h
3040 10-11-2010 19:00:00 5.2 C 5.63 g/m*3 5.2 C 0 km/h
3041 10-11-2010 20:00:00 5.34 C 5.5 g/m*3 5.34 C 0 km/h
3042 10-11-2010 21:00:00 4.46 C 5.52 g/m*3 4.46 C 0 km/h
3043 10-11-2010 22:00:00 4.55 C 5.59 g/m*3 4.55 C 0 km/h
3044 10-11-2010 23:00:00 4.3 C 5.34 g/m*3 4.3 C 0 km/h
3045 11-11-2010 00:00:00 4.6 C 5.29 g/m*3 4.6 C 0 km/h
3046 11-11-2010 01:00:00 4.5 C 5.44 g/m*3 4.5 C 0 km/h
3047 11-11-2010 02:00:00 5.02 C 5.42 g/m*3 5.02 C 0 km/h
3048 11-11-2010 03:00:00 4.84 C 5.23 g/m*3 4.84 C 0 km/h
3049 11-11-2010 04:00:00 4.3 C 5.24 g/m*3 4.3 C 0 km/h
3050 11-11-2010 05:00:00 4.12 C 5.2 g/m*3 4.12 C 0 km/h
Sensor: Nr:Datum:Temp:Abs-Feuchte:Windchill:Wind:
Aussen-T/F 3051 11-11-2010 06:00:00 3.7 C 5.01 g/m*3 3.7 C 0 km/h
3052 11-11-2010 07:00:00 3.56 C 4.98 g/m*3 3.56 C 0 km/h
3053 11-11-2010 08:00:00 2.32 C 4.71 g/m*3 2.32 C 0 km/h
3054 11-11-2010 09:00:00 3.66 C 5.28 g/m*3 3.66 C 0 km/h
3055 11-11-2010 10:00:00 5.58 C 4.59 g/m*3 5.58 C 0 km/h
3056 11-11-2010 11:00:00 6.94 C 3.78 g/m*3 6.94 C 0 km/h
3057 11-11-2010 12:00:00 7.46 C 3.98 g/m*3 7.46 C 0 km/h
3058 11-11-2010 13:00:00 7.7 C 4.15 g/m*3 7.7 C 0 km/h
3059 11-11-2010 14:00:00 7.36 C 4.24 g/m*3 7.36 C 0 km/h
3060 11-11-2010 15:00:00 6.8 C 4.45 g/m*3 6.8 C 0 km/h
3061 11-11-2010 16:00:00 5.54 C 5.08 g/m*3 5.54 C 0 km/h
3062 11-11-2010 17:00:00 5.28 C 5.48 g/m*3 5.28 C 0 km/h
3063 11-11-2010 18:00:00 5.64 C 5.87 g/m*3 5.64 C 0 km/h
3064 11-11-2010 19:00:00 6.22 C 6.27 g/m*3 6.22 C 0 km/h
3065 11-11-2010 20:00:00 7.5 C 6.34 g/m*3 7.5 C 0 km/h
3066 11-11-2010 21:00:00 8.44 C 6.57 g/m*3 8.44 C 0 km/h
3067 11-11-2010 22:00:00 9.34 C 7.23 g/m*3 9.34 C 0 km/h
3068 11-11-2010 23:00:00 9.78 C 7.69 g/m*3 9.78 C 0 km/h
3069 12-11-2010 00:00:00 9.74 C 6.82 g/m*3 9.74 C 0 km/h
3070 12-11-2010 01:00:00 9.84 C 5.93 g/m*3 9.84 C 0 km/h
3071 12-11-2010 02:00:00 9.88 C 5.63 g/m*3 9.88 C 0 km/h
3072 12-11-2010 03:00:00 9.6 C 5.81 g/m*3 9.6 C 0 km/h
3073 12-11-2010 04:00:00 9.8 C 5.6 g/m*3 9.8 C 0 km/h
3074 12-11-2010 05:00:00 9.94 C 5.77 g/m*3 9.94 C 0 km/h
3075 12-11-2010 06:00:00 10.62 C 5.77 g/m*3 10.62 C 0 km/h
Sensor: Nr:Datum:Temp:Abs-Feuchte:Windchill:Wind:
Aussen-T/F 3076 12-11-2010 07:00:00 10.62 C 5.8 g/m*3 10.62 C 0 km/h
3077 12-11-2010 08:00:00 10.7 C 5.81 g/m*3 10.7 C 0 km/h
3078 12-11-2010 09:00:00 10.84 C 5.85 g/m*3 10.84 C 0 km/h
3079 12-11-2010 10:00:00 10.7 C 6.11 g/m*3 10.7 C 0 km/h
3080 12-11-2010 11:00:00 11.42 C 6.08 g/m*3 11.42 C 0 km/h
3081 12-11-2010 12:00:00 11.88 C 5.99 g/m*3 11.88 C 0 km/h
3082 12-11-2010 13:00:00 11.64 C 6.29 g/m*3 11.64 C 0 km/h
3083 12-11-2010 14:00:00 11.6 C 6.55 g/m*3 11.6 C 0 km/h
3084 12-11-2010 15:00:00 11.6 C 6.57 g/m*3 11.6 C 0 km/h
3085 12-11-2010 16:00:00 11.54 C 6.73 g/m*3 11.54 C 0 km/h
3086 12-11-2010 17:00:00 11.16 C 7.2 g/m*3 11.16 C 0 km/h
3087 12-11-2010 18:00:00 10.48 C 7.73 g/m*3 10.48 C 0 km/h
3088 12-11-2010 19:00:00 10.52 C 8.29 g/m*3 10.52 C 0 km/h
3089 12-11-2010 20:00:00 11.52 C 8.77 g/m*3 11.52 C 0 km/h
3090 12-11-2010 21:00:00 12.16 C 9.28 g/m*3 12.16 C 0 km/h
3091 12-11-2010 22:00:00 13.3 C 9.22 g/m*3 13.3 C 0 km/h
3092 12-11-2010 23:00:00 13.88 C 8.69 g/m*3 13.88 C 0 km/h
3093 13-11-2010 00:00:00 13.82 C 8.85 g/m*3 13.82 C 0 km/h
3094 13-11-2010 01:00:00 13.86 C 9.06 g/m*3 13.86 C 0 km/h
3095 13-11-2010 02:00:00 13.78 C 9.28 g/m*3 13.78 C 0 km/h
3096 13-11-2010 03:00:00 14.2 C 9.33 g/m*3 14.2 C 0 km/h
3097 13-11-2010 04:00:00 14.14 C 9.25 g/m*3 14.14 C 0 km/h
3098 13-11-2010 05:00:00 14.5 C 9.1 g/m*3 14.5 C 0 km/h
3099 13-11-2010 06:00:00 14.62 C 9.05 g/m*3 14.62 C 0 km/h
3100 13-11-2010 07:00:00 14.72 C 9 g/m*3 14.72 C 0 km/h
Sensor: Nr:Datum:Temp:Abs-Feuchte:Windchill:Wind:
Aussen-T/F 3101 13-11-2010 08:00:00 14.72 C 9 g/m*3 14.72 C 0 km/h
3102 13-11-2010 09:00:00 14.18 C 9.15 g/m*3 14.18 C 0 km/h
3103 13-11-2010 10:00:00 14.32 C 9.23 g/m*3 14.32 C 0 km/h
3104 13-11-2010 11:00:00 14.76 C 9 g/m*3 14.76 C 0 km/h
3105 13-11-2010 12:00:00 14.8 C 8.84 g/m*3 14.8 C 0 km/h
3106 13-11-2010 13:00:00 14.76 C 8.85 g/m*3 14.76 C 0 km/h
3107 13-11-2010 14:00:00 14.78 C 8.68 g/m*3 14.78 C 0 km/h
3108 13-11-2010 15:00:00 14.82 C 8.55 g/m*3 14.82 C 0 km/h
3109 13-11-2010 16:00:00 14.68 C 8.68 g/m*3 14.68 C 0 km/h
3110 13-11-2010 17:00:00 14.26 C 8.75 g/m*3 14.26 C 0 km/h
3111 13-11-2010 18:00:00 14.68 C 8.7 g/m*3 14.68 C 0 km/h
3112 13-11-2010 19:00:00 14.94 C 8.51 g/m*3 14.94 C 0 km/h
3113 13-11-2010 20:00:00 15 C 8.28 g/m*3 15 C 0 km/h
3114 13-11-2010 21:00:00 14.52 C 8.39 g/m*3 14.52 C 0 km/h
3115 13-11-2010 22:00:00 14.86 C 8.11 g/m*3 14.86 C 0 km/h
3116 13-11-2010 23:00:00 14.74 C 8.05 g/m*3 14.74 C 0 km/h
3117 14-11-2010 00:00:00 15.08 C 8.07 g/m*3 15.08 C 0 km/h
3118 14-11-2010 01:00:00 14.24 C 8.27 g/m*3 14.24 C 0 km/h
3119 14-11-2010 02:00:00 13.58 C 8.7 g/m*3 13.58 C 0 km/h
3120 14-11-2010 03:00:00 14.36 C 8.39 g/m*3 14.36 C 0 km/h
3121 14-11-2010 04:00:00 14.02 C 8.38 g/m*3 14.02 C 0 km/h
3122 14-11-2010 05:00:00 13.9 C 8.46 g/m*3 13.9 C 0 km/h
3123 14-11-2010 06:00:00 13.42 C 8.36 g/m*3 13.42 C 0 km/h
3124 14-11-2010 07:00:00 11.92 C 8 g/m*3 11.92 C 0 km/h
3125 14-11-2010 08:00:00 12.66 C 7.53 g/m*3 12.66 C 0 km/h
Sensor: Nr:Datum:Temp:Abs-Feuchte:Windchill:Wind:
Aussen-T/F 3126 14-11-2010 09:00:00 14.28 C 7.24 g/m*3 14.28 C 0 km/h
3127 14-11-2010 10:00:00 15.02 C 7.22 g/m*3 15.02 C 0 km/h
3128 14-11-2010 11:00:00 15.44 C 7.22 g/m*3 15.44 C 0 km/h
3129 14-11-2010 12:00:00 16.16 C 7.4 g/m*3 16.16 C 0 km/h
3130 14-11-2010 13:00:00 17.46 C 7.44 g/m*3 17.46 C 0 km/h
3131 14-11-2010 14:00:00 17.64 C 7.25 g/m*3 17.64 C 0 km/h
3132 14-11-2010 15:00:00 17.7 C 7.12 g/m*3 17.7 C 0 km/h
3133 14-11-2010 16:00:00 15.72 C 7.64 g/m*3 15.72 C 0 km/h
3134 14-11-2010 17:00:00 14.74 C 8.13 g/m*3 14.74 C 0 km/h
3135 14-11-2010 18:00:00 14.16 C 8.02 g/m*3 14.16 C 0 km/h
3136 14-11-2010 19:00:00 13.96 C 7.89 g/m*3 13.96 C 0 km/h
3137 14-11-2010 20:00:00 14.02 C 7.68 g/m*3 14.02 C 0 km/h
3138 14-11-2010 21:00:00 13.92 C 7.27 g/m*3 13.92 C 0 km/h
3139 14-11-2010 22:00:00 13.78 C 7.09 g/m*3 13.78 C 0 km/h
3140 14-11-2010 23:00:00 13.42 C 6.94 g/m*3 13.42 C 0 km/h
3141 15-11-2010 00:00:00 12.88 C 6.98 g/m*3 12.88 C 0 km/h
3142 15-11-2010 01:00:00 12.22 C 6.91 g/m*3 12.22 C 0 km/h
3143 15-11-2010 02:00:00 11.78 C 6.92 g/m*3 11.78 C 0 km/h
3144 15-11-2010 03:00:00 10.9 C 7.02 g/m*3 10.9 C 0 km/h
3145 15-11-2010 04:00:00 10.24 C 6.95 g/m*3 10.24 C 0 km/h
3146 15-11-2010 05:00:00 9.92 C 6.53 g/m*3 9.92 C 0 km/h
3147 15-11-2010 06:00:00 9.34 C 6.27 g/m*3 9.34 C 0 km/h
3148 15-11-2010 07:00:00 8.96 C 6.42 g/m*3 8.96 C 0 km/h
3149 15-11-2010 08:00:00 9.1 C 6.28 g/m*3 9.1 C 0 km/h
3150 15-11-2010 09:00:00 9.16 C 6.07 g/m*3 9.16 C 0 km/h
Sensor: Nr:Datum:Temp:Abs-Feuchte:Windchill:Wind:
Aussen-T/F 3151 15-11-2010 10:00:00 9.82 C 5.87 g/m*3 9.82 C 0 km/h
3152 15-11-2010 11:00:00 10.3 C 5.75 g/m*3 10.3 C 0 km/h
3153 15-11-2010 12:00:00 10.84 C 5.57 g/m*3 10.84 C 0 km/h
3154 15-11-2010 13:00:00 10.48 C 5.62 g/m*3 10.48 C 0 km/h
3155 15-11-2010 14:00:00 10.24 C 5.5 g/m*3 10.24 C 0 km/h
3156 15-11-2010 15:00:00 9.68 C 5.54 g/m*3 9.68 C 0 km/h
3157 15-11-2010 16:00:00 8.96 C 5.7 g/m*3 8.96 C 0 km/h
3158 15-11-2010 17:00:00 8.16 C 5.81 g/m*3 8.16 C 0 km/h
3159 15-11-2010 18:00:00 8.14 C 5.89 g/m*3 8.14 C 0 km/h
3160 15-11-2010 19:00:00 7.98 C 5.88 g/m*3 7.98 C 0 km/h
3161 15-11-2010 20:00:00 7.6 C 5.95 g/m*3 7.6 C 0 km/h
3162 15-11-2010 21:00:00 7.16 C 5.93 g/m*3 7.16 C 0 km/h
3163 15-11-2010 22:00:00 6.94 C 5.97 g/m*3 6.94 C 0 km/h
3164 15-11-2010 23:00:00 6.68 C 5.99 g/m*3 6.68 C 0 km/h
3165 16-11-2010 00:00:00 5.88 C 5.95 g/m*3 5.88 C 0 km/h
3166 16-11-2010 01:00:00 5.2 C 5.87 g/m*3 5.2 C 0 km/h
3167 16-11-2010 02:00:00 5.48 C 6.1 g/m*3 5.48 C 0 km/h
3168 16-11-2010 03:00:00 5.86 C 6.21 g/m*3 5.86 C 0 km/h
3169 16-11-2010 04:00:00 5.22 C 5.97 g/m*3 5.22 C 0 km/h
3170 16-11-2010 05:00:00 5.5 C 6.07 g/m*3 5.5 C 0 km/h
3171 16-11-2010 06:00:00 5.22 C 5.83 g/m*3 5.22 C 0 km/h
3172 16-11-2010 07:00:00 5.18 C 5.79 g/m*3 5.18 C 0 km/h
3173 16-11-2010 08:00:00 5.42 C 5.83 g/m*3 5.42 C 0 km/h
3174 16-11-2010 09:00:00 5.88 C 5.82 g/m*3 5.88 C 0 km/h
3175 16-11-2010 10:00:00 6.26 C 5.74 g/m*3 6.26 C 0 km/h
Sensor: Nr:Datum:Temp:Abs-Feuchte:Windchill:Wind:
Aussen-T/F 3176 16-11-2010 11:00:00 6.56 C 5.65 g/m*3 6.56 C 0 km/h
3177 16-11-2010 12:00:00 7.34 C 5.53 g/m*3 7.34 C 0 km/h
3178 16-11-2010 13:00:00 7.54 C 5.59 g/m*3 7.54 C 0 km/h
3179 16-11-2010 14:00:00 7.68 C 5.52 g/m*3 7.68 C 0 km/h
3180 16-11-2010 15:00:00 7.24 C 5.51 g/m*3 7.24 C 0 km/h
3181 16-11-2010 16:00:00 7.08 C 5.53 g/m*3 7.08 C 0 km/h
3182 16-11-2010 17:00:00 6.8 C 5.64 g/m*3 6.8 C 0 km/h
3183 16-11-2010 18:00:00 6.22 C 5.67 g/m*3 6.22 C 0 km/h
3184 16-11-2010 19:00:00 5.92 C 5.75 g/m*3 5.92 C 0 km/h
3185 16-11-2010 20:00:00 5.56 C 5.71 g/m*3 5.56 C 0 km/h
3186 16-11-2010 21:00:00 5.42 C 5.66 g/m*3 5.42 C 0 km/h
3187 16-11-2010 22:00:00 5.24 C 5.61 g/m*3 5.24 C 0 km/h
3188 16-11-2010 23:00:00 4.6 C 5.58 g/m*3 4.6 C 0 km/h
3189 17-11-2010 00:00:00 4.78 C 5.72 g/m*3 4.78 C 0 km/h
3190 17-11-2010 01:00:00 5.08 C 5.62 g/m*3 5.08 C 0 km/h
3191 17-11-2010 02:00:00 5 C 5.59 g/m*3 5 C 0 km/h
3192 17-11-2010 03:00:00 4.92 C 5.66 g/m*3 4.92 C 0 km/h
3193 17-11-2010 04:00:00 4.8 C 5.65 g/m*3 4.8 C 0 km/h
3194 17-11-2010 05:00:00 4.74 C 5.72 g/m*3 4.74 C 0 km/h
3195 17-11-2010 06:00:00 4.7 C 5.73 g/m*3 4.7 C 0 km/h
3196 17-11-2010 07:00:00 4.72 C 5.67 g/m*3 4.72 C 0 km/h
3197 17-11-2010 08:00:00 5.1 C 4.98 g/m*3 5.1 C 0 km/h
3198 17-11-2010 09:00:00 5.56 C 4.64 g/m*3 5.56 C 0 km/h
3199 17-11-2010 10:00:00 5.78 C 4.66 g/m*3 5.78 C 0 km/h
3200 17-11-2010 11:00:00 6.04 C 4.6 g/m*3 6.04 C 0 km/h
Sensor: Nr:Datum:Temp:Abs-Feuchte:Windchill:Wind:
Aussen-T/F 3201 17-11-2010 12:00:00 6.28 C 4.6 g/m*3 6.28 C 0 km/h